CSN8031 ZGSZ-MMMX
Flight info
| Callsign | CSN8031 |
|---|---|
| Flight time | 19h 13m |
| Altitude | 33100 |
| Route | KEVAR W501 IDUMA W22 SHL G471 PLT A599 JTN G327 LAMEN/N0499F330 A593 SADLI Y590 BEDAR Y591 FUE Y23 KASTE Y81 TASOT Y57 LIGNI/N0490F350 Y57 POROT Y809 IDLAN Y812 ADNAP R591 ADGOR DCT CUTEE DCT 49N170E DCT LYYLE/N0492F370 DCT ROBBN DCT 52N160W 51N150W 50N145W/N0480F390 48N140W 42N130W DCT VESPA DCT AMAKR DCT OAK J1 AVE DCT SLI DCT OCN DCT TCATE DCT PPE/N0477F410 UT10 ZCL UT130 DARAN DARAN3B |
| Aircraft | A359/H-SDE2E3GHIJ3J4J5LM1ORWXY/LB1D1 |
Departure
| Time | 2026-04-23 06:23 |
|---|---|
| Airport | Shenzhen Bao'an International Airport (ZGSZ) |
Arrival
| Time | 2026-04-24 01:36 |
|---|---|
| Airport | Mexico City Benito Juárez International Airport (MMMX) |
| Time | Latitude | Longitude | Altitude | Speed | Heading |
|---|---|---|---|---|---|
| 2026-04-23 05:53 | 22.63113 | 113.80741 | 19 ft | 0 kts | 237° |
| 2026-04-23 06:07 | 22.63119 | 113.80751 | 21 ft | 4 kts | 237° |
| 2026-04-23 06:08 | 22.63134 | 113.80776 | 21 ft | 4 kts | 236° |
| 2026-04-23 06:08 | 22.63150 | 113.80799 | 22 ft | 4 kts | 226° |
| 2026-04-23 06:08 | 22.63169 | 113.80814 | 19 ft | 4 kts | 179° |
| 2026-04-23 06:08 | 22.63176 | 113.80814 | 19 ft | 3 kts | 152° |
| 2026-04-23 06:09 | 22.63150 | 113.80823 | 20 ft | 4 kts | 164° |
| 2026-04-23 06:09 | 22.63124 | 113.80833 | 18 ft | 4 kts | 159° |
| 2026-04-23 06:09 | 22.63101 | 113.80847 | 19 ft | 4 kts | 145° |
| 2026-04-23 06:09 | 22.63084 | 113.80868 | 17 ft | 4 kts | 120° |
| 2026-04-23 06:10 | 22.63080 | 113.80896 | 17 ft | 4 kts | 89° |
| 2026-04-23 06:10 | 22.63080 | 113.80904 | 17 ft | 0 kts | 84° |
| 2026-04-23 06:10 | 22.63081 | 113.80905 | 17 ft | 0 kts | 84° |
| 2026-04-23 06:13 | 22.63081 | 113.80906 | 17 ft | 1 kts | 84° |
| 2026-04-23 06:13 | 22.63085 | 113.80949 | 17 ft | 11 kts | 84° |
| 2026-04-23 06:13 | 22.63100 | 113.81039 | 18 ft | 12 kts | 79° |
| 2026-04-23 06:14 | 22.63122 | 113.81131 | 20 ft | 11 kts | 47° |
| 2026-04-23 06:14 | 22.63192 | 113.81141 | 17 ft | 11 kts | 340° |
| 2026-04-23 06:14 | 22.63259 | 113.81103 | 19 ft | 11 kts | 332° |
| 2026-04-23 06:14 | 22.63332 | 113.81064 | 18 ft | 12 kts | 334° |
| 2026-04-23 06:15 | 22.63411 | 113.81021 | 17 ft | 13 kts | 332° |
| 2026-04-23 06:15 | 22.63495 | 113.80973 | 17 ft | 14 kts | 333° |
| 2026-04-23 06:15 | 22.63586 | 113.80924 | 18 ft | 15 kts | 334° |
| 2026-04-23 06:15 | 22.63680 | 113.80873 | 17 ft | 16 kts | 334° |
| 2026-04-23 06:16 | 22.63779 | 113.80821 | 20 ft | 17 kts | 334° |
| 2026-04-23 06:16 | 22.63888 | 113.80763 | 17 ft | 18 kts | 334° |
| 2026-04-23 06:16 | 22.63916 | 113.80686 | 18 ft | 11 kts | 249° |
| 2026-04-23 06:16 | 22.63878 | 113.80605 | 17 ft | 14 kts | 242° |
| 2026-04-23 06:17 | 22.63831 | 113.80503 | 18 ft | 17 kts | 244° |
| 2026-04-23 06:17 | 22.63782 | 113.80401 | 19 ft | 7 kts | 242° |
| 2026-04-23 06:17 | 22.63760 | 113.80356 | 19 ft | 9 kts | 242° |
| 2026-04-23 06:17 | 22.63728 | 113.80290 | 17 ft | 9 kts | 243° |
| 2026-04-23 06:18 | 22.63703 | 113.80238 | 18 ft | 10 kts | 244° |
| 2026-04-23 06:18 | 22.63681 | 113.80189 | 19 ft | 12 kts | 244° |
| 2026-04-23 06:18 | 22.63635 | 113.80093 | 18 ft | 16 kts | 242° |
| 2026-04-23 06:18 | 22.63574 | 113.79973 | 18 ft | 20 kts | 240° |
| 2026-04-23 06:19 | 22.63521 | 113.79855 | 19 ft | 16 kts | 246° |
| 2026-04-23 06:19 | 22.63425 | 113.79821 | 18 ft | 18 kts | 166° |
| 2026-04-23 06:19 | 22.63303 | 113.79878 | 18 ft | 21 kts | 151° |
| 2026-04-23 06:19 | 22.63160 | 113.79955 | 17 ft | 24 kts | 153° |
| 2026-04-23 06:20 | 22.63000 | 113.80045 | 17 ft | 28 kts | 153° |
| 2026-04-23 06:20 | 22.62820 | 113.80146 | 18 ft | 30 kts | 154° |
| 2026-04-23 06:20 | 22.62637 | 113.80243 | 17 ft | 22 kts | 153° |
| 2026-04-23 06:20 | 22.62520 | 113.80307 | 18 ft | 18 kts | 158° |
| 2026-04-23 06:21 | 22.62457 | 113.80274 | 17 ft | 11 kts | 234° |
| 2026-04-23 06:21 | 22.62414 | 113.80193 | 17 ft | 13 kts | 240° |
| 2026-04-23 06:21 | 22.62420 | 113.80155 | 18 ft | 5 kts | 302° |
| 2026-04-23 06:21 | 22.62444 | 113.80135 | 19 ft | 15 kts | 331° |
| 2026-04-23 06:22 | 22.62703 | 113.79990 | 17 ft | 70 kts | 333° |
| 2026-04-23 06:22 | 22.63303 | 113.79660 | 20 ft | 122 kts | 333° |
| 2026-04-23 06:22 | 22.64207 | 113.79163 | 19 ft | 168 kts | 333° |
| 2026-04-23 06:22 | 22.65295 | 113.78562 | 538 ft | 162 kts | 330° |
| 2026-04-23 06:23 | 22.66236 | 113.78012 | 1162 ft | 157 kts | 327° |
| 2026-04-23 06:23 | 22.67089 | 113.77326 | 1447 ft | 153 kts | 314° |
| 2026-04-23 06:23 | 22.67830 | 113.76578 | 1861 ft | 140 kts | 313° |
| 2026-04-23 06:23 | 22.68604 | 113.75837 | 1890 ft | 159 kts | 313° |
| 2026-04-23 06:24 | 22.69440 | 113.74976 | 1953 ft | 171 kts | 309° |
| 2026-04-23 06:24 | 22.70260 | 113.73986 | 2174 ft | 182 kts | 308° |
| 2026-04-23 06:24 | 22.71145 | 113.72945 | 2417 ft | 195 kts | 310° |
| 2026-04-23 06:24 | 22.72133 | 113.71861 | 2621 ft | 208 kts | 311° |
| 2026-04-23 06:25 | 22.73199 | 113.70743 | 2838 ft | 219 kts | 311° |
| 2026-04-23 06:25 | 22.74344 | 113.69566 | 2995 ft | 235 kts | 312° |
| 2026-04-23 06:25 | 22.75641 | 113.68421 | 3269 ft | 248 kts | 325° |
| 2026-04-23 06:25 | 22.77309 | 113.67866 | 3637 ft | 260 kts | 355° |
| 2026-04-23 06:26 | 22.79083 | 113.68334 | 3976 ft | 270 kts | 30° |
| 2026-04-23 06:26 | 22.80396 | 113.69790 | 4323 ft | 275 kts | 64° |
| 2026-04-23 06:26 | 22.80829 | 113.71781 | 4682 ft | 273 kts | 92° |
| 2026-04-23 06:26 | 22.81077 | 113.73841 | 5037 ft | 279 kts | 74° |
| 2026-04-23 06:27 | 22.81762 | 113.75816 | 5487 ft | 282 kts | 67° |
| 2026-04-23 06:27 | 22.82548 | 113.77766 | 5969 ft | 283 kts | 66° |
| 2026-04-23 06:27 | 22.83350 | 113.79724 | 6396 ft | 286 kts | 66° |
| 2026-04-23 06:27 | 22.84159 | 113.81703 | 6783 ft | 290 kts | 66° |
| 2026-04-23 06:28 | 22.84990 | 113.83745 | 6992 ft | 302 kts | 66° |
| 2026-04-23 06:28 | 22.85851 | 113.85851 | 7310 ft | 309 kts | 66° |
| 2026-04-23 06:28 | 22.86727 | 113.87994 | 7749 ft | 312 kts | 66° |
| 2026-04-23 06:28 | 22.87617 | 113.90150 | 8200 ft | 315 kts | 64° |
| 2026-04-23 06:29 | 22.88856 | 113.92098 | 8622 ft | 315 kts | 39° |
| 2026-04-23 06:29 | 22.90720 | 113.93249 | 9064 ft | 307 kts | 9° |
| 2026-04-23 06:29 | 22.92778 | 113.93350 | 9507 ft | 295 kts | 342° |
| 2026-04-23 06:29 | 22.94736 | 113.92710 | 9970 ft | 291 kts | 333° |
| 2026-04-23 06:30 | 22.96622 | 113.91821 | 10190 ft | 301 kts | 328° |
| 2026-04-23 06:30 | 22.98521 | 113.90784 | 10384 ft | 312 kts | 327° |
| 2026-04-23 06:30 | 23.00485 | 113.89666 | 10578 ft | 324 kts | 327° |
| 2026-04-23 06:30 | 23.02520 | 113.88519 | 10785 ft | 335 kts | 327° |
| 2026-04-23 06:31 | 23.04640 | 113.87357 | 10958 ft | 347 kts | 328° |
| 2026-04-23 06:31 | 23.06971 | 113.86474 | 11120 ft | 365 kts | 344° |
| 2026-04-23 06:31 | 23.09569 | 113.86405 | 11261 ft | 386 kts | 6° |
| 2026-04-23 06:31 | 23.12153 | 113.87381 | 11455 ft | 402 kts | 24° |
| 2026-04-23 06:32 | 23.14515 | 113.88989 | 11771 ft | 409 kts | 33° |
| 2026-04-23 06:32 | 23.16766 | 113.90906 | 12143 ft | 411 kts | 39° |
| 2026-04-23 06:32 | 23.18928 | 113.92915 | 12620 ft | 411 kts | 38° |
| 2026-04-23 06:32 | 23.21115 | 113.94968 | 12884 ft | 418 kts | 41° |
| 2026-04-23 06:33 | 23.23322 | 113.97043 | 13256 ft | 421 kts | 38° |
| 2026-04-23 06:33 | 23.25583 | 113.99083 | 13601 ft | 424 kts | 37° |
| 2026-04-23 06:33 | 23.27891 | 114.01110 | 13926 ft | 429 kts | 36° |
| 2026-04-23 06:33 | 23.30226 | 114.03125 | 14338 ft | 430 kts | 36° |
| 2026-04-23 06:34 | 23.32566 | 114.05117 | 14829 ft | 428 kts | 35° |
| 2026-04-23 06:34 | 23.34941 | 114.07124 | 15099 ft | 432 kts | 35° |
| 2026-04-23 06:34 | 23.37328 | 114.09139 | 15322 ft | 436 kts | 35° |
| 2026-04-23 06:34 | 23.39729 | 114.11171 | 15642 ft | 438 kts | 35° |
| 2026-04-23 06:35 | 23.42136 | 114.13215 | 16029 ft | 440 kts | 35° |
| 2026-04-23 06:35 | 23.44549 | 114.15270 | 16340 ft | 441 kts | 35° |
| 2026-04-23 06:35 | 23.46973 | 114.17341 | 16626 ft | 443 kts | 35° |
| 2026-04-23 06:35 | 23.49398 | 114.19418 | 16927 ft | 445 kts | 35° |
| 2026-04-23 06:36 | 23.51831 | 114.21525 | 17149 ft | 447 kts | 34° |
| 2026-04-23 06:36 | 23.54297 | 114.23582 | 17451 ft | 448 kts | 35° |
| 2026-04-23 06:36 | 23.56766 | 114.25677 | 17747 ft | 450 kts | 35° |
| 2026-04-23 06:36 | 23.59228 | 114.27792 | 18027 ft | 451 kts | 36° |
| 2026-04-23 06:37 | 23.61688 | 114.29916 | 18278 ft | 453 kts | 36° |
| 2026-04-23 06:37 | 23.64166 | 114.32055 | 18571 ft | 453 kts | 35° |
| 2026-04-23 06:37 | 23.66610 | 114.34157 | 18911 ft | 453 kts | 34° |
| 2026-04-23 06:37 | 23.69120 | 114.36248 | 19091 ft | 455 kts | 33° |
| 2026-04-23 06:38 | 23.71664 | 114.38321 | 19320 ft | 457 kts | 33° |
| 2026-04-23 06:38 | 23.74216 | 114.40389 | 19575 ft | 457 kts | 34° |
| 2026-04-23 06:38 | 23.76767 | 114.42473 | 19786 ft | 459 kts | 33° |
| 2026-04-23 06:38 | 23.79333 | 114.44566 | 19978 ft | 461 kts | 33° |
| 2026-04-23 06:39 | 23.81909 | 114.46666 | 20205 ft | 463 kts | 33° |
| 2026-04-23 06:39 | 23.84492 | 114.48778 | 20438 ft | 464 kts | 33° |
| 2026-04-23 06:39 | 23.87080 | 114.50899 | 20666 ft | 466 kts | 33° |
| 2026-04-23 06:39 | 23.89675 | 114.53032 | 20875 ft | 468 kts | 33° |
| 2026-04-23 06:40 | 23.92287 | 114.55183 | 21041 ft | 471 kts | 33° |
| 2026-04-23 06:40 | 23.94907 | 114.57342 | 21284 ft | 473 kts | 33° |
| 2026-04-23 06:40 | 23.97543 | 114.59516 | 21542 ft | 476 kts | 33° |
| 2026-04-23 06:40 | 24.00191 | 114.61697 | 21810 ft | 477 kts | 33° |
| 2026-04-23 06:41 | 24.02846 | 114.63885 | 22087 ft | 479 kts | 33° |
| 2026-04-23 06:41 | 24.05478 | 114.66059 | 22328 ft | 481 kts | 33° |
| 2026-04-23 06:41 | 24.08193 | 114.68302 | 22580 ft | 484 kts | 33° |
| 2026-04-23 06:41 | 24.10848 | 114.70496 | 22806 ft | 487 kts | 33° |
| 2026-04-23 06:42 | 24.13557 | 114.72733 | 23078 ft | 488 kts | 33° |
| 2026-04-23 06:42 | 24.16275 | 114.74981 | 23213 ft | 492 kts | 33° |
| 2026-04-23 06:42 | 24.19015 | 114.77248 | 23405 ft | 494 kts | 33° |
| 2026-04-23 06:42 | 24.21765 | 114.79525 | 23604 ft | 496 kts | 33° |
| 2026-04-23 06:43 | 24.24518 | 114.81804 | 23780 ft | 497 kts | 33° |
| 2026-04-23 06:43 | 24.27409 | 114.83844 | 23946 ft | 493 kts | 23° |
| 2026-04-23 06:43 | 24.30542 | 114.85319 | 24115 ft | 486 kts | 12° |
| 2026-04-23 06:43 | 24.33772 | 114.86363 | 24294 ft | 485 kts | 9° |
| 2026-04-23 06:44 | 24.37048 | 114.87258 | 24491 ft | 485 kts | 7° |
| 2026-04-23 06:44 | 24.40352 | 114.88075 | 24680 ft | 487 kts | 6° |
| 2026-04-23 06:44 | 24.43675 | 114.88866 | 24843 ft | 490 kts | 5° |
| 2026-04-23 06:44 | 24.47013 | 114.89654 | 25011 ft | 492 kts | 5° |
| 2026-04-23 06:45 | 24.50373 | 114.90456 | 25185 ft | 495 kts | 5° |
| 2026-04-23 06:45 | 24.53737 | 114.91271 | 25437 ft | 495 kts | 5° |
| 2026-04-23 06:45 | 24.57105 | 114.92098 | 25686 ft | 497 kts | 5° |
| 2026-04-23 06:45 | 24.60486 | 114.92936 | 25919 ft | 498 kts | 5° |
| 2026-04-23 06:46 | 24.63871 | 114.93773 | 26141 ft | 500 kts | 5° |
| 2026-04-23 06:46 | 24.67278 | 114.94616 | 26364 ft | 502 kts | 5° |
| 2026-04-23 06:46 | 24.70695 | 114.95463 | 26607 ft | 505 kts | 5° |
| 2026-04-23 06:46 | 24.74131 | 114.96314 | 26842 ft | 506 kts | 5° |
| 2026-04-23 06:47 | 24.77524 | 114.97157 | 27090 ft | 508 kts | 5° |
| 2026-04-23 06:47 | 24.80976 | 114.98009 | 27335 ft | 509 kts | 4° |
| 2026-04-23 06:47 | 24.84443 | 114.98852 | 27559 ft | 511 kts | 4° |
| 2026-04-23 06:47 | 24.87922 | 114.99692 | 27777 ft | 513 kts | 4° |
| 2026-04-23 06:48 | 24.91410 | 115.00534 | 28026 ft | 514 kts | 4° |
| 2026-04-23 06:48 | 24.94911 | 115.01382 | 28282 ft | 516 kts | 4° |
| 2026-04-23 06:48 | 24.98416 | 115.02235 | 28492 ft | 517 kts | 4° |
| 2026-04-23 06:48 | 25.01934 | 115.03093 | 28701 ft | 519 kts | 4° |
| 2026-04-23 06:49 | 25.05467 | 115.03955 | 28919 ft | 521 kts | 4° |
| 2026-04-23 06:49 | 25.09003 | 115.04818 | 29126 ft | 522 kts | 4° |
| 2026-04-23 06:49 | 25.12567 | 115.05689 | 29324 ft | 524 kts | 4° |
| 2026-04-23 06:49 | 25.16125 | 115.06559 | 29535 ft | 525 kts | 4° |
| 2026-04-23 06:50 | 25.19697 | 115.07434 | 29715 ft | 526 kts | 4° |
| 2026-04-23 06:50 | 25.23280 | 115.08312 | 29955 ft | 528 kts | 3° |
| 2026-04-23 06:50 | 25.26875 | 115.09190 | 30060 ft | 530 kts | 3° |
| 2026-04-23 06:50 | 25.30485 | 115.09817 | 30202 ft | 520 kts | 355° |
| 2026-04-23 06:51 | 25.34057 | 115.09856 | 30344 ft | 507 kts | 346° |
| 2026-04-23 06:51 | 25.37499 | 115.09273 | 30471 ft | 494 kts | 336° |
| 2026-04-23 06:51 | 25.40716 | 115.08101 | 30636 ft | 482 kts | 328° |
| 2026-04-23 06:51 | 25.43788 | 115.06659 | 30875 ft | 478 kts | 326° |
| 2026-04-23 06:52 | 25.46808 | 115.05137 | 31146 ft | 476 kts | 325° |
| 2026-04-23 06:52 | 25.49798 | 115.03584 | 31347 ft | 474 kts | 325° |
| 2026-04-23 06:52 | 25.52780 | 115.02020 | 31565 ft | 474 kts | 324° |
| 2026-04-23 06:52 | 25.55764 | 115.00455 | 31738 ft | 474 kts | 324° |
| 2026-04-23 06:53 | 25.58742 | 114.98901 | 31944 ft | 473 kts | 324° |
| 2026-04-23 06:53 | 25.61723 | 114.97353 | 32118 ft | 473 kts | 324° |
| 2026-04-23 06:53 | 25.64702 | 114.95813 | 32307 ft | 472 kts | 324° |
| 2026-04-23 06:53 | 25.67682 | 114.94278 | 32485 ft | 472 kts | 324° |
| 2026-04-23 06:54 | 25.70693 | 114.92808 | 32630 ft | 477 kts | 329° |
| 2026-04-23 06:54 | 25.73900 | 114.91714 | 32765 ft | 489 kts | 337° |
| 2026-04-23 06:54 | 25.77314 | 114.91150 | 32908 ft | 503 kts | 346° |
| 2026-04-23 06:54 | 25.80863 | 114.91230 | 33021 ft | 519 kts | 356° |
| 2026-04-23 06:55 | 25.84439 | 114.92036 | 33037 ft | 529 kts | 12° |
| 2026-04-23 06:55 | 25.87854 | 114.93576 | 33054 ft | 532 kts | 24° |
| 2026-04-23 06:55 | 25.93689 | 114.98664 | 33053 ft | 542 kts | 46° |
| 2026-04-23 06:56 | 25.95913 | 115.02066 | 33037 ft | 547 kts | 58° |
| 2026-04-23 06:56 | 25.97682 | 115.05807 | 33042 ft | 547 kts | 57° |
| 2026-04-23 06:56 | 26.02152 | 115.12561 | 33053 ft | 541 kts | 46° |
| 2026-04-23 06:57 | 26.07172 | 115.18795 | 33052 ft | 541 kts | 44° |
| 2026-04-23 06:57 | 26.12306 | 115.24911 | 33066 ft | 541 kts | 43° |
| 2026-04-23 06:58 | 26.17455 | 115.31013 | 33036 ft | 544 kts | 43° |
| 2026-04-23 06:58 | 26.22606 | 115.37155 | 33052 ft | 541 kts | 44° |
| 2026-04-23 06:59 | 26.27725 | 115.43279 | 33072 ft | 541 kts | 44° |
| 2026-04-23 06:59 | 26.32857 | 115.49433 | 33051 ft | 543 kts | 43° |
| 2026-04-23 07:00 | 26.38002 | 115.55607 | 33060 ft | 543 kts | 43° |
| 2026-04-23 07:00 | 26.43145 | 115.61787 | 33058 ft | 543 kts | 43° |
| 2026-04-23 07:01 | 26.48283 | 115.67963 | 33068 ft | 543 kts | 43° |
| 2026-04-23 07:01 | 26.53427 | 115.74154 | 33068 ft | 545 kts | 43° |
| 2026-04-23 07:02 | 26.58588 | 115.80390 | 33059 ft | 547 kts | 43° |
| 2026-04-23 07:02 | 26.63754 | 115.86647 | 33058 ft | 547 kts | 43° |
| 2026-04-23 07:03 | 26.68917 | 115.92900 | 33060 ft | 547 kts | 43° |
| 2026-04-23 07:03 | 26.74081 | 115.99164 | 33057 ft | 546 kts | 43° |
| 2026-04-23 07:04 | 26.79232 | 116.05417 | 33059 ft | 547 kts | 43° |
| 2026-04-23 07:04 | 26.84351 | 116.11641 | 33057 ft | 547 kts | 43° |
| 2026-04-23 07:05 | 26.88666 | 116.16896 | 33055 ft | 547 kts | 43° |
| 2026-04-23 07:05 | 26.94690 | 116.24231 | 33076 ft | 547 kts | 43° |
| 2026-04-23 07:06 | 26.98995 | 116.29422 | 33063 ft | 546 kts | 42° |
| 2026-04-23 07:06 | 27.04175 | 116.35649 | 33062 ft | 546 kts | 42° |
| 2026-04-23 07:07 | 27.09347 | 116.41883 | 33064 ft | 546 kts | 43° |
| 2026-04-23 07:07 | 27.14508 | 116.48125 | 33066 ft | 546 kts | 43° |
| 2026-04-23 07:08 | 27.19672 | 116.54385 | 33069 ft | 547 kts | 43° |
| 2026-04-23 07:08 | 27.24879 | 116.60607 | 33061 ft | 545 kts | 41° |
| 2026-04-23 07:09 | 27.30158 | 116.66714 | 33054 ft | 544 kts | 41° |
| 2026-04-23 07:09 | 27.35433 | 116.72820 | 33066 ft | 544 kts | 41° |
| 2026-04-23 07:10 | 27.40703 | 116.78949 | 33065 ft | 544 kts | 41° |
| 2026-04-23 07:10 | 27.45960 | 116.85090 | 33064 ft | 545 kts | 41° |
| 2026-04-23 07:11 | 27.51179 | 116.91207 | 33058 ft | 544 kts | 41° |
| 2026-04-23 07:12 | 27.59063 | 117.00370 | 33053 ft | 542 kts | 41° |
| 2026-04-23 07:12 | 27.64348 | 117.06456 | 33043 ft | 544 kts | 40° |
| 2026-04-23 07:13 | 27.69635 | 117.12572 | 33046 ft | 544 kts | 40° |
| 2026-04-23 07:13 | 27.74924 | 117.18690 | 33052 ft | 545 kts | 41° |
| 2026-04-23 07:14 | 27.80221 | 117.24840 | 32995 ft | 548 kts | 41° |
| 2026-04-23 07:14 | 27.85526 | 117.31042 | 33048 ft | 550 kts | 41° |
| 2026-04-23 07:15 | 27.90855 | 117.37248 | 33039 ft | 550 kts | 41° |
| 2026-04-23 07:15 | 27.96173 | 117.43460 | 33050 ft | 550 kts | 41° |
| 2026-04-23 07:16 | 28.01496 | 117.49681 | 33037 ft | 551 kts | 41° |
| 2026-04-23 07:16 | 28.06858 | 117.55935 | 32985 ft | 555 kts | 41° |
| 2026-04-23 07:17 | 28.12215 | 117.62220 | 32981 ft | 554 kts | 41° |
| 2026-04-23 07:17 | 28.17559 | 117.68514 | 32978 ft | 554 kts | 41° |
| 2026-04-23 07:18 | 28.22901 | 117.74804 | 32972 ft | 554 kts | 41° |
| 2026-04-23 07:18 | 28.28253 | 117.81110 | 32977 ft | 554 kts | 41° |
| 2026-04-23 07:19 | 28.33595 | 117.87413 | 32970 ft | 554 kts | 41° |
| 2026-04-23 07:19 | 28.38932 | 117.93721 | 32969 ft | 554 kts | 41° |
| 2026-04-23 07:20 | 28.44253 | 118.00055 | 32984 ft | 554 kts | 42° |
| 2026-04-23 07:20 | 28.49489 | 118.06498 | 32974 ft | 555 kts | 43° |
| 2026-04-23 07:21 | 28.54723 | 118.12987 | 32959 ft | 558 kts | 43° |
| 2026-04-23 07:21 | 28.59982 | 118.19494 | 32952 ft | 559 kts | 43° |
| 2026-04-23 07:22 | 28.65249 | 118.26002 | 32962 ft | 559 kts | 43° |
| 2026-04-23 07:22 | 28.70514 | 118.32512 | 32944 ft | 559 kts | 43° |
| 2026-04-23 07:23 | 28.75775 | 118.39028 | 32942 ft | 559 kts | 44° |
| 2026-04-23 07:23 | 28.81044 | 118.45567 | 32942 ft | 560 kts | 44° |
| 2026-04-23 07:23 | 28.83674 | 118.48852 | 32822 ft | 561 kts | 44° |
| 2026-04-23 07:24 | 28.86303 | 118.52131 | 32975 ft | 561 kts | 44° |
| 2026-04-23 07:24 | 28.91598 | 118.58705 | 32939 ft | 562 kts | 44° |
| 2026-04-23 07:25 | 28.96878 | 118.65279 | 32934 ft | 561 kts | 44° |
| 2026-04-23 07:25 | 29.02143 | 118.71854 | 32936 ft | 560 kts | 44° |
| 2026-04-23 07:26 | 29.07399 | 118.78430 | 32932 ft | 560 kts | 44° |
| 2026-04-23 07:26 | 29.12621 | 118.84965 | 32928 ft | 560 kts | 44° |
| 2026-04-23 07:27 | 29.17863 | 118.91548 | 32933 ft | 559 kts | 44° |
| 2026-04-23 07:27 | 29.23089 | 118.98148 | 32924 ft | 559 kts | 44° |
| 2026-04-23 07:28 | 29.28327 | 119.04717 | 32929 ft | 560 kts | 44° |
| 2026-04-23 07:28 | 29.33569 | 119.11320 | 32923 ft | 560 kts | 44° |
| 2026-04-23 07:29 | 29.38804 | 119.17940 | 32924 ft | 560 kts | 44° |
| 2026-04-23 07:29 | 29.44029 | 119.24571 | 32954 ft | 560 kts | 45° |
| 2026-04-23 07:30 | 29.49257 | 119.31223 | 32927 ft | 562 kts | 45° |
| 2026-04-23 07:30 | 29.54492 | 119.37894 | 32924 ft | 562 kts | 45° |
| 2026-04-23 07:31 | 29.59729 | 119.44579 | 32935 ft | 562 kts | 45° |
| 2026-04-23 07:31 | 29.64971 | 119.51259 | 32931 ft | 563 kts | 45° |
| 2026-04-23 07:32 | 29.70188 | 119.57996 | 32929 ft | 565 kts | 46° |
| 2026-04-23 07:32 | 29.75532 | 119.64612 | 32937 ft | 562 kts | 38° |
| 2026-04-23 07:33 | 29.81879 | 119.69720 | 32936 ft | 555 kts | 27° |
| 2026-04-23 07:33 | 29.88512 | 119.74247 | 32940 ft | 553 kts | 25° |
| 2026-04-23 07:34 | 29.95181 | 119.78672 | 32936 ft | 553 kts | 25° |
| 2026-04-23 07:34 | 30.01848 | 119.83122 | 32926 ft | 554 kts | 25° |
| 2026-04-23 07:35 | 30.08516 | 119.87609 | 32941 ft | 555 kts | 25° |
| 2026-04-23 07:35 | 30.15176 | 119.92115 | 32943 ft | 555 kts | 25° |
| 2026-04-23 07:36 | 30.21841 | 119.96626 | 32944 ft | 555 kts | 25° |
| 2026-04-23 07:36 | 30.28506 | 120.01144 | 32944 ft | 555 kts | 25° |
| 2026-04-23 07:37 | 30.35172 | 120.05673 | 32947 ft | 555 kts | 25° |
| 2026-04-23 07:37 | 30.41831 | 120.10203 | 32948 ft | 555 kts | 25° |
| 2026-04-23 07:38 | 30.48492 | 120.14743 | 32958 ft | 555 kts | 25° |
| 2026-04-23 07:38 | 30.55141 | 120.19289 | 32948 ft | 555 kts | 25° |
| 2026-04-23 07:39 | 30.61798 | 120.23835 | 32949 ft | 555 kts | 25° |
| 2026-04-23 07:39 | 30.68447 | 120.28384 | 32970 ft | 555 kts | 25° |
| 2026-04-23 07:40 | 30.75041 | 120.32907 | 32944 ft | 554 kts | 25° |
| 2026-04-23 07:40 | 30.81671 | 120.37465 | 32945 ft | 554 kts | 25° |
| 2026-04-23 07:41 | 30.87686 | 120.43179 | 32962 ft | 568 kts | 46° |
| 2026-04-23 07:41 | 30.90001 | 120.46915 | 32943 ft | 573 kts | 59° |
| 2026-04-23 07:41 | 30.91665 | 120.51138 | 32948 ft | 574 kts | 71° |
| 2026-04-23 07:42 | 30.94059 | 120.60021 | 32937 ft | 576 kts | 74° |
| 2026-04-23 07:42 | 30.96182 | 120.69015 | 32930 ft | 576 kts | 75° |
| 2026-04-23 07:43 | 30.98309 | 120.78011 | 32927 ft | 576 kts | 75° |
| 2026-04-23 07:43 | 31.00495 | 120.86989 | 32939 ft | 576 kts | 74° |
| 2026-04-23 07:44 | 31.02707 | 120.95973 | 32908 ft | 577 kts | 74° |
| 2026-04-23 07:44 | 31.04912 | 121.04957 | 32903 ft | 576 kts | 74° |
| 2026-04-23 07:45 | 31.07103 | 121.13938 | 32915 ft | 576 kts | 74° |
| 2026-04-23 07:45 | 31.09342 | 121.22846 | 32910 ft | 576 kts | 73° |
| 2026-04-23 07:46 | 31.11451 | 121.31848 | 32903 ft | 576 kts | 83° |
| 2026-04-23 07:46 | 31.11747 | 121.36484 | 32899 ft | 571 kts | 94° |
| 2026-04-23 07:46 | 31.11436 | 121.41088 | 32912 ft | 569 kts | 100° |
| 2026-04-23 07:47 | 31.10343 | 121.50211 | 32897 ft | 568 kts | 103° |
| 2026-04-23 07:47 | 31.09061 | 121.59317 | 32882 ft | 568 kts | 103° |
| 2026-04-23 07:48 | 31.07787 | 121.68413 | 32861 ft | 568 kts | 103° |
| 2026-04-23 07:48 | 31.06544 | 121.77508 | 32880 ft | 568 kts | 103° |
| 2026-04-23 07:49 | 31.05308 | 121.86615 | 32875 ft | 568 kts | 102° |
| 2026-04-23 07:49 | 31.04069 | 121.95703 | 32882 ft | 568 kts | 103° |
| 2026-04-23 07:50 | 31.02820 | 122.04795 | 32898 ft | 568 kts | 103° |
| 2026-04-23 07:50 | 31.01574 | 122.13815 | 32895 ft | 566 kts | 103° |
| 2026-04-23 07:51 | 31.00340 | 122.22863 | 32888 ft | 566 kts | 100° |
| 2026-04-23 07:51 | 30.99998 | 122.32067 | 32888 ft | 570 kts | 93° |
| 2026-04-23 07:52 | 30.99970 | 122.41297 | 32888 ft | 568 kts | 92° |
| 2026-04-23 07:52 | 31.00002 | 122.50492 | 32885 ft | 567 kts | 92° |
| 2026-04-23 07:53 | 31.00021 | 122.59683 | 32881 ft | 567 kts | 92° |
| 2026-04-23 07:53 | 31.00023 | 122.67310 | 32858 ft | 564 kts | 92° |
| 2026-04-23 07:54 | 31.00031 | 122.76465 | 32877 ft | 566 kts | 92° |
| 2026-04-23 07:54 | 31.00032 | 122.87138 | 32874 ft | 567 kts | 93° |
| 2026-04-23 07:55 | 31.00455 | 122.96284 | 32870 ft | 565 kts | 81° |
| 2026-04-23 07:55 | 31.02539 | 123.03527 | 32870 ft | 563 kts | 62° |
| 2026-04-23 07:56 | 31.06725 | 123.11153 | 32866 ft | 563 kts | 53° |
| 2026-04-23 07:56 | 31.11312 | 123.18577 | 32866 ft | 565 kts | 52° |
| 2026-04-23 07:57 | 31.15931 | 123.25984 | 32865 ft | 564 kts | 53° |
| 2026-04-23 07:57 | 31.20503 | 123.33415 | 32863 ft | 563 kts | 53° |
| 2026-04-23 07:58 | 31.25047 | 123.40869 | 32868 ft | 563 kts | 53° |
| 2026-04-23 07:58 | 31.29601 | 123.48364 | 32863 ft | 567 kts | 53° |
| 2026-04-23 07:59 | 31.34171 | 123.55900 | 32865 ft | 568 kts | 53° |
| 2026-04-23 07:59 | 31.38759 | 123.63424 | 32866 ft | 568 kts | 53° |
| 2026-04-23 08:00 | 31.43372 | 123.70955 | 32873 ft | 572 kts | 53° |
| 2026-04-23 08:00 | 31.48009 | 123.78550 | 32863 ft | 573 kts | 53° |
| 2026-04-23 08:01 | 31.52608 | 123.86109 | 32888 ft | 573 kts | 53° |
| 2026-04-23 08:01 | 31.57259 | 123.93772 | 32884 ft | 573 kts | 53° |
| 2026-04-23 08:02 | 31.61186 | 124.01844 | 32883 ft | 568 kts | 70° |
| 2026-04-23 08:02 | 31.63497 | 124.10664 | 32884 ft | 565 kts | 76° |
| 2026-04-23 08:03 | 31.65482 | 124.19586 | 32872 ft | 565 kts | 77° |
| 2026-04-23 08:03 | 31.67399 | 124.28456 | 32909 ft | 563 kts | 77° |
| 2026-04-23 08:04 | 31.69355 | 124.37396 | 32884 ft | 568 kts | 77° |
| 2026-04-23 08:04 | 31.71337 | 124.46397 | 32889 ft | 569 kts | 77° |
| 2026-04-23 08:05 | 31.73317 | 124.55387 | 32883 ft | 567 kts | 76° |
| 2026-04-23 08:05 | 31.75285 | 124.64358 | 32884 ft | 567 kts | 76° |
| 2026-04-23 08:06 | 31.77247 | 124.73337 | 32901 ft | 567 kts | 76° |
| 2026-04-23 08:06 | 31.79203 | 124.82331 | 32889 ft | 568 kts | 76° |
| 2026-04-23 08:07 | 31.81153 | 124.91330 | 32893 ft | 568 kts | 76° |
| 2026-04-23 08:07 | 31.82393 | 125.00447 | 32890 ft | 563 kts | 92° |
| 2026-04-23 08:08 | 31.81544 | 125.09496 | 32900 ft | 555 kts | 103° |
| 2026-04-23 08:08 | 31.80118 | 125.18389 | 32901 ft | 554 kts | 105° |
| 2026-04-23 08:09 | 31.78597 | 125.27275 | 32890 ft | 554 kts | 104° |
| 2026-04-23 08:09 | 31.77097 | 125.36161 | 32900 ft | 555 kts | 104° |
| 2026-04-23 08:10 | 31.75617 | 125.45065 | 32896 ft | 555 kts | 104° |
| 2026-04-23 08:10 | 31.73396 | 125.58425 | 32907 ft | 555 kts | 104° |
| 2026-04-23 08:11 | 31.72786 | 125.67481 | 32912 ft | 561 kts | 86° |
| 2026-04-23 08:11 | 31.74238 | 125.76494 | 32900 ft | 563 kts | 77° |
| 2026-04-23 08:12 | 31.76209 | 125.85412 | 32914 ft | 564 kts | 75° |
| 2026-04-23 08:12 | 31.78246 | 125.94327 | 32910 ft | 564 kts | 75° |
| 2026-04-23 08:13 | 31.80223 | 126.03190 | 32939 ft | 565 kts | 76° |
| 2026-04-23 08:13 | 31.82176 | 126.12131 | 32921 ft | 565 kts | 76° |
| 2026-04-23 08:14 | 31.84117 | 126.21078 | 32921 ft | 565 kts | 76° |
| 2026-04-23 08:14 | 31.85099 | 126.25619 | 33147 ft | 565 kts | 76° |
| 2026-04-23 08:14 | 31.86056 | 126.30044 | 32971 ft | 566 kts | 76° |
| 2026-04-23 08:15 | 31.87999 | 126.39053 | 32923 ft | 570 kts | 76° |
| 2026-04-23 08:15 | 31.89942 | 126.48090 | 32931 ft | 570 kts | 76° |
| 2026-04-23 08:16 | 31.91915 | 126.57138 | 32926 ft | 570 kts | 76° |
| 2026-04-23 08:16 | 31.93917 | 126.66159 | 32931 ft | 570 kts | 76° |
| 2026-04-23 08:17 | 31.95912 | 126.75190 | 32924 ft | 570 kts | 76° |
| 2026-04-23 08:17 | 31.97892 | 126.84219 | 32964 ft | 569 kts | 76° |
| 2026-04-23 08:18 | 31.99864 | 126.93263 | 32938 ft | 571 kts | 76° |
| 2026-04-23 08:18 | 32.01833 | 127.02326 | 32933 ft | 571 kts | 76° |
| 2026-04-23 08:19 | 32.03901 | 127.11360 | 32941 ft | 570 kts | 70° |
| 2026-04-23 08:19 | 32.06902 | 127.19997 | 32937 ft | 570 kts | 65° |
| 2026-04-23 08:20 | 32.10110 | 127.28540 | 32941 ft | 570 kts | 64° |
| 2026-04-23 08:20 | 32.13348 | 127.37064 | 32945 ft | 569 kts | 65° |
| 2026-04-23 08:21 | 32.16567 | 127.45599 | 32951 ft | 569 kts | 65° |
| 2026-04-23 08:21 | 32.19766 | 127.54141 | 32953 ft | 568 kts | 65° |
| 2026-04-23 08:22 | 32.22956 | 127.62693 | 32948 ft | 570 kts | 65° |
| 2026-04-23 08:22 | 32.26150 | 127.71276 | 32952 ft | 570 kts | 65° |
| 2026-04-23 08:23 | 32.29331 | 127.79846 | 32951 ft | 569 kts | 65° |
| 2026-04-23 08:23 | 32.32507 | 127.88421 | 32955 ft | 570 kts | 65° |
| 2026-04-23 08:24 | 32.35685 | 127.97019 | 32913 ft | 570 kts | 66° |
| 2026-04-23 08:24 | 32.38831 | 128.05560 | 32954 ft | 566 kts | 65° |
| 2026-04-23 08:25 | 32.41985 | 128.14137 | 32948 ft | 569 kts | 65° |
| 2026-04-23 08:25 | 32.45135 | 128.22730 | 32948 ft | 568 kts | 65° |
| 2026-04-23 08:26 | 32.48268 | 128.31297 | 32948 ft | 567 kts | 65° |
| 2026-04-23 08:26 | 32.51393 | 128.39864 | 32957 ft | 566 kts | 65° |
| 2026-04-23 08:27 | 32.54521 | 128.48460 | 32930 ft | 570 kts | 65° |
| 2026-04-23 08:27 | 32.57658 | 128.57101 | 32903 ft | 571 kts | 65° |
| 2026-04-23 08:28 | 32.60788 | 128.65750 | 32952 ft | 570 kts | 66° |
| 2026-04-23 08:28 | 32.63893 | 128.74346 | 33014 ft | 568 kts | 65° |
| 2026-04-23 08:29 | 32.66836 | 128.83090 | 33017 ft | 572 kts | 74° |
| 2026-04-23 08:29 | 32.68898 | 128.92210 | 33006 ft | 572 kts | 76° |
| 2026-04-23 08:30 | 32.70775 | 129.01374 | 32976 ft | 571 kts | 77° |
| 2026-04-23 08:30 | 32.72606 | 129.10488 | 32926 ft | 572 kts | 76° |
| 2026-04-23 08:31 | 32.74463 | 129.19678 | 32880 ft | 572 kts | 76° |
| 2026-04-23 08:31 | 32.76326 | 129.28875 | 32847 ft | 573 kts | 76° |
| 2026-04-23 08:32 | 32.78185 | 129.38074 | 32842 ft | 572 kts | 77° |
| 2026-04-23 08:32 | 32.80037 | 129.47278 | 32852 ft | 573 kts | 77° |
| 2026-04-23 08:33 | 32.81884 | 129.56499 | 32885 ft | 573 kts | 77° |
| 2026-04-23 08:33 | 32.83723 | 129.65717 | 32936 ft | 572 kts | 77° |
| 2026-04-23 08:34 | 32.85442 | 129.74956 | 32994 ft | 572 kts | 80° |
| 2026-04-23 08:34 | 32.86743 | 129.84281 | 33043 ft | 573 kts | 82° |
| 2026-04-23 08:35 | 32.87991 | 129.93646 | 33041 ft | 573 kts | 81° |
| 2026-04-23 08:35 | 32.89297 | 130.03004 | 33015 ft | 573 kts | 81° |
| 2026-04-23 08:36 | 32.90635 | 130.12353 | 32973 ft | 573 kts | 81° |
| 2026-04-23 08:36 | 32.91972 | 130.21695 | 32910 ft | 573 kts | 81° |
| 2026-04-23 08:37 | 32.93293 | 130.30989 | 32858 ft | 574 kts | 81° |
| 2026-04-23 08:37 | 32.94614 | 130.40359 | 32836 ft | 574 kts | 81° |
| 2026-04-23 08:38 | 32.95926 | 130.49723 | 32851 ft | 574 kts | 81° |
| 2026-04-23 08:38 | 32.97231 | 130.59092 | 32905 ft | 574 kts | 81° |
| 2026-04-23 08:39 | 32.98532 | 130.68479 | 32938 ft | 574 kts | 81° |
| 2026-04-23 08:39 | 32.99825 | 130.77871 | 32961 ft | 574 kts | 81° |
| 2026-04-23 08:40 | 33.01110 | 130.87253 | 32960 ft | 574 kts | 82° |
| 2026-04-23 08:40 | 33.01752 | 130.91957 | 32735 ft | 574 kts | 81° |
| 2026-04-23 08:40 | 33.02390 | 130.96648 | 32908 ft | 573 kts | 81° |
| 2026-04-23 08:41 | 33.03456 | 131.04512 | 32925 ft | 573 kts | 81° |
| 2026-04-23 08:41 | 33.04712 | 131.13838 | 32880 ft | 574 kts | 81° |
| 2026-04-23 08:42 | 33.05968 | 131.23217 | 32877 ft | 572 kts | 81° |
| 2026-04-23 08:42 | 33.07214 | 131.32585 | 32893 ft | 572 kts | 81° |
| 2026-04-23 08:43 | 33.08459 | 131.41963 | 32884 ft | 573 kts | 81° |
| 2026-04-23 08:43 | 33.09698 | 131.51360 | 32875 ft | 573 kts | 81° |
| 2026-04-23 08:44 | 33.10923 | 131.60755 | 32873 ft | 573 kts | 81° |
| 2026-04-23 08:44 | 33.12142 | 131.70155 | 32870 ft | 573 kts | 81° |
| 2026-04-23 08:45 | 33.13355 | 131.79559 | 32870 ft | 574 kts | 81° |
| 2026-04-23 08:45 | 33.14561 | 131.88967 | 32863 ft | 574 kts | 81° |
| 2026-04-23 08:46 | 33.15762 | 131.98380 | 32858 ft | 574 kts | 81° |
| 2026-04-23 08:46 | 33.16954 | 132.07784 | 32861 ft | 573 kts | 81° |
| 2026-04-23 08:47 | 33.18147 | 132.17215 | 32846 ft | 575 kts | 81° |
| 2026-04-23 08:47 | 33.19332 | 132.26665 | 32841 ft | 575 kts | 82° |
| 2026-04-23 08:48 | 33.20504 | 132.36108 | 32836 ft | 575 kts | 82° |
| 2026-04-23 08:48 | 33.21670 | 132.45558 | 32823 ft | 575 kts | 81° |
| 2026-04-23 08:49 | 33.22834 | 132.55033 | 32820 ft | 578 kts | 81° |
| 2026-04-23 08:49 | 33.23992 | 132.64534 | 32814 ft | 577 kts | 82° |
| 2026-04-23 08:50 | 33.25144 | 132.74017 | 32811 ft | 577 kts | 82° |
| 2026-04-23 08:50 | 33.26291 | 132.83506 | 32808 ft | 578 kts | 81° |
| 2026-04-23 08:51 | 33.27433 | 132.93021 | 32806 ft | 578 kts | 82° |
| 2026-04-23 08:51 | 33.28561 | 133.02523 | 32798 ft | 577 kts | 82° |
| 2026-04-23 08:52 | 33.29679 | 133.11957 | 32804 ft | 577 kts | 82° |
| 2026-04-23 08:52 | 33.30795 | 133.21461 | 32802 ft | 578 kts | 82° |
| 2026-04-23 08:53 | 33.31899 | 133.30981 | 32797 ft | 577 kts | 82° |
| 2026-04-23 08:53 | 33.32994 | 133.40486 | 32847 ft | 577 kts | 82° |
| 2026-04-23 08:54 | 33.34084 | 133.49986 | 32926 ft | 576 kts | 82° |
| 2026-04-23 08:54 | 33.35171 | 133.59506 | 32948 ft | 579 kts | 82° |
| 2026-04-23 08:55 | 33.36253 | 133.69055 | 32968 ft | 579 kts | 82° |
| 2026-04-23 08:55 | 33.37325 | 133.78589 | 32955 ft | 578 kts | 82° |
| 2026-04-23 08:56 | 33.38390 | 133.88130 | 32914 ft | 579 kts | 82° |
| 2026-04-23 08:56 | 33.39452 | 133.97701 | 32853 ft | 581 kts | 82° |
| 2026-04-23 08:57 | 33.40500 | 134.07221 | 32787 ft | 580 kts | 82° |
| 2026-04-23 08:57 | 33.41541 | 134.16762 | 32786 ft | 577 kts | 82° |
| 2026-04-23 08:58 | 33.42589 | 134.26303 | 32788 ft | 579 kts | 82° |
| 2026-04-23 08:58 | 33.43615 | 134.35857 | 32792 ft | 578 kts | 82° |
| 2026-04-23 08:59 | 33.44629 | 134.45397 | 32795 ft | 578 kts | 82° |
| 2026-04-23 08:59 | 33.45639 | 134.54939 | 32803 ft | 578 kts | 82° |
| 2026-04-23 09:00 | 33.46641 | 134.64454 | 32797 ft | 580 kts | 82° |
| 2026-04-23 09:00 | 33.47641 | 134.74015 | 32802 ft | 578 kts | 82° |
| 2026-04-23 09:01 | 33.48634 | 134.83573 | 32800 ft | 578 kts | 82° |
| 2026-04-23 09:01 | 33.49618 | 134.93140 | 32806 ft | 580 kts | 82° |
| 2026-04-23 09:02 | 33.50601 | 135.02753 | 33102 ft | 581 kts | 82° |
| 2026-04-23 09:02 | 33.51579 | 135.12363 | 33100 ft | 580 kts | 82° |
| 2026-04-23 09:03 | 33.52548 | 135.21961 | 33086 ft | 580 kts | 82° |
| 2026-04-23 09:03 | 33.53507 | 135.31541 | 33096 ft | 578 kts | 82° |
| 2026-04-23 09:04 | 33.54455 | 135.41097 | 33100 ft | 578 kts | 82° |
| 2026-04-23 09:04 | 33.55399 | 135.50680 | 33097 ft | 579 kts | 82° |
| 2026-04-23 09:05 | 33.56329 | 135.60203 | 33107 ft | 579 kts | 82° |
| 2026-04-23 09:05 | 33.57260 | 135.69807 | 33104 ft | 581 kts | 83° |
| 2026-04-23 09:06 | 33.58185 | 135.79422 | 33113 ft | 580 kts | 83° |
| 2026-04-23 09:06 | 33.59093 | 135.88971 | 33110 ft | 574 kts | 82° |
| 2026-04-23 09:07 | 33.59994 | 135.98482 | 33119 ft | 574 kts | 83° |
| 2026-04-23 09:07 | 33.60886 | 136.07991 | 33113 ft | 573 kts | 83° |
| 2026-04-23 09:08 | 33.61769 | 136.17493 | 33127 ft | 573 kts | 83° |
| 2026-04-23 09:08 | 33.62647 | 136.27015 | 33114 ft | 574 kts | 83° |
| 2026-04-23 09:09 | 33.63517 | 136.36539 | 33110 ft | 573 kts | 83° |
| 2026-04-23 09:09 | 33.64376 | 136.46024 | 33109 ft | 572 kts | 83° |
| 2026-04-23 09:10 | 33.65652 | 136.60253 | 33111 ft | 572 kts | 83° |
| 2026-04-23 09:11 | 33.66494 | 136.69746 | 33105 ft | 572 kts | 83° |
| 2026-04-23 09:11 | 33.67329 | 136.79250 | 33118 ft | 572 kts | 83° |
| 2026-04-23 09:12 | 33.68156 | 136.88749 | 33086 ft | 573 kts | 83° |
| 2026-04-23 09:12 | 33.68977 | 136.98251 | 33115 ft | 572 kts | 83° |
| 2026-04-23 09:13 | 33.69790 | 137.07757 | 33098 ft | 572 kts | 84° |
| 2026-04-23 09:13 | 33.70488 | 137.17281 | 33099 ft | 573 kts | 87° |
| 2026-04-23 09:14 | 33.70729 | 137.26840 | 33093 ft | 573 kts | 89° |
| 2026-04-23 09:14 | 33.70898 | 137.36396 | 33092 ft | 572 kts | 89° |
| 2026-04-23 09:15 | 33.71129 | 137.45948 | 33097 ft | 572 kts | 88° |
| 2026-04-23 09:15 | 33.71397 | 137.55492 | 33093 ft | 572 kts | 88° |
| 2026-04-23 09:16 | 33.71666 | 137.65035 | 33095 ft | 572 kts | 88° |
| 2026-04-23 09:16 | 33.71925 | 137.74600 | 33094 ft | 573 kts | 88° |
| 2026-04-23 09:17 | 33.72174 | 137.84167 | 33093 ft | 573 kts | 88° |
| 2026-04-23 09:17 | 33.72415 | 137.93736 | 33094 ft | 572 kts | 88° |
| 2026-04-23 09:18 | 33.72649 | 138.03287 | 33099 ft | 572 kts | 88° |
| 2026-04-23 09:18 | 33.72875 | 138.12839 | 33095 ft | 572 kts | 89° |
| 2026-04-23 09:19 | 33.73094 | 138.22394 | 33095 ft | 572 kts | 89° |
| 2026-04-23 09:19 | 33.73305 | 138.31940 | 33097 ft | 571 kts | 89° |
| 2026-04-23 09:20 | 33.73508 | 138.41477 | 33092 ft | 571 kts | 89° |
| 2026-04-23 09:20 | 33.74667 | 138.50854 | 33095 ft | 567 kts | 69° |
| 2026-04-23 09:20 | 33.76195 | 138.55190 | 33104 ft | 562 kts | 58° |
| 2026-04-23 09:21 | 33.78074 | 138.59303 | 33098 ft | 561 kts | 56° |
| 2026-04-23 09:21 | 33.82077 | 138.67290 | 33100 ft | 561 kts | 54° |
| 2026-04-23 09:22 | 33.86201 | 138.75288 | 33102 ft | 563 kts | 54° |
| 2026-04-23 09:22 | 33.90295 | 138.83324 | 33101 ft | 563 kts | 55° |
| 2026-04-23 09:23 | 33.94358 | 138.91394 | 33103 ft | 564 kts | 55° |
| 2026-04-23 09:23 | 33.98412 | 138.99486 | 33100 ft | 565 kts | 55° |
| 2026-04-23 09:24 | 34.02463 | 139.07593 | 33098 ft | 565 kts | 55° |
| 2026-04-23 09:24 | 34.06527 | 139.15734 | 33096 ft | 567 kts | 55° |
| 2026-04-23 09:25 | 34.10587 | 139.23884 | 33115 ft | 567 kts | 55° |
| 2026-04-23 09:25 | 34.14644 | 139.32043 | 33114 ft | 566 kts | 55° |
| 2026-04-23 09:26 | 34.18694 | 139.40209 | 33102 ft | 567 kts | 55° |
| 2026-04-23 09:26 | 34.22736 | 139.48381 | 33100 ft | 567 kts | 55° |
| 2026-04-23 09:27 | 34.26776 | 139.56567 | 33113 ft | 567 kts | 55° |
| 2026-04-23 09:27 | 34.30812 | 139.64761 | 33110 ft | 568 kts | 55° |
| 2026-04-23 09:28 | 34.34851 | 139.72981 | 33109 ft | 567 kts | 55° |
| 2026-04-23 09:28 | 34.38882 | 139.81204 | 33112 ft | 569 kts | 55° |
| 2026-04-23 09:29 | 34.42233 | 139.88055 | 33106 ft | 569 kts | 55° |
| 2026-04-23 09:29 | 34.46916 | 139.97651 | 33128 ft | 569 kts | 55° |
| 2026-04-23 09:30 | 34.50944 | 140.05924 | 33107 ft | 571 kts | 55° |
| 2026-04-23 09:30 | 34.54320 | 140.12872 | 33109 ft | 571 kts | 55° |
| 2026-04-23 09:31 | 34.58350 | 140.21189 | 33110 ft | 571 kts | 55° |
| 2026-04-23 09:31 | 34.62368 | 140.29498 | 33113 ft | 571 kts | 55° |
| 2026-04-23 09:32 | 34.66359 | 140.37771 | 33112 ft | 571 kts | 55° |
| 2026-04-23 09:32 | 34.70373 | 140.46117 | 33119 ft | 572 kts | 55° |
| 2026-04-23 09:33 | 34.74288 | 140.54533 | 33120 ft | 573 kts | 57° |
| 2026-04-23 09:33 | 34.78147 | 140.63001 | 33126 ft | 573 kts | 57° |
| 2026-04-23 09:34 | 34.82013 | 140.71481 | 33126 ft | 573 kts | 57° |
| 2026-04-23 09:34 | 34.85886 | 140.79955 | 33128 ft | 573 kts | 57° |
| 2026-04-23 09:35 | 34.89756 | 140.88430 | 33138 ft | 573 kts | 56° |
| 2026-04-23 09:35 | 34.93621 | 140.96916 | 33129 ft | 573 kts | 57° |
| 2026-04-23 09:36 | 34.97478 | 141.05408 | 33128 ft | 573 kts | 57° |
| 2026-04-23 09:36 | 35.01328 | 141.13904 | 33130 ft | 572 kts | 57° |
| 2026-04-23 09:37 | 35.05173 | 141.22412 | 33132 ft | 572 kts | 57° |
| 2026-04-23 09:37 | 35.09008 | 141.30922 | 33133 ft | 571 kts | 57° |
| 2026-04-23 09:38 | 35.12845 | 141.39453 | 33137 ft | 574 kts | 57° |
| 2026-04-23 09:38 | 35.16686 | 141.48013 | 33133 ft | 575 kts | 57° |
| 2026-04-23 09:39 | 35.20521 | 141.56584 | 33136 ft | 575 kts | 57° |
| 2026-04-23 09:39 | 35.24349 | 141.65161 | 33136 ft | 575 kts | 57° |
| 2026-04-23 09:40 | 35.28172 | 141.73750 | 33140 ft | 575 kts | 57° |
| 2026-04-23 09:40 | 35.31965 | 141.82290 | 33149 ft | 575 kts | 57° |
| 2026-04-23 09:41 | 35.35779 | 141.90902 | 33135 ft | 575 kts | 57° |
| 2026-04-23 09:41 | 35.39587 | 141.99520 | 33136 ft | 575 kts | 57° |
| 2026-04-23 09:42 | 35.43386 | 142.08140 | 33145 ft | 575 kts | 57° |
| 2026-04-23 09:42 | 35.47179 | 142.16768 | 33139 ft | 574 kts | 57° |
| 2026-04-23 09:43 | 35.50963 | 142.25399 | 33142 ft | 574 kts | 57° |
| 2026-04-23 09:43 | 35.54744 | 142.34044 | 33142 ft | 575 kts | 57° |
| 2026-04-23 09:44 | 35.58518 | 142.42696 | 33142 ft | 575 kts | 57° |
| 2026-04-23 09:44 | 35.62288 | 142.51362 | 33148 ft | 575 kts | 57° |
| 2026-04-23 09:45 | 35.66021 | 142.59964 | 33148 ft | 574 kts | 57° |
| 2026-04-23 09:45 | 35.69776 | 142.68640 | 33151 ft | 574 kts | 57° |
| 2026-04-23 09:46 | 35.73522 | 142.77317 | 33169 ft | 574 kts | 58° |
| 2026-04-23 09:46 | 35.75390 | 142.81649 | 33304 ft | 572 kts | 61° |
| 2026-04-23 09:46 | 35.77239 | 142.85956 | 33110 ft | 565 kts | 58° |
| 2026-04-23 09:47 | 35.80930 | 142.94547 | 33158 ft | 571 kts | 58° |
| 2026-04-23 09:47 | 35.84649 | 143.03221 | 33154 ft | 572 kts | 58° |
| 2026-04-23 09:48 | 35.88353 | 143.11894 | 33157 ft | 571 kts | 58° |
| 2026-04-23 09:48 | 35.91915 | 143.20656 | 33160 ft | 575 kts | 65° |
| 2026-04-23 09:48 | 35.93082 | 143.25388 | 33168 ft | 578 kts | 77° |
| 2026-04-23 09:49 | 35.93800 | 143.30271 | 33160 ft | 579 kts | 79° |
| 2026-04-23 09:49 | 35.94902 | 143.40114 | 33161 ft | 580 kts | 82° |
| 2026-04-23 09:50 | 35.95857 | 143.49994 | 33180 ft | 580 kts | 82° |
| 2026-04-23 09:50 | 35.96825 | 143.59882 | 33166 ft | 581 kts | 82° |
| 2026-04-23 09:51 | 35.97814 | 143.69780 | 33172 ft | 581 kts | 82° |
| 2026-04-23 09:51 | 35.98806 | 143.79680 | 33128 ft | 581 kts | 82° |
| 2026-04-23 09:52 | 35.99794 | 143.89605 | 33164 ft | 583 kts | 82° |
| 2026-04-23 09:52 | 36.00776 | 143.99557 | 33166 ft | 584 kts | 82° |
| 2026-04-23 09:53 | 36.02943 | 144.09121 | 33169 ft | 575 kts | 60° |
| 2026-04-23 09:53 | 36.04979 | 144.13331 | 33170 ft | 566 kts | 47° |
| 2026-04-23 09:53 | 36.07474 | 144.17055 | 33169 ft | 561 kts | 42° |
| 2026-04-23 09:54 | 36.12780 | 144.24115 | 33168 ft | 560 kts | 39° |
| 2026-04-23 09:54 | 36.18195 | 144.31051 | 33176 ft | 560 kts | 39° |
| 2026-04-23 09:55 | 36.23585 | 144.38021 | 33173 ft | 560 kts | 40° |
| 2026-04-23 09:55 | 36.28943 | 144.45034 | 33157 ft | 560 kts | 40° |
| 2026-04-23 09:56 | 36.34297 | 144.52079 | 33173 ft | 561 kts | 40° |
| 2026-04-23 09:56 | 36.39628 | 144.59109 | 33166 ft | 563 kts | 40° |
| 2026-04-23 09:57 | 36.44988 | 144.66192 | 33165 ft | 563 kts | 40° |
| 2026-04-23 09:57 | 36.50347 | 144.73287 | 33165 ft | 563 kts | 40° |
| 2026-04-23 09:58 | 36.55711 | 144.80402 | 33166 ft | 565 kts | 40° |
| 2026-04-23 09:58 | 36.61085 | 144.87545 | 33168 ft | 566 kts | 40° |
| 2026-04-23 09:59 | 36.66456 | 144.94702 | 33158 ft | 566 kts | 40° |
| 2026-04-23 09:59 | 36.71824 | 145.01871 | 33180 ft | 566 kts | 40° |
| 2026-04-23 10:00 | 36.77191 | 145.09055 | 33161 ft | 566 kts | 40° |
| 2026-04-23 10:00 | 36.82556 | 145.16247 | 33166 ft | 566 kts | 40° |
| 2026-04-23 10:01 | 36.87916 | 145.23454 | 33153 ft | 566 kts | 40° |
| 2026-04-23 10:01 | 36.93273 | 145.30672 | 33159 ft | 567 kts | 40° |
| 2026-04-23 10:02 | 36.98636 | 145.37912 | 33159 ft | 567 kts | 40° |
| 2026-04-23 10:02 | 37.03994 | 145.45163 | 33158 ft | 567 kts | 40° |
| 2026-04-23 10:03 | 37.09346 | 145.52423 | 33167 ft | 567 kts | 40° |
| 2026-04-23 10:03 | 37.14702 | 145.59701 | 33159 ft | 568 kts | 40° |
| 2026-04-23 10:04 | 37.20058 | 145.66998 | 33152 ft | 568 kts | 40° |
| 2026-04-23 10:04 | 37.25653 | 145.73895 | 33172 ft | 562 kts | 34° |
| 2026-04-23 10:05 | 37.31486 | 145.80411 | 33151 ft | 561 kts | 33° |
| 2026-04-23 10:05 | 37.37264 | 145.86939 | 33151 ft | 562 kts | 34° |
| 2026-04-23 10:06 | 37.43025 | 145.93604 | 33150 ft | 563 kts | 35° |
| 2026-04-23 10:06 | 37.48763 | 146.00316 | 33151 ft | 563 kts | 35° |
| 2026-04-23 10:07 | 37.54494 | 146.07038 | 33151 ft | 563 kts | 35° |
| 2026-04-23 10:07 | 37.60235 | 146.13777 | 33151 ft | 564 kts | 35° |
| 2026-04-23 10:08 | 37.65980 | 146.20532 | 33147 ft | 565 kts | 35° |
| 2026-04-23 10:08 | 37.71697 | 146.27268 | 33152 ft | 558 kts | 35° |
| 2026-04-23 10:09 | 37.80268 | 146.37390 | 33142 ft | 565 kts | 37° |
| 2026-04-23 10:09 | 37.85992 | 146.44179 | 33145 ft | 564 kts | 37° |
| 2026-04-23 10:10 | 37.91678 | 146.50938 | 33139 ft | 564 kts | 37° |
| 2026-04-23 10:10 | 37.97396 | 146.57747 | 33137 ft | 564 kts | 37° |
| 2026-04-23 10:11 | 38.03110 | 146.64565 | 33137 ft | 564 kts | 37° |
| 2026-04-23 10:11 | 38.08817 | 146.71389 | 33137 ft | 564 kts | 37° |
| 2026-04-23 10:12 | 38.14523 | 146.78228 | 33131 ft | 564 kts | 37° |
| 2026-04-23 10:12 | 38.20221 | 146.85073 | 33143 ft | 564 kts | 37° |
| 2026-04-23 10:13 | 38.25915 | 146.91928 | 33131 ft | 564 kts | 37° |
| 2026-04-23 10:13 | 38.31566 | 146.98746 | 33134 ft | 564 kts | 37° |
| 2026-04-23 10:14 | 38.37253 | 147.05624 | 33128 ft | 564 kts | 37° |
| 2026-04-23 10:14 | 38.42936 | 147.12512 | 33135 ft | 564 kts | 37° |
| 2026-04-23 10:15 | 38.48614 | 147.19412 | 33127 ft | 564 kts | 37° |
| 2026-04-23 10:15 | 38.54293 | 147.26327 | 33132 ft | 564 kts | 37° |
| 2026-04-23 10:16 | 38.59974 | 147.33259 | 33123 ft | 566 kts | 37° |
| 2026-04-23 10:16 | 38.65662 | 147.40220 | 33120 ft | 566 kts | 37° |
| 2026-04-23 10:17 | 38.71348 | 147.47194 | 33120 ft | 566 kts | 37° |
| 2026-04-23 10:17 | 38.77024 | 147.54169 | 33122 ft | 566 kts | 37° |
| 2026-04-23 10:18 | 38.82699 | 147.61159 | 33117 ft | 566 kts | 37° |
| 2026-04-23 10:18 | 38.88369 | 147.68161 | 33121 ft | 567 kts | 37° |
| 2026-04-23 10:19 | 38.93106 | 147.74019 | 33113 ft | 569 kts | 37° |
| 2026-04-23 10:19 | 38.98802 | 147.81084 | 33112 ft | 569 kts | 37° |
| 2026-04-23 10:20 | 39.04497 | 147.88164 | 33113 ft | 569 kts | 37° |
| 2026-04-23 10:20 | 39.10186 | 147.95254 | 33114 ft | 569 kts | 37° |
| 2026-04-23 10:21 | 39.15875 | 148.02360 | 33139 ft | 570 kts | 36° |
| 2026-04-23 10:21 | 39.21568 | 148.09483 | 33113 ft | 571 kts | 36° |
| 2026-04-23 10:22 | 39.27261 | 148.16626 | 33109 ft | 571 kts | 37° |
| 2026-04-23 10:22 | 39.32956 | 148.23792 | 33101 ft | 571 kts | 36° |
| 2026-04-23 10:23 | 39.38647 | 148.30968 | 33106 ft | 572 kts | 37° |
| 2026-04-23 10:23 | 39.44335 | 148.38157 | 33109 ft | 572 kts | 37° |
| 2026-04-23 10:24 | 39.50020 | 148.45359 | 33112 ft | 572 kts | 36° |
| 2026-04-23 10:24 | 39.55717 | 148.52592 | 33105 ft | 574 kts | 36° |
| 2026-04-23 10:25 | 39.61420 | 148.59853 | 33102 ft | 575 kts | 36° |
| 2026-04-23 10:25 | 39.67123 | 148.67133 | 33101 ft | 575 kts | 37° |
| 2026-04-23 10:26 | 39.72823 | 148.74427 | 33103 ft | 575 kts | 37° |
| 2026-04-23 10:26 | 39.78514 | 148.81728 | 33136 ft | 575 kts | 36° |
| 2026-04-23 10:27 | 39.84212 | 148.89048 | 32884 ft | 575 kts | 43° |
| 2026-04-23 10:27 | 39.87034 | 148.92689 | 33128 ft | 570 kts | 36° |
| 2026-04-23 10:27 | 39.89853 | 148.96326 | 33099 ft | 572 kts | 36° |
| 2026-04-23 10:28 | 39.95530 | 149.03652 | 33140 ft | 576 kts | 37° |
| 2026-04-23 10:28 | 40.01222 | 149.11024 | 33129 ft | 577 kts | 37° |
| 2026-04-23 10:29 | 40.06914 | 149.18420 | 33133 ft | 577 kts | 37° |
| 2026-04-23 10:29 | 40.12563 | 149.25776 | 33134 ft | 577 kts | 37° |
| 2026-04-23 10:30 | 40.18254 | 149.33202 | 33131 ft | 578 kts | 37° |
| 2026-04-23 10:30 | 40.23944 | 149.40645 | 33131 ft | 578 kts | 37° |
| 2026-04-23 10:31 | 40.29621 | 149.48091 | 33131 ft | 578 kts | 37° |
| 2026-04-23 10:31 | 40.35298 | 149.55556 | 33131 ft | 578 kts | 37° |
| 2026-04-23 10:32 | 40.40967 | 149.63042 | 33179 ft | 580 kts | 37° |
| 2026-04-23 10:32 | 40.46140 | 149.71287 | 33131 ft | 587 kts | 45° |
| 2026-04-23 10:33 | 40.51109 | 149.79818 | 33131 ft | 588 kts | 46° |
| 2026-04-23 10:33 | 40.56033 | 149.88412 | 33134 ft | 589 kts | 46° |
| 2026-04-23 10:34 | 40.60962 | 149.97020 | 33134 ft | 589 kts | 46° |
| 2026-04-23 10:34 | 40.65895 | 150.05623 | 33134 ft | 589 kts | 46° |
| 2026-04-23 10:35 | 40.70824 | 150.14232 | 33137 ft | 589 kts | 46° |
| 2026-04-23 10:35 | 40.75752 | 150.22864 | 33142 ft | 589 kts | 46° |
| 2026-04-23 10:36 | 40.80670 | 150.31507 | 33143 ft | 589 kts | 46° |
| 2026-04-23 10:36 | 40.85594 | 150.40181 | 33137 ft | 591 kts | 46° |
| 2026-04-23 10:37 | 40.90513 | 150.48877 | 33148 ft | 591 kts | 46° |
| 2026-04-23 10:37 | 40.95436 | 150.57600 | 33140 ft | 592 kts | 46° |
| 2026-04-23 10:38 | 41.00358 | 150.66345 | 33143 ft | 592 kts | 46° |
| 2026-04-23 10:38 | 41.05271 | 150.75102 | 33144 ft | 592 kts | 46° |
| 2026-04-23 10:39 | 41.10179 | 150.83877 | 33142 ft | 593 kts | 46° |
| 2026-04-23 10:39 | 41.15082 | 150.92663 | 33143 ft | 593 kts | 46° |
| 2026-04-23 10:40 | 41.19981 | 151.01468 | 33142 ft | 592 kts | 46° |
| 2026-04-23 10:40 | 41.24869 | 151.10280 | 33145 ft | 593 kts | 46° |
| 2026-04-23 10:41 | 41.29755 | 151.19111 | 33147 ft | 593 kts | 46° |
| 2026-04-23 10:41 | 41.34636 | 151.27961 | 33157 ft | 593 kts | 46° |
| 2026-04-23 10:42 | 41.39507 | 151.36818 | 33145 ft | 593 kts | 46° |
| 2026-04-23 10:42 | 41.44373 | 151.45692 | 33144 ft | 593 kts | 46° |
| 2026-04-23 10:43 | 41.49205 | 151.54530 | 33149 ft | 593 kts | 46° |
| 2026-04-23 10:43 | 41.54059 | 151.63434 | 33142 ft | 594 kts | 46° |
| 2026-04-23 10:44 | 41.58909 | 151.72356 | 33141 ft | 594 kts | 46° |
| 2026-04-23 10:44 | 41.61331 | 151.76823 | 33346 ft | 595 kts | 45° |
| 2026-04-23 10:44 | 41.63760 | 151.81307 | 33159 ft | 595 kts | 45° |
| 2026-04-23 10:45 | 41.68620 | 151.90294 | 33145 ft | 597 kts | 45° |
| 2026-04-23 10:45 | 41.73481 | 151.99317 | 33145 ft | 597 kts | 46° |
| 2026-04-23 10:46 | 41.78332 | 152.08349 | 33146 ft | 597 kts | 46° |
| 2026-04-23 10:46 | 41.83178 | 152.17397 | 33145 ft | 597 kts | 46° |
| 2026-04-23 10:47 | 41.88017 | 152.26459 | 33147 ft | 597 kts | 46° |
| 2026-04-23 10:47 | 41.92845 | 152.35527 | 33153 ft | 597 kts | 45° |
| 2026-04-23 10:48 | 41.97673 | 152.44619 | 33149 ft | 597 kts | 46° |
| 2026-04-23 10:48 | 42.02487 | 152.53718 | 33148 ft | 597 kts | 45° |
| 2026-04-23 10:49 | 42.07294 | 152.62829 | 33147 ft | 597 kts | 45° |
| 2026-04-23 10:49 | 42.12097 | 152.71955 | 33150 ft | 597 kts | 46° |
| 2026-04-23 10:50 | 42.16888 | 152.81095 | 33150 ft | 596 kts | 45° |
| 2026-04-23 10:50 | 42.21639 | 152.90179 | 33147 ft | 596 kts | 45° |
| 2026-04-23 10:51 | 42.26443 | 152.99392 | 33157 ft | 596 kts | 45° |
| 2026-04-23 10:51 | 42.31203 | 153.08550 | 33154 ft | 596 kts | 45° |
| 2026-04-23 10:52 | 42.35960 | 153.17728 | 33148 ft | 596 kts | 45° |
| 2026-04-23 10:52 | 42.40704 | 153.26913 | 33155 ft | 596 kts | 45° |
| 2026-04-23 10:53 | 42.45404 | 153.36043 | 33145 ft | 595 kts | 45° |
| 2026-04-23 10:53 | 42.50128 | 153.45241 | 33150 ft | 595 kts | 45° |
| 2026-04-23 10:54 | 42.54846 | 153.54459 | 33139 ft | 594 kts | 45° |
| 2026-04-23 10:54 | 42.59539 | 153.63658 | 33152 ft | 593 kts | 45° |
| 2026-04-23 10:55 | 42.64224 | 153.72865 | 33146 ft | 593 kts | 45° |
| 2026-04-23 10:55 | 42.68900 | 153.82084 | 33144 ft | 592 kts | 45° |
| 2026-04-23 10:56 | 42.73560 | 153.91304 | 33142 ft | 591 kts | 45° |
| 2026-04-23 10:56 | 42.78214 | 154.00535 | 33140 ft | 591 kts | 45° |
| 2026-04-23 10:57 | 42.82855 | 154.09771 | 33136 ft | 590 kts | 45° |
| 2026-04-23 10:57 | 42.87480 | 154.19008 | 33134 ft | 590 kts | 45° |
| 2026-04-23 10:58 | 42.92102 | 154.28262 | 33144 ft | 590 kts | 45° |
| 2026-04-23 10:58 | 42.96710 | 154.37519 | 33134 ft | 589 kts | 45° |
| 2026-04-23 10:59 | 43.01310 | 154.46786 | 33134 ft | 589 kts | 45° |
| 2026-04-23 10:59 | 43.03606 | 154.51422 | 32955 ft | 589 kts | 45° |
| 2026-04-23 10:59 | 43.05906 | 154.56072 | 33147 ft | 591 kts | 45° |
| 2026-04-23 11:00 | 43.10497 | 154.65379 | 33132 ft | 590 kts | 46° |
| 2026-04-23 11:00 | 43.15081 | 154.74708 | 33124 ft | 590 kts | 46° |
| 2026-04-23 11:01 | 43.19660 | 154.84051 | 33139 ft | 590 kts | 46° |
| 2026-04-23 11:01 | 43.24221 | 154.93392 | 33121 ft | 589 kts | 46° |
| 2026-04-23 11:02 | 43.28774 | 155.02741 | 33122 ft | 589 kts | 46° |
| 2026-04-23 11:02 | 43.33316 | 155.12097 | 33110 ft | 589 kts | 46° |
| 2026-04-23 11:03 | 43.37073 | 155.19864 | 33112 ft | 586 kts | 46° |
| 2026-04-23 11:03 | 43.41581 | 155.29205 | 33105 ft | 586 kts | 46° |
| 2026-04-23 11:04 | 43.46806 | 155.40063 | 33114 ft | 584 kts | 47° |
| 2026-04-23 11:04 | 43.51272 | 155.49388 | 33102 ft | 582 kts | 47° |
| 2026-04-23 11:05 | 43.55001 | 155.57190 | 33108 ft | 582 kts | 47° |
| 2026-04-23 11:05 | 43.59447 | 155.66514 | 33103 ft | 582 kts | 47° |
| 2026-04-23 11:06 | 43.66047 | 155.80423 | 33098 ft | 579 kts | 47° |
| 2026-04-23 11:07 | 43.70451 | 155.89736 | 33084 ft | 579 kts | 47° |
| 2026-04-23 11:07 | 43.74845 | 155.99057 | 33084 ft | 577 kts | 48° |
| 2026-04-23 11:08 | 43.79205 | 156.08346 | 33085 ft | 575 kts | 48° |
| 2026-04-23 11:08 | 43.83554 | 156.17634 | 33081 ft | 574 kts | 48° |
| 2026-04-23 11:09 | 43.87886 | 156.26915 | 33079 ft | 571 kts | 49° |
| 2026-04-23 11:09 | 43.92178 | 156.36145 | 33076 ft | 569 kts | 49° |
| 2026-04-23 11:10 | 43.96460 | 156.45374 | 33070 ft | 569 kts | 49° |
| 2026-04-23 11:10 | 44.00732 | 156.54609 | 33069 ft | 567 kts | 49° |
| 2026-04-23 11:11 | 44.04971 | 156.63814 | 33066 ft | 565 kts | 49° |
| 2026-04-23 11:11 | 44.09202 | 156.73019 | 33061 ft | 565 kts | 49° |
| 2026-04-23 11:12 | 44.13426 | 156.82238 | 33061 ft | 564 kts | 50° |
| 2026-04-23 11:12 | 44.17627 | 156.91447 | 33055 ft | 563 kts | 50° |
| 2026-04-23 11:13 | 44.21817 | 157.00655 | 33052 ft | 562 kts | 50° |
| 2026-04-23 11:13 | 44.26004 | 157.09880 | 32980 ft | 562 kts | 51° |
| 2026-04-23 11:14 | 44.30148 | 157.19043 | 32975 ft | 562 kts | 51° |
| 2026-04-23 11:14 | 44.34310 | 157.28279 | 32963 ft | 562 kts | 51° |
| 2026-04-23 11:15 | 44.38468 | 157.37534 | 32951 ft | 562 kts | 51° |
| 2026-04-23 11:15 | 44.42618 | 157.46801 | 32973 ft | 562 kts | 51° |
| 2026-04-23 11:16 | 44.46761 | 157.56082 | 32971 ft | 562 kts | 51° |
| 2026-04-23 11:16 | 44.50896 | 157.65376 | 32947 ft | 562 kts | 51° |
| 2026-04-23 11:17 | 44.55018 | 157.74672 | 32961 ft | 560 kts | 51° |
| 2026-04-23 11:17 | 44.59117 | 157.83946 | 32964 ft | 558 kts | 52° |
| 2026-04-23 11:18 | 44.63191 | 157.93194 | 32966 ft | 557 kts | 52° |
| 2026-04-23 11:18 | 44.67250 | 158.02433 | 32964 ft | 554 kts | 52° |
| 2026-04-23 11:19 | 44.71279 | 158.11638 | 32964 ft | 552 kts | 52° |
| 2026-04-23 11:19 | 44.75293 | 158.20832 | 32964 ft | 552 kts | 52° |
| 2026-04-23 11:20 | 44.79301 | 158.30042 | 32966 ft | 551 kts | 53° |
| 2026-04-23 11:20 | 44.83276 | 158.39215 | 32964 ft | 548 kts | 53° |
| 2026-04-23 11:21 | 44.87240 | 158.48387 | 32962 ft | 548 kts | 53° |
| 2026-04-23 11:21 | 44.91197 | 158.57569 | 32972 ft | 548 kts | 53° |
| 2026-04-23 11:22 | 44.95109 | 158.66678 | 32956 ft | 545 kts | 54° |
| 2026-04-23 11:22 | 44.99009 | 158.75795 | 32946 ft | 541 kts | 54° |
| 2026-04-23 11:23 | 45.02889 | 158.84889 | 32950 ft | 540 kts | 54° |
| 2026-04-23 11:23 | 45.06753 | 158.93973 | 32949 ft | 537 kts | 54° |
| 2026-04-23 11:24 | 45.10585 | 159.03015 | 32950 ft | 535 kts | 54° |
| 2026-04-23 11:24 | 45.14406 | 159.12055 | 32945 ft | 535 kts | 54° |
| 2026-04-23 11:25 | 45.18222 | 159.21110 | 32948 ft | 534 kts | 54° |
| 2026-04-23 11:25 | 45.22012 | 159.30140 | 32945 ft | 532 kts | 55° |
| 2026-04-23 11:26 | 45.25790 | 159.39168 | 32943 ft | 532 kts | 55° |
| 2026-04-23 11:26 | 45.29557 | 159.48197 | 32943 ft | 532 kts | 55° |
| 2026-04-23 11:27 | 45.33313 | 159.57231 | 32942 ft | 529 kts | 55° |
| 2026-04-23 11:27 | 45.37047 | 159.66241 | 32944 ft | 529 kts | 55° |
| 2026-04-23 11:28 | 45.40777 | 159.75267 | 32943 ft | 529 kts | 55° |
| 2026-04-23 11:28 | 45.44500 | 159.84305 | 32947 ft | 528 kts | 56° |
| 2026-04-23 11:29 | 45.48170 | 159.93248 | 32942 ft | 525 kts | 56° |
| 2026-04-23 11:29 | 45.51850 | 160.02242 | 32944 ft | 525 kts | 56° |
| 2026-04-23 11:30 | 45.55523 | 160.11247 | 32946 ft | 525 kts | 56° |
| 2026-04-23 11:30 | 45.59184 | 160.20249 | 32958 ft | 522 kts | 56° |
| 2026-04-23 11:31 | 45.62811 | 160.29203 | 32959 ft | 520 kts | 56° |
| 2026-04-23 11:31 | 45.66427 | 160.38155 | 32959 ft | 520 kts | 57° |
| 2026-04-23 11:32 | 45.70039 | 160.47123 | 32960 ft | 520 kts | 57° |
| 2026-04-23 11:32 | 45.73630 | 160.56072 | 32959 ft | 517 kts | 57° |
| 2026-04-23 11:33 | 45.77203 | 160.65005 | 32958 ft | 517 kts | 57° |
| 2026-04-23 11:33 | 45.80772 | 160.73954 | 32959 ft | 517 kts | 57° |
| 2026-04-23 11:34 | 45.84329 | 160.82901 | 32959 ft | 515 kts | 57° |
| 2026-04-23 11:34 | 45.87856 | 160.91809 | 32958 ft | 513 kts | 58° |
| 2026-04-23 11:35 | 45.91372 | 161.00710 | 32959 ft | 513 kts | 58° |
| 2026-04-23 11:35 | 45.94880 | 161.09622 | 32956 ft | 513 kts | 58° |
| 2026-04-23 11:36 | 45.98377 | 161.18534 | 32955 ft | 510 kts | 58° |
| 2026-04-23 11:36 | 46.01855 | 161.27427 | 32958 ft | 510 kts | 58° |
| 2026-04-23 11:37 | 46.05325 | 161.36330 | 32952 ft | 510 kts | 58° |
| 2026-04-23 11:37 | 46.08779 | 161.45217 | 32962 ft | 506 kts | 59° |
| 2026-04-23 11:38 | 46.12184 | 161.54013 | 32955 ft | 501 kts | 59° |
| 2026-04-23 11:38 | 46.15565 | 161.62772 | 32956 ft | 500 kts | 59° |
| 2026-04-23 11:39 | 46.18943 | 161.71548 | 32953 ft | 500 kts | 59° |
| 2026-04-23 11:39 | 46.22311 | 161.80329 | 32960 ft | 499 kts | 59° |
| 2026-04-23 11:40 | 46.25658 | 161.89084 | 32938 ft | 497 kts | 59° |
| 2026-04-23 11:40 | 46.28995 | 161.97841 | 32958 ft | 497 kts | 59° |
| 2026-04-23 11:41 | 46.32327 | 162.06609 | 32959 ft | 497 kts | 60° |
| 2026-04-23 11:41 | 46.35647 | 162.15377 | 32947 ft | 496 kts | 60° |
| 2026-04-23 11:42 | 46.38947 | 162.24123 | 32945 ft | 494 kts | 60° |
| 2026-04-23 11:42 | 46.42240 | 162.32872 | 32953 ft | 495 kts | 60° |
| 2026-04-23 11:43 | 46.45585 | 162.41568 | 32942 ft | 493 kts | 59° |
| 2026-04-23 11:43 | 46.48948 | 162.50227 | 32944 ft | 492 kts | 59° |
| 2026-04-23 11:44 | 46.52293 | 162.58892 | 32943 ft | 492 kts | 59° |
| 2026-04-23 11:44 | 46.55620 | 162.67564 | 32940 ft | 491 kts | 59° |
| 2026-04-23 11:45 | 46.58939 | 162.76255 | 32943 ft | 492 kts | 60° |
| 2026-04-23 11:45 | 46.62245 | 162.84943 | 32937 ft | 490 kts | 60° |
| 2026-04-23 11:46 | 46.65537 | 162.93618 | 32934 ft | 489 kts | 60° |
| 2026-04-23 11:46 | 46.68820 | 163.02295 | 32934 ft | 489 kts | 60° |
| 2026-04-23 11:47 | 46.72096 | 163.10982 | 32933 ft | 489 kts | 60° |
| 2026-04-23 11:47 | 46.75363 | 163.19675 | 32929 ft | 488 kts | 60° |
| 2026-04-23 11:48 | 46.78619 | 163.28363 | 32930 ft | 488 kts | 60° |
| 2026-04-23 11:48 | 46.81869 | 163.37054 | 32945 ft | 487 kts | 60° |
| 2026-04-23 11:49 | 46.85099 | 163.45737 | 32926 ft | 486 kts | 60° |
| 2026-04-23 11:49 | 46.87777 | 163.52957 | 32923 ft | 486 kts | 60° |
| 2026-04-23 11:50 | 46.90987 | 163.61634 | 32923 ft | 485 kts | 60° |
| 2026-04-23 11:50 | 46.94193 | 163.70326 | 32924 ft | 485 kts | 60° |
| 2026-04-23 11:51 | 46.97908 | 163.80433 | 32917 ft | 485 kts | 61° |
| 2026-04-23 11:51 | 47.00581 | 163.87729 | 32921 ft | 485 kts | 61° |
| 2026-04-23 11:52 | 47.03767 | 163.96453 | 32917 ft | 485 kts | 61° |
| 2026-04-23 11:52 | 47.06944 | 164.05179 | 32912 ft | 485 kts | 61° |
| 2026-04-23 11:53 | 47.10115 | 164.13917 | 32911 ft | 485 kts | 61° |
| 2026-04-23 11:53 | 47.13279 | 164.22666 | 32910 ft | 485 kts | 61° |
| 2026-04-23 11:54 | 47.16427 | 164.31402 | 32903 ft | 483 kts | 61° |
| 2026-04-23 11:54 | 47.19561 | 164.40125 | 32901 ft | 483 kts | 61° |
| 2026-04-23 11:55 | 47.22665 | 164.48792 | 32901 ft | 483 kts | 61° |
| 2026-04-23 11:55 | 47.25810 | 164.57603 | 32899 ft | 482 kts | 61° |
| 2026-04-23 11:56 | 47.28923 | 164.66353 | 32893 ft | 482 kts | 61° |
| 2026-04-23 11:56 | 47.32008 | 164.75053 | 32889 ft | 482 kts | 61° |
| 2026-04-23 11:57 | 47.35107 | 164.83822 | 32892 ft | 483 kts | 62° |
| 2026-04-23 11:57 | 47.38200 | 164.92602 | 32888 ft | 482 kts | 62° |
| 2026-04-23 11:58 | 47.41278 | 165.01371 | 32890 ft | 481 kts | 62° |
| 2026-04-23 11:58 | 47.44353 | 165.10159 | 32882 ft | 481 kts | 62° |
| 2026-04-23 11:59 | 47.47419 | 165.18952 | 32879 ft | 481 kts | 62° |
| 2026-04-23 11:59 | 47.50481 | 165.27764 | 32881 ft | 482 kts | 62° |
| 2026-04-23 12:00 | 47.53537 | 165.36583 | 32873 ft | 481 kts | 62° |
| 2026-04-23 12:00 | 47.56583 | 165.45405 | 32876 ft | 482 kts | 61° |
| 2026-04-23 12:01 | 47.59625 | 165.54247 | 32879 ft | 482 kts | 62° |
| 2026-04-23 12:01 | 47.62660 | 165.63101 | 32871 ft | 482 kts | 62° |
| 2026-04-23 12:02 | 47.65688 | 165.71963 | 32874 ft | 482 kts | 62° |
| 2026-04-23 12:02 | 47.68708 | 165.80834 | 32873 ft | 482 kts | 62° |
| 2026-04-23 12:03 | 47.71726 | 165.89727 | 32876 ft | 482 kts | 62° |
| 2026-04-23 12:03 | 47.74736 | 165.98625 | 32873 ft | 482 kts | 62° |
| 2026-04-23 12:04 | 47.77740 | 166.07541 | 32870 ft | 482 kts | 62° |
| 2026-04-23 12:04 | 47.80721 | 166.16415 | 32866 ft | 483 kts | 62° |
| 2026-04-23 12:05 | 47.83714 | 166.25359 | 32847 ft | 483 kts | 62° |
| 2026-04-23 12:05 | 47.86705 | 166.34326 | 32851 ft | 484 kts | 62° |
| 2026-04-23 12:06 | 47.89695 | 166.43317 | 32861 ft | 484 kts | 62° |
| 2026-04-23 12:06 | 47.94168 | 166.56834 | 32852 ft | 485 kts | 62° |
| 2026-04-23 12:07 | 47.97143 | 166.65864 | 32850 ft | 485 kts | 62° |
| 2026-04-23 12:07 | 48.00113 | 166.74909 | 32852 ft | 485 kts | 62° |
| 2026-04-23 12:08 | 48.03077 | 166.83969 | 32855 ft | 486 kts | 62° |
| 2026-04-23 12:08 | 48.06038 | 166.93052 | 32850 ft | 486 kts | 62° |
| 2026-04-23 12:09 | 48.08992 | 167.02146 | 32853 ft | 486 kts | 62° |
| 2026-04-23 12:09 | 48.11940 | 167.11254 | 33061 ft | 487 kts | 62° |
| 2026-04-23 12:10 | 48.13425 | 167.15850 | 32881 ft | 495 kts | 62° |
| 2026-04-23 12:10 | 48.14934 | 167.20526 | 32846 ft | 502 kts | 62° |
| 2026-04-23 12:10 | 48.18000 | 167.30061 | 32846 ft | 512 kts | 63° |
| 2026-04-23 12:11 | 48.21077 | 167.39680 | 32844 ft | 511 kts | 63° |
| 2026-04-23 12:11 | 48.24140 | 167.49291 | 32844 ft | 511 kts | 63° |
| 2026-04-23 12:12 | 48.27195 | 167.58910 | 32837 ft | 511 kts | 63° |
| 2026-04-23 12:12 | 48.30241 | 167.68535 | 32835 ft | 511 kts | 63° |
| 2026-04-23 12:13 | 48.33265 | 167.78129 | 32824 ft | 511 kts | 63° |
| 2026-04-23 12:13 | 48.36315 | 167.87840 | 32834 ft | 511 kts | 63° |
| 2026-04-23 12:14 | 48.39337 | 167.97503 | 32823 ft | 510 kts | 63° |
| 2026-04-23 12:14 | 48.42350 | 168.07172 | 32836 ft | 510 kts | 63° |
| 2026-04-23 12:15 | 48.45336 | 168.16789 | 32826 ft | 510 kts | 63° |
| 2026-04-23 12:15 | 48.48331 | 168.26477 | 32821 ft | 510 kts | 63° |
| 2026-04-23 12:16 | 48.51318 | 168.36176 | 32821 ft | 509 kts | 63° |
| 2026-04-23 12:16 | 48.54287 | 168.45854 | 32821 ft | 508 kts | 64° |
| 2026-04-23 12:17 | 48.57244 | 168.55530 | 32818 ft | 508 kts | 64° |
| 2026-04-23 12:17 | 48.60193 | 168.65218 | 32816 ft | 508 kts | 64° |
| 2026-04-23 12:18 | 48.63135 | 168.74921 | 32813 ft | 507 kts | 64° |
| 2026-04-23 12:18 | 48.66068 | 168.84632 | 32808 ft | 507 kts | 64° |
| 2026-04-23 12:19 | 48.68990 | 168.94346 | 32808 ft | 507 kts | 64° |
| 2026-04-23 12:19 | 48.71905 | 169.04075 | 32805 ft | 507 kts | 64° |
| 2026-04-23 12:20 | 48.74814 | 169.13819 | 32801 ft | 508 kts | 64° |
| 2026-04-23 12:20 | 48.77716 | 169.23581 | 32800 ft | 508 kts | 64° |
| 2026-04-23 12:21 | 48.80610 | 169.33358 | 32800 ft | 508 kts | 64° |
| 2026-04-23 12:21 | 48.83496 | 169.43144 | 32800 ft | 508 kts | 64° |
| 2026-04-23 12:22 | 48.86374 | 169.52944 | 32794 ft | 508 kts | 64° |
| 2026-04-23 12:22 | 48.89245 | 169.62756 | 32789 ft | 508 kts | 65° |
| 2026-04-23 12:23 | 48.92106 | 169.72579 | 32791 ft | 508 kts | 65° |
| 2026-04-23 12:23 | 48.94958 | 169.82406 | 32786 ft | 508 kts | 65° |
| 2026-04-23 12:24 | 48.97804 | 169.92256 | 32851 ft | 508 kts | 65° |
| 2026-04-23 12:24 | 49.00620 | 170.02045 | 32784 ft | 508 kts | 65° |
| 2026-04-23 12:25 | 49.03479 | 170.11972 | 32780 ft | 509 kts | 65° |
| 2026-04-23 12:25 | 49.06301 | 170.21785 | 32780 ft | 509 kts | 65° |
| 2026-04-23 12:26 | 49.09132 | 170.31677 | 32782 ft | 509 kts | 65° |
| 2026-04-23 12:26 | 49.11953 | 170.41583 | 32780 ft | 509 kts | 65° |
| 2026-04-23 12:27 | 49.14763 | 170.51496 | 32778 ft | 507 kts | 65° |
| 2026-04-23 12:27 | 49.17549 | 170.61363 | 32775 ft | 505 kts | 65° |
| 2026-04-23 12:28 | 49.20323 | 170.71231 | 32777 ft | 505 kts | 65° |
| 2026-04-23 12:28 | 49.23091 | 170.81113 | 32772 ft | 505 kts | 66° |
| 2026-04-23 12:29 | 49.25851 | 170.91011 | 32775 ft | 505 kts | 66° |
| 2026-04-23 12:29 | 49.28602 | 171.00914 | 32769 ft | 505 kts | 66° |
| 2026-04-23 12:30 | 49.31344 | 171.10832 | 32852 ft | 505 kts | 66° |
| 2026-04-23 12:30 | 49.34079 | 171.20764 | 32855 ft | 506 kts | 66° |
| 2026-04-23 12:31 | 49.36806 | 171.30707 | 32856 ft | 506 kts | 66° |
| 2026-04-23 12:31 | 49.39524 | 171.40660 | 32857 ft | 506 kts | 66° |
| 2026-04-23 12:32 | 49.42216 | 171.50563 | 32855 ft | 505 kts | 66° |
| 2026-04-23 12:32 | 49.44917 | 171.60538 | 32862 ft | 505 kts | 66° |
| 2026-04-23 12:33 | 49.47600 | 171.70491 | 32856 ft | 503 kts | 66° |
| 2026-04-23 12:33 | 49.50269 | 171.80432 | 32858 ft | 503 kts | 66° |
| 2026-04-23 12:34 | 49.52931 | 171.90393 | 32858 ft | 503 kts | 67° |
| 2026-04-23 12:34 | 49.55579 | 172.00342 | 32855 ft | 502 kts | 67° |
| 2026-04-23 12:35 | 49.58221 | 172.10310 | 32857 ft | 502 kts | 67° |
| 2026-04-23 12:35 | 49.60408 | 172.18598 | 32858 ft | 502 kts | 67° |
| 2026-04-23 12:36 | 49.63031 | 172.28575 | 32855 ft | 502 kts | 67° |
| 2026-04-23 12:36 | 49.65647 | 172.38569 | 32851 ft | 502 kts | 67° |
| 2026-04-23 12:37 | 49.68258 | 172.48588 | 32852 ft | 503 kts | 67° |
| 2026-04-23 12:37 | 49.70860 | 172.58614 | 32855 ft | 503 kts | 68° |
| 2026-04-23 12:38 | 49.73452 | 172.68650 | 32854 ft | 503 kts | 68° |
| 2026-04-23 12:38 | 49.76033 | 172.78682 | 32847 ft | 501 kts | 68° |
| 2026-04-23 12:39 | 49.78579 | 172.88628 | 32848 ft | 500 kts | 68° |
| 2026-04-23 12:39 | 49.81131 | 172.98640 | 32850 ft | 500 kts | 68° |
| 2026-04-23 12:40 | 49.83675 | 173.08662 | 32851 ft | 500 kts | 68° |
| 2026-04-23 12:40 | 49.86211 | 173.18698 | 32851 ft | 500 kts | 68° |
| 2026-04-23 12:41 | 49.88739 | 173.28745 | 32847 ft | 500 kts | 68° |
| 2026-04-23 12:41 | 49.91259 | 173.38809 | 32844 ft | 501 kts | 68° |
| 2026-04-23 12:42 | 49.93770 | 173.48882 | 32844 ft | 501 kts | 68° |
| 2026-04-23 12:42 | 49.96273 | 173.58969 | 32846 ft | 501 kts | 69° |
| 2026-04-23 12:43 | 49.98768 | 173.69066 | 32844 ft | 501 kts | 69° |
| 2026-04-23 12:43 | 50.01255 | 173.79180 | 32844 ft | 501 kts | 69° |
| 2026-04-23 12:44 | 50.03731 | 173.89298 | 32849 ft | 501 kts | 69° |
| 2026-04-23 12:44 | 50.06195 | 173.99410 | 32842 ft | 499 kts | 69° |
| 2026-04-23 12:45 | 50.08644 | 174.09505 | 32841 ft | 499 kts | 69° |
| 2026-04-23 12:45 | 50.11085 | 174.19614 | 32837 ft | 498 kts | 69° |
| 2026-04-23 12:46 | 50.13516 | 174.29729 | 32836 ft | 498 kts | 69° |
| 2026-04-23 12:46 | 50.15937 | 174.39852 | 32836 ft | 498 kts | 69° |
| 2026-04-23 12:47 | 50.18351 | 174.49989 | 32827 ft | 498 kts | 70° |
| 2026-04-23 12:47 | 50.20755 | 174.60131 | 32830 ft | 498 kts | 70° |
| 2026-04-23 12:48 | 50.23151 | 174.70290 | 32827 ft | 498 kts | 70° |
| 2026-04-23 12:48 | 50.25538 | 174.80457 | 32827 ft | 498 kts | 70° |
| 2026-04-23 12:49 | 50.27916 | 174.90633 | 32822 ft | 498 kts | 70° |
| 2026-04-23 12:49 | 50.30286 | 175.00822 | 32822 ft | 498 kts | 70° |
| 2026-04-23 12:50 | 50.32646 | 175.11021 | 32818 ft | 498 kts | 70° |
| 2026-04-23 12:50 | 50.34992 | 175.21205 | 32816 ft | 497 kts | 70° |
| 2026-04-23 12:51 | 50.37329 | 175.31399 | 32816 ft | 497 kts | 70° |
| 2026-04-23 12:51 | 50.39639 | 175.41533 | 32804 ft | 495 kts | 67° |
| 2026-04-23 12:52 | 50.41943 | 175.51669 | 32811 ft | 493 kts | 68° |
| 2026-04-23 12:52 | 50.44231 | 175.61788 | 32806 ft | 491 kts | 67° |
| 2026-04-23 12:53 | 50.46503 | 175.71896 | 32814 ft | 493 kts | 67° |
| 2026-04-23 12:53 | 50.48775 | 175.82037 | 32812 ft | 491 kts | 66° |
| 2026-04-23 12:54 | 50.51033 | 175.92179 | 32807 ft | 493 kts | 67° |
| 2026-04-23 12:54 | 50.53137 | 176.02507 | 32805 ft | 493 kts | 71° |
| 2026-04-23 12:55 | 50.54820 | 176.12964 | 32798 ft | 495 kts | 72° |
| 2026-04-23 12:55 | 50.56478 | 176.23428 | 32798 ft | 493 kts | 71° |
| 2026-04-23 12:56 | 50.58196 | 176.33894 | 32796 ft | 495 kts | 72° |
| 2026-04-23 12:56 | 50.59924 | 176.44303 | 32810 ft | 496 kts | 72° |
| 2026-04-23 12:57 | 50.61663 | 176.54802 | 32786 ft | 494 kts | 71° |
| 2026-04-23 12:57 | 50.63385 | 176.65272 | 32782 ft | 495 kts | 72° |
| 2026-04-23 12:58 | 50.65095 | 176.75740 | 32790 ft | 493 kts | 71° |
| 2026-04-23 12:58 | 50.66803 | 176.86265 | 32778 ft | 497 kts | 73° |
| 2026-04-23 12:59 | 50.68499 | 176.96807 | 32780 ft | 497 kts | 72° |
| 2026-04-23 12:59 | 50.70192 | 177.07376 | 32774 ft | 496 kts | 72° |
| 2026-04-23 13:00 | 50.71877 | 177.17940 | 32776 ft | 498 kts | 72° |
| 2026-04-23 13:00 | 50.73553 | 177.28521 | 32762 ft | 498 kts | 72° |
| 2026-04-23 13:01 | 50.75225 | 177.39171 | 32762 ft | 499 kts | 73° |
| 2026-04-23 13:01 | 50.76884 | 177.49811 | 32750 ft | 500 kts | 73° |
| 2026-04-23 13:02 | 50.78536 | 177.60463 | 32745 ft | 498 kts | 73° |
| 2026-04-23 13:02 | 50.80180 | 177.71123 | 32736 ft | 501 kts | 73° |
| 2026-04-23 13:03 | 50.81820 | 177.81821 | 32729 ft | 502 kts | 72° |
| 2026-04-23 13:03 | 50.83455 | 177.92565 | 32717 ft | 501 kts | 72° |
| 2026-04-23 13:04 | 50.85077 | 178.03309 | 32712 ft | 503 kts | 73° |
| 2026-04-23 13:04 | 50.86689 | 178.14068 | 32718 ft | 502 kts | 73° |
| 2026-04-23 13:05 | 50.88301 | 178.24864 | 32696 ft | 505 kts | 73° |
| 2026-04-23 13:05 | 50.89900 | 178.35683 | 32679 ft | 505 kts | 74° |
| 2026-04-23 13:06 | 50.92284 | 178.51946 | 32673 ft | 506 kts | 74° |
| 2026-04-23 13:07 | 50.93865 | 178.62813 | 32658 ft | 506 kts | 73° |
| 2026-04-23 13:07 | 50.95431 | 178.73658 | 32655 ft | 509 kts | 73° |
| 2026-04-23 13:08 | 50.96999 | 178.84594 | 32644 ft | 508 kts | 74° |
| 2026-04-23 13:08 | 50.98558 | 178.95546 | 32636 ft | 508 kts | 73° |
| 2026-04-23 13:09 | 51.00105 | 179.06503 | 32639 ft | 510 kts | 74° |
| 2026-04-23 13:09 | 51.01648 | 179.17494 | 32623 ft | 511 kts | 74° |
| 2026-04-23 13:10 | 51.03186 | 179.28542 | 32604 ft | 512 kts | 74° |
| 2026-04-23 13:10 | 51.04710 | 179.39582 | 32605 ft | 512 kts | 75° |
| 2026-04-23 13:11 | 51.06224 | 179.50624 | 32585 ft | 511 kts | 75° |
| 2026-04-23 13:11 | 51.07734 | 179.61707 | 32584 ft | 514 kts | 75° |
| 2026-04-23 13:12 | 51.09238 | 179.72837 | 32572 ft | 516 kts | 75° |
| 2026-04-23 13:12 | 51.10734 | 179.83992 | 32562 ft | 514 kts | 75° |
| 2026-04-23 13:13 | 51.12216 | 179.95132 | 32555 ft | 514 kts | 76° |
| 2026-04-23 13:13 | 51.12950 | -179.99308 | 32044 ft | 512 kts | 75° |
| 2026-04-23 13:13 | 51.13682 | -179.93754 | 32037 ft | 514 kts | 76° |
| 2026-04-23 13:14 | 51.15145 | -179.82586 | 32036 ft | 516 kts | 76° |
| 2026-04-23 13:14 | 51.16589 | -179.71474 | 32020 ft | 515 kts | 76° |
| 2026-04-23 13:15 | 51.18030 | -179.60297 | 32015 ft | 515 kts | 76° |
| 2026-04-23 13:15 | 51.19460 | -179.49108 | 32013 ft | 515 kts | 76° |
| 2026-04-23 13:16 | 51.20880 | -179.37914 | 32005 ft | 515 kts | 76° |
| 2026-04-23 13:16 | 51.22291 | -179.26696 | 32004 ft | 515 kts | 76° |
| 2026-04-23 13:17 | 51.23692 | -179.15468 | 32000 ft | 515 kts | 76° |
| 2026-04-23 13:17 | 51.25079 | -179.04249 | 31989 ft | 516 kts | 77° |
| 2026-04-23 13:18 | 51.26458 | -178.93014 | 31984 ft | 515 kts | 77° |
| 2026-04-23 13:18 | 51.27827 | -178.81759 | 31984 ft | 516 kts | 77° |
| 2026-04-23 13:19 | 51.29185 | -178.70502 | 31982 ft | 516 kts | 77° |
| 2026-04-23 13:19 | 51.30532 | -178.59236 | 31976 ft | 516 kts | 77° |
| 2026-04-23 13:20 | 51.31870 | -178.47949 | 31982 ft | 519 kts | 77° |
| 2026-04-23 13:20 | 51.33205 | -178.36603 | 31978 ft | 519 kts | 78° |
| 2026-04-23 13:21 | 51.34302 | -178.27190 | 31962 ft | 517 kts | 78° |
| 2026-04-23 13:21 | 51.35827 | -178.14001 | 31958 ft | 516 kts | 78° |
| 2026-04-23 13:22 | 51.36902 | -178.04624 | 31976 ft | 516 kts | 78° |
| 2026-04-23 13:22 | 51.38392 | -177.91491 | 31967 ft | 516 kts | 79° |
| 2026-04-23 13:23 | 51.39664 | -177.80170 | 31977 ft | 516 kts | 79° |
| 2026-04-23 13:23 | 51.40722 | -177.70682 | 31967 ft | 517 kts | 79° |
| 2026-04-23 13:24 | 51.41973 | -177.59360 | 31967 ft | 516 kts | 79° |
| 2026-04-23 13:24 | 51.43217 | -177.48006 | 31984 ft | 519 kts | 79° |
| 2026-04-23 13:25 | 51.44455 | -177.36596 | 31996 ft | 520 kts | 79° |
| 2026-04-23 13:25 | 51.45683 | -177.25174 | 32007 ft | 520 kts | 79° |
| 2026-04-23 13:26 | 51.46901 | -177.13722 | 31998 ft | 520 kts | 80° |
| 2026-04-23 13:26 | 51.48108 | -177.02271 | 32008 ft | 521 kts | 80° |
| 2026-04-23 13:27 | 51.49307 | -176.90783 | 32015 ft | 521 kts | 80° |
| 2026-04-23 13:27 | 51.50491 | -176.79324 | 32010 ft | 520 kts | 81° |
| 2026-04-23 13:28 | 51.51662 | -176.67870 | 32015 ft | 520 kts | 81° |
| 2026-04-23 13:28 | 51.52817 | -176.56468 | 32015 ft | 521 kts | 81° |
| 2026-04-23 13:29 | 51.53967 | -176.44990 | 32027 ft | 521 kts | 81° |
| 2026-04-23 13:29 | 51.55115 | -176.33419 | 32043 ft | 521 kts | 81° |
| 2026-04-23 13:30 | 51.56239 | -176.21980 | 32027 ft | 521 kts | 81° |
| 2026-04-23 13:30 | 51.57358 | -176.10475 | 32039 ft | 521 kts | 82° |
| 2026-04-23 13:31 | 51.58463 | -175.98988 | 32044 ft | 519 kts | 82° |
| 2026-04-23 13:31 | 51.59554 | -175.87505 | 32059 ft | 519 kts | 82° |
| 2026-04-23 13:32 | 51.60635 | -175.76009 | 32059 ft | 520 kts | 82° |
| 2026-04-23 13:32 | 51.61707 | -175.64503 | 32073 ft | 520 kts | 83° |
| 2026-04-23 13:33 | 51.62765 | -175.53004 | 32091 ft | 518 kts | 83° |
| 2026-04-23 13:33 | 51.63810 | -175.41518 | 32082 ft | 518 kts | 83° |
| 2026-04-23 13:34 | 51.64843 | -175.30045 | 32101 ft | 518 kts | 83° |
| 2026-04-23 13:34 | 51.65858 | -175.18639 | 32098 ft | 518 kts | 83° |
| 2026-04-23 13:35 | 51.66869 | -175.07167 | 32115 ft | 517 kts | 83° |
| 2026-04-23 13:35 | 51.67867 | -174.95702 | 32115 ft | 517 kts | 83° |
| 2026-04-23 13:36 | 51.68852 | -174.84236 | 32117 ft | 517 kts | 83° |
| 2026-04-23 13:36 | 51.69827 | -174.72762 | 32129 ft | 516 kts | 84° |
| 2026-04-23 13:37 | 51.70788 | -174.61311 | 32120 ft | 514 kts | 84° |
| 2026-04-23 13:37 | 51.71737 | -174.49882 | 32132 ft | 514 kts | 84° |
| 2026-04-23 13:38 | 51.72674 | -174.38443 | 32137 ft | 514 kts | 84° |
| 2026-04-23 13:38 | 51.73599 | -174.27001 | 32153 ft | 514 kts | 84° |
| 2026-04-23 13:39 | 51.74514 | -174.15560 | 32150 ft | 514 kts | 84° |
| 2026-04-23 13:39 | 51.75417 | -174.04122 | 32152 ft | 513 kts | 84° |
| 2026-04-23 13:40 | 51.76308 | -173.92700 | 32167 ft | 513 kts | 84° |
| 2026-04-23 13:40 | 51.77182 | -173.81336 | 32169 ft | 513 kts | 84° |
| 2026-04-23 13:41 | 51.78050 | -173.69906 | 32187 ft | 513 kts | 85° |
| 2026-04-23 13:41 | 51.78906 | -173.58485 | 32186 ft | 511 kts | 85° |
| 2026-04-23 13:42 | 51.79748 | -173.47095 | 32201 ft | 511 kts | 85° |
| 2026-04-23 13:42 | 51.80580 | -173.35703 | 32219 ft | 510 kts | 85° |
| 2026-04-23 13:43 | 51.81399 | -173.24313 | 32206 ft | 510 kts | 85° |
| 2026-04-23 13:43 | 51.82208 | -173.12917 | 32228 ft | 510 kts | 85° |
| 2026-04-23 13:44 | 51.83005 | -173.01534 | 32208 ft | 509 kts | 85° |
| 2026-04-23 13:44 | 51.83789 | -172.90158 | 32240 ft | 509 kts | 85° |
| 2026-04-23 13:45 | 51.84562 | -172.78798 | 32246 ft | 508 kts | 86° |
| 2026-04-23 13:45 | 51.85322 | -172.67455 | 32241 ft | 507 kts | 86° |
| 2026-04-23 13:46 | 51.86071 | -172.56111 | 32257 ft | 507 kts | 86° |
| 2026-04-23 13:46 | 51.86808 | -172.44775 | 32267 ft | 506 kts | 86° |
| 2026-04-23 13:47 | 51.87534 | -172.33443 | 32266 ft | 506 kts | 86° |
| 2026-04-23 13:47 | 51.88245 | -172.22180 | 32278 ft | 506 kts | 86° |
| 2026-04-23 13:48 | 51.88954 | -172.10767 | 32282 ft | 507 kts | 86° |
| 2026-04-23 13:48 | 51.89645 | -171.99425 | 32321 ft | 506 kts | 86° |
| 2026-04-23 13:49 | 51.90322 | -171.88163 | 32300 ft | 506 kts | 87° |
| 2026-04-23 13:49 | 51.90996 | -171.76800 | 32308 ft | 507 kts | 87° |
| 2026-04-23 13:50 | 51.91657 | -171.65443 | 32298 ft | 506 kts | 87° |
| 2026-04-23 13:50 | 51.92308 | -171.54083 | 32326 ft | 506 kts | 87° |
| 2026-04-23 13:51 | 51.92946 | -171.42723 | 32323 ft | 506 kts | 87° |
| 2026-04-23 13:51 | 51.93574 | -171.31358 | 32337 ft | 506 kts | 87° |
| 2026-04-23 13:52 | 51.94191 | -171.19998 | 32332 ft | 506 kts | 88° |
| 2026-04-23 13:52 | 51.94796 | -171.08637 | 32370 ft | 506 kts | 88° |
| 2026-04-23 13:53 | 51.95391 | -170.97294 | 32363 ft | 504 kts | 88° |
| 2026-04-23 13:53 | 51.95972 | -170.85990 | 32420 ft | 503 kts | 88° |
| 2026-04-23 13:54 | 51.96540 | -170.74700 | 32375 ft | 503 kts | 88° |
| 2026-04-23 13:54 | 51.97098 | -170.63387 | 32371 ft | 503 kts | 88° |
| 2026-04-23 13:55 | 51.97646 | -170.52088 | 32393 ft | 502 kts | 89° |
| 2026-04-23 13:55 | 51.98182 | -170.40787 | 32392 ft | 502 kts | 89° |
| 2026-04-23 13:56 | 51.98708 | -170.29485 | 32403 ft | 502 kts | 89° |
| 2026-04-23 13:56 | 51.99222 | -170.18185 | 32404 ft | 502 kts | 89° |
| 2026-04-23 13:57 | 51.99727 | -170.06890 | 32418 ft | 502 kts | 89° |
| 2026-04-23 13:57 | 52.00219 | -169.95598 | 32416 ft | 502 kts | 89° |
| 2026-04-23 13:58 | 52.00689 | -169.84308 | 32420 ft | 501 kts | 90° |
| 2026-04-23 13:58 | 52.01144 | -169.73012 | 32426 ft | 501 kts | 90° |
| 2026-04-23 13:59 | 52.01590 | -169.61721 | 32434 ft | 501 kts | 90° |
| 2026-04-23 13:59 | 52.02027 | -169.50426 | 32450 ft | 501 kts | 90° |
| 2026-04-23 14:00 | 52.02381 | -169.41045 | 32450 ft | 501 kts | 90° |
| 2026-04-23 14:00 | 52.02867 | -169.27842 | 32459 ft | 501 kts | 90° |
| 2026-04-23 14:01 | 52.03273 | -169.16551 | 32449 ft | 500 kts | 90° |
| 2026-04-23 14:01 | 52.03666 | -169.05303 | 32478 ft | 497 kts | 90° |
| 2026-04-23 14:02 | 52.04045 | -168.94102 | 32494 ft | 497 kts | 90° |
| 2026-04-23 14:02 | 52.04413 | -168.82907 | 32495 ft | 496 kts | 90° |
| 2026-04-23 14:03 | 52.04771 | -168.71701 | 32509 ft | 496 kts | 91° |
| 2026-04-23 14:03 | 52.05118 | -168.60511 | 32512 ft | 496 kts | 91° |
| 2026-04-23 14:04 | 52.05455 | -168.49338 | 32536 ft | 495 kts | 91° |
| 2026-04-23 14:04 | 52.05780 | -168.38175 | 32539 ft | 495 kts | 91° |
| 2026-04-23 14:05 | 52.06094 | -168.27014 | 32555 ft | 494 kts | 91° |
| 2026-04-23 14:05 | 52.06398 | -168.15851 | 32556 ft | 494 kts | 91° |
| 2026-04-23 14:06 | 52.06692 | -168.04699 | 32564 ft | 493 kts | 91° |
| 2026-04-23 14:06 | 52.06974 | -167.93570 | 32587 ft | 493 kts | 91° |
| 2026-04-23 14:07 | 52.07245 | -167.82437 | 32587 ft | 493 kts | 91° |
| 2026-04-23 14:07 | 52.07589 | -167.67632 | 32601 ft | 493 kts | 92° |
| 2026-04-23 14:08 | 52.07837 | -167.56503 | 32602 ft | 492 kts | 92° |
| 2026-04-23 14:08 | 52.08073 | -167.45392 | 32613 ft | 492 kts | 92° |
| 2026-04-23 14:09 | 52.08298 | -167.34285 | 32628 ft | 492 kts | 92° |
| 2026-04-23 14:09 | 52.08513 | -167.23199 | 32632 ft | 490 kts | 92° |
| 2026-04-23 14:10 | 52.08717 | -167.12148 | 32630 ft | 489 kts | 93° |
| 2026-04-23 14:10 | 52.08910 | -167.01085 | 32651 ft | 489 kts | 93° |
| 2026-04-23 14:11 | 52.09092 | -166.90032 | 32667 ft | 489 kts | 93° |
| 2026-04-23 14:11 | 52.09265 | -166.78986 | 32671 ft | 489 kts | 93° |
| 2026-04-23 14:12 | 52.09426 | -166.68024 | 32681 ft | 488 kts | 93° |
| 2026-04-23 14:12 | 52.09578 | -166.56981 | 32679 ft | 488 kts | 94° |
| 2026-04-23 14:13 | 52.09719 | -166.45963 | 32694 ft | 487 kts | 94° |
| 2026-04-23 14:13 | 52.09850 | -166.34956 | 32695 ft | 487 kts | 94° |
| 2026-04-23 14:14 | 52.09970 | -166.23931 | 32707 ft | 487 kts | 94° |
| 2026-04-23 14:14 | 52.10081 | -166.12915 | 32709 ft | 487 kts | 94° |
| 2026-04-23 14:15 | 52.10181 | -166.01906 | 32722 ft | 487 kts | 94° |
| 2026-04-23 14:15 | 52.10271 | -165.90903 | 32732 ft | 486 kts | 94° |
| 2026-04-23 14:16 | 52.10350 | -165.79913 | 32735 ft | 486 kts | 94° |
| 2026-04-23 14:16 | 52.10419 | -165.68916 | 32754 ft | 486 kts | 94° |
| 2026-04-23 14:17 | 52.10478 | -165.57928 | 32741 ft | 486 kts | 95° |
| 2026-04-23 14:17 | 52.10527 | -165.46970 | 32764 ft | 484 kts | 95° |
| 2026-04-23 14:18 | 52.10565 | -165.36029 | 32763 ft | 483 kts | 95° |
| 2026-04-23 14:18 | 52.10594 | -165.25117 | 32778 ft | 482 kts | 95° |
| 2026-04-23 14:19 | 52.10611 | -165.14216 | 32777 ft | 482 kts | 95° |
| 2026-04-23 14:19 | 52.10619 | -165.03318 | 32783 ft | 481 kts | 92° |
| 2026-04-23 14:20 | 52.10617 | -164.92439 | 32788 ft | 480 kts | 92° |
| 2026-04-23 14:20 | 52.10604 | -164.81573 | 32788 ft | 480 kts | 93° |
| 2026-04-23 14:21 | 52.10581 | -164.70712 | 32793 ft | 480 kts | 93° |
| 2026-04-23 14:21 | 52.10549 | -164.59853 | 32802 ft | 480 kts | 93° |
| 2026-04-23 14:22 | 52.10508 | -164.49059 | 32813 ft | 480 kts | 93° |
| 2026-04-23 14:22 | 52.10456 | -164.38209 | 32814 ft | 480 kts | 93° |
| 2026-04-23 14:23 | 52.10395 | -164.27358 | 32829 ft | 480 kts | 93° |
| 2026-04-23 14:23 | 52.10323 | -164.16506 | 32826 ft | 480 kts | 93° |
| 2026-04-23 14:24 | 52.10241 | -164.05658 | 32829 ft | 480 kts | 94° |
| 2026-04-23 14:24 | 52.10149 | -163.94792 | 32838 ft | 481 kts | 94° |
| 2026-04-23 14:25 | 52.10048 | -163.83924 | 32852 ft | 481 kts | 94° |
| 2026-04-23 14:25 | 52.09937 | -163.73053 | 32852 ft | 480 kts | 94° |
| 2026-04-23 14:26 | 52.09815 | -163.62194 | 32859 ft | 480 kts | 94° |
| 2026-04-23 14:26 | 52.09684 | -163.51333 | 32862 ft | 481 kts | 95° |
| 2026-04-23 14:27 | 52.09541 | -163.40479 | 32912 ft | 479 kts | 92° |
| 2026-04-23 14:27 | 52.09391 | -163.29632 | 32879 ft | 479 kts | 95° |
| 2026-04-23 14:28 | 52.09229 | -163.18789 | 32881 ft | 480 kts | 95° |
| 2026-04-23 14:28 | 52.09058 | -163.07951 | 32888 ft | 479 kts | 95° |
| 2026-04-23 14:29 | 52.08878 | -162.97095 | 32896 ft | 480 kts | 96° |
| 2026-04-23 14:29 | 52.08686 | -162.86230 | 32907 ft | 480 kts | 96° |
| 2026-04-23 14:30 | 52.08484 | -162.75375 | 32900 ft | 480 kts | 96° |
| 2026-04-23 14:30 | 52.08272 | -162.64523 | 32914 ft | 480 kts | 96° |
| 2026-04-23 14:31 | 52.08052 | -162.53677 | 32913 ft | 480 kts | 97° |
| 2026-04-23 14:31 | 52.07820 | -162.42811 | 32923 ft | 481 kts | 97° |
| 2026-04-23 14:32 | 52.07578 | -162.31937 | 32925 ft | 481 kts | 97° |
| 2026-04-23 14:32 | 52.07326 | -162.21065 | 32930 ft | 481 kts | 98° |
| 2026-04-23 14:33 | 52.07065 | -162.10203 | 32924 ft | 481 kts | 98° |
| 2026-04-23 14:33 | 52.06793 | -161.99341 | 32937 ft | 482 kts | 98° |
| 2026-04-23 14:34 | 52.06512 | -161.88525 | 32942 ft | 482 kts | 98° |
| 2026-04-23 14:34 | 52.06221 | -161.77649 | 32947 ft | 482 kts | 99° |
| 2026-04-23 14:35 | 52.05919 | -161.66770 | 32947 ft | 482 kts | 99° |
| 2026-04-23 14:35 | 52.05608 | -161.55900 | 32959 ft | 481 kts | 99° |
| 2026-04-23 14:36 | 52.05286 | -161.45042 | 32969 ft | 482 kts | 100° |
| 2026-04-23 14:36 | 52.04953 | -161.34169 | 32956 ft | 482 kts | 100° |
| 2026-04-23 14:37 | 52.04611 | -161.23290 | 32980 ft | 482 kts | 100° |
| 2026-04-23 14:37 | 52.04260 | -161.12433 | 32980 ft | 481 kts | 100° |
| 2026-04-23 14:38 | 52.03899 | -161.01576 | 32968 ft | 481 kts | 101° |
| 2026-04-23 14:38 | 52.03526 | -160.90713 | 32987 ft | 482 kts | 101° |
| 2026-04-23 14:39 | 52.03144 | -160.79838 | 32992 ft | 482 kts | 101° |
| 2026-04-23 14:39 | 52.02753 | -160.68981 | 32992 ft | 482 kts | 101° |
| 2026-04-23 14:40 | 52.02351 | -160.58123 | 33001 ft | 482 kts | 101° |
| 2026-04-23 14:40 | 52.01940 | -160.47268 | 32999 ft | 482 kts | 102° |
| 2026-04-23 14:41 | 52.01518 | -160.36461 | 33000 ft | 483 kts | 102° |
| 2026-04-23 14:41 | 52.01085 | -160.25580 | 33003 ft | 483 kts | 102° |
| 2026-04-23 14:42 | 52.00643 | -160.14711 | 33018 ft | 483 kts | 103° |
| 2026-04-23 14:42 | 52.00191 | -160.03850 | 33057 ft | 482 kts | 103° |
| 2026-04-23 14:43 | 51.99694 | -159.92982 | 33065 ft | 483 kts | 105° |
| 2026-04-23 14:43 | 51.99059 | -159.82150 | 33061 ft | 482 kts | 105° |
| 2026-04-23 14:44 | 51.98402 | -159.71330 | 32992 ft | 479 kts | 105° |
| 2026-04-23 14:44 | 51.98092 | -159.66031 | 33051 ft | 465 kts | 105° |
| 2026-04-23 14:44 | 51.97797 | -159.60880 | 33070 ft | 455 kts | 106° |
| 2026-04-23 14:45 | 51.97190 | -159.50737 | 33074 ft | 451 kts | 106° |
| 2026-04-23 14:45 | 51.96563 | -159.40621 | 33079 ft | 451 kts | 106° |
| 2026-04-23 14:46 | 51.95934 | -159.30511 | 33077 ft | 451 kts | 106° |
| 2026-04-23 14:46 | 51.95303 | -159.20406 | 33089 ft | 451 kts | 107° |
| 2026-04-23 14:47 | 51.94666 | -159.10306 | 33086 ft | 450 kts | 107° |
| 2026-04-23 14:47 | 51.94019 | -159.00209 | 33079 ft | 451 kts | 106° |
| 2026-04-23 14:48 | 51.93361 | -158.90091 | 33093 ft | 451 kts | 106° |
| 2026-04-23 14:48 | 51.92697 | -158.79982 | 33104 ft | 451 kts | 106° |
| 2026-04-23 14:49 | 51.92028 | -158.69940 | 33104 ft | 451 kts | 106° |
| 2026-04-23 14:49 | 51.91346 | -158.59838 | 33110 ft | 451 kts | 107° |
| 2026-04-23 14:50 | 51.90654 | -158.49740 | 33104 ft | 452 kts | 106° |
| 2026-04-23 14:50 | 51.89952 | -158.39626 | 33119 ft | 452 kts | 106° |
| 2026-04-23 14:51 | 51.89243 | -158.29517 | 33123 ft | 452 kts | 106° |
| 2026-04-23 14:51 | 51.88525 | -158.19406 | 33128 ft | 452 kts | 106° |
| 2026-04-23 14:52 | 51.87799 | -158.09318 | 33128 ft | 451 kts | 107° |
| 2026-04-23 14:52 | 51.87064 | -157.99226 | 33123 ft | 453 kts | 106° |
| 2026-04-23 14:53 | 51.86317 | -157.89109 | 33133 ft | 453 kts | 106° |
| 2026-04-23 14:53 | 51.85569 | -157.79066 | 33132 ft | 453 kts | 106° |
| 2026-04-23 14:54 | 51.84807 | -157.68966 | 33134 ft | 452 kts | 106° |
| 2026-04-23 14:54 | 51.84036 | -157.58867 | 33140 ft | 452 kts | 106° |
| 2026-04-23 14:55 | 51.83257 | -157.48779 | 33140 ft | 453 kts | 105° |
| 2026-04-23 14:55 | 51.82466 | -157.38659 | 33142 ft | 454 kts | 105° |
| 2026-04-23 14:56 | 51.81797 | -157.30178 | 33148 ft | 454 kts | 105° |
| 2026-04-23 14:56 | 51.80992 | -157.20074 | 33151 ft | 453 kts | 105° |
| 2026-04-23 14:57 | 51.80183 | -157.10039 | 33153 ft | 453 kts | 105° |
| 2026-04-23 14:57 | 51.79355 | -156.99928 | 33157 ft | 455 kts | 105° |
| 2026-04-23 14:58 | 51.78518 | -156.89780 | 33156 ft | 457 kts | 105° |
| 2026-04-23 14:58 | 51.77674 | -156.79617 | 33159 ft | 456 kts | 105° |
| 2026-04-23 14:59 | 51.76821 | -156.69467 | 33159 ft | 456 kts | 105° |
| 2026-04-23 14:59 | 51.75959 | -156.59320 | 33159 ft | 456 kts | 105° |
| 2026-04-23 15:00 | 51.75083 | -156.49163 | 33170 ft | 458 kts | 104° |
| 2026-04-23 15:00 | 51.74196 | -156.38965 | 33157 ft | 459 kts | 104° |
| 2026-04-23 15:01 | 51.73303 | -156.28776 | 33164 ft | 459 kts | 104° |
| 2026-04-23 15:01 | 51.72401 | -156.18592 | 33154 ft | 458 kts | 105° |
| 2026-04-23 15:02 | 51.71490 | -156.08423 | 33149 ft | 458 kts | 105° |
| 2026-04-23 15:02 | 51.70569 | -155.98253 | 33159 ft | 459 kts | 104° |
| 2026-04-23 15:03 | 51.69641 | -155.88083 | 33159 ft | 459 kts | 104° |
| 2026-04-23 15:03 | 51.68703 | -155.77919 | 33156 ft | 458 kts | 104° |
| 2026-04-23 15:04 | 51.67757 | -155.67760 | 33161 ft | 458 kts | 104° |
| 2026-04-23 15:04 | 51.66803 | -155.57612 | 33133 ft | 457 kts | 104° |
| 2026-04-23 15:05 | 51.65845 | -155.47508 | 33165 ft | 455 kts | 104° |
| 2026-04-23 15:05 | 51.64878 | -155.37431 | 33164 ft | 455 kts | 104° |
| 2026-04-23 15:06 | 51.63903 | -155.27360 | 33167 ft | 455 kts | 104° |
| 2026-04-23 15:06 | 51.62927 | -155.17372 | 33164 ft | 455 kts | 104° |
| 2026-04-23 15:07 | 51.61935 | -155.07308 | 33145 ft | 455 kts | 104° |
| 2026-04-23 15:07 | 51.60935 | -154.97256 | 33169 ft | 455 kts | 104° |
| 2026-04-23 15:08 | 51.59928 | -154.87216 | 33162 ft | 455 kts | 104° |
| 2026-04-23 15:09 | 51.58400 | -154.72159 | 33159 ft | 455 kts | 104° |
| 2026-04-23 15:09 | 51.57372 | -154.62134 | 33184 ft | 454 kts | 104° |
| 2026-04-23 15:10 | 51.56504 | -154.53737 | 33178 ft | 454 kts | 104° |
| 2026-04-23 15:10 | 51.55290 | -154.42099 | 33196 ft | 454 kts | 104° |
| 2026-04-23 15:11 | 51.54236 | -154.32092 | 33209 ft | 454 kts | 104° |
| 2026-04-23 15:11 | 51.53175 | -154.22099 | 33208 ft | 454 kts | 105° |
| 2026-04-23 15:12 | 51.52105 | -154.12108 | 33198 ft | 454 kts | 104° |
| 2026-04-23 15:12 | 51.51026 | -154.02122 | 33223 ft | 454 kts | 104° |
| 2026-04-23 15:13 | 51.49939 | -153.92133 | 33240 ft | 454 kts | 104° |
| 2026-04-23 15:13 | 51.48844 | -153.82164 | 33238 ft | 454 kts | 104° |
| 2026-04-23 15:14 | 51.47742 | -153.72199 | 33247 ft | 454 kts | 104° |
| 2026-04-23 15:14 | 51.46630 | -153.62238 | 33243 ft | 454 kts | 104° |
| 2026-04-23 15:15 | 51.45509 | -153.52275 | 33263 ft | 454 kts | 104° |
| 2026-04-23 15:15 | 51.44380 | -153.42323 | 33262 ft | 454 kts | 104° |
| 2026-04-23 15:16 | 51.43244 | -153.32374 | 33273 ft | 454 kts | 104° |
| 2026-04-23 15:16 | 51.42099 | -153.22439 | 33273 ft | 453 kts | 104° |
| 2026-04-23 15:17 | 51.40946 | -153.12507 | 33282 ft | 455 kts | 105° |
| 2026-04-23 15:17 | 51.39779 | -153.02531 | 33284 ft | 456 kts | 104° |
| 2026-04-23 15:18 | 51.38602 | -152.92551 | 33298 ft | 456 kts | 104° |
| 2026-04-23 15:18 | 51.37425 | -152.82643 | 33298 ft | 456 kts | 103° |
| 2026-04-23 15:19 | 51.36230 | -152.72679 | 33313 ft | 456 kts | 103° |
| 2026-04-23 15:19 | 51.35029 | -152.62711 | 33314 ft | 459 kts | 104° |
| 2026-04-23 15:20 | 51.34007 | -152.54300 | 33328 ft | 460 kts | 103° |
| 2026-04-23 15:20 | 51.32585 | -152.42657 | 33329 ft | 459 kts | 105° |
| 2026-04-23 15:21 | 51.31347 | -152.32631 | 33342 ft | 460 kts | 105° |
| 2026-04-23 15:21 | 51.30100 | -152.22624 | 33344 ft | 459 kts | 104° |
| 2026-04-23 15:22 | 51.28842 | -152.12598 | 33356 ft | 463 kts | 103° |
| 2026-04-23 15:22 | 51.27571 | -152.02534 | 33363 ft | 461 kts | 104° |
| 2026-04-23 15:23 | 51.26300 | -151.92501 | 33365 ft | 461 kts | 103° |
| 2026-04-23 15:23 | 51.25013 | -151.82449 | 33373 ft | 462 kts | 103° |
| 2026-04-23 15:24 | 51.23721 | -151.72436 | 33368 ft | 461 kts | 103° |
| 2026-04-23 15:24 | 51.22413 | -151.62367 | 33386 ft | 466 kts | 102° |
| 2026-04-23 15:25 | 51.21092 | -151.52272 | 33389 ft | 464 kts | 102° |
| 2026-04-23 15:25 | 51.19770 | -151.42219 | 33393 ft | 464 kts | 103° |
| 2026-04-23 15:26 | 51.18431 | -151.32125 | 33395 ft | 465 kts | 103° |
| 2026-04-23 15:26 | 51.17087 | -151.22073 | 33400 ft | 464 kts | 101° |
| 2026-04-23 15:27 | 51.15731 | -151.11986 | 33401 ft | 468 kts | 102° |
| 2026-04-23 15:27 | 51.14361 | -151.01870 | 33414 ft | 466 kts | 102° |
| 2026-04-23 15:28 | 51.12989 | -150.91815 | 33414 ft | 465 kts | 101° |
| 2026-04-23 15:28 | 51.11602 | -150.81720 | 33422 ft | 466 kts | 102° |
| 2026-04-23 15:29 | 51.10204 | -150.71632 | 33422 ft | 467 kts | 101° |
| 2026-04-23 15:29 | 51.08796 | -150.61515 | 33434 ft | 471 kts | 101° |
| 2026-04-23 15:30 | 51.07381 | -150.51404 | 33446 ft | 470 kts | 101° |
| 2026-04-23 15:30 | 51.05947 | -150.41243 | 33445 ft | 468 kts | 101° |
| 2026-04-23 15:31 | 51.04518 | -150.31189 | 33448 ft | 471 kts | 101° |
| 2026-04-23 15:31 | 51.03068 | -150.21057 | 33450 ft | 468 kts | 101° |
| 2026-04-23 15:32 | 51.01616 | -150.10977 | 33449 ft | 468 kts | 101° |
| 2026-04-23 15:32 | 51.00151 | -150.00873 | 33450 ft | 470 kts | 101° |
| 2026-04-23 15:33 | 50.98544 | -149.90825 | 33460 ft | 468 kts | 104° |
| 2026-04-23 15:33 | 50.96729 | -149.80869 | 33462 ft | 469 kts | 105° |
| 2026-04-23 15:34 | 50.94911 | -149.70910 | 33467 ft | 472 kts | 104° |
| 2026-04-23 15:34 | 50.93117 | -149.60918 | 33472 ft | 470 kts | 104° |
| 2026-04-23 15:35 | 50.91337 | -149.50977 | 33485 ft | 468 kts | 104° |
| 2026-04-23 15:35 | 50.89553 | -149.41056 | 33491 ft | 468 kts | 104° |
| 2026-04-23 15:36 | 50.87762 | -149.31165 | 33483 ft | 467 kts | 104° |
| 2026-04-23 15:36 | 50.85967 | -149.21298 | 33487 ft | 466 kts | 104° |
| 2026-04-23 15:37 | 50.84166 | -149.11449 | 33486 ft | 465 kts | 104° |
| 2026-04-23 15:37 | 50.82664 | -149.03282 | 33495 ft | 466 kts | 104° |
| 2026-04-23 15:38 | 50.80542 | -148.91809 | 33499 ft | 465 kts | 104° |
| 2026-04-23 15:38 | 50.78722 | -148.82020 | 33501 ft | 464 kts | 104° |
| 2026-04-23 15:39 | 50.76907 | -148.72309 | 33501 ft | 463 kts | 104° |
| 2026-04-23 15:39 | 50.75075 | -148.62556 | 33516 ft | 463 kts | 104° |
| 2026-04-23 15:40 | 50.73532 | -148.54385 | 33510 ft | 464 kts | 104° |
| 2026-04-23 15:40 | 50.71387 | -148.43084 | 33516 ft | 461 kts | 105° |
| 2026-04-23 15:41 | 50.69539 | -148.33403 | 33525 ft | 461 kts | 105° |
| 2026-04-23 15:41 | 50.67986 | -148.25301 | 33525 ft | 461 kts | 105° |
| 2026-04-23 15:42 | 50.66125 | -148.15638 | 33527 ft | 461 kts | 105° |
| 2026-04-23 15:42 | 50.64255 | -148.05983 | 33535 ft | 460 kts | 105° |
| 2026-04-23 15:43 | 50.62384 | -147.96368 | 33538 ft | 458 kts | 105° |
| 2026-04-23 15:43 | 50.60509 | -147.86782 | 33538 ft | 458 kts | 105° |
| 2026-04-23 15:44 | 50.58630 | -147.77219 | 33543 ft | 458 kts | 105° |
| 2026-04-23 15:44 | 50.56739 | -147.67647 | 33543 ft | 458 kts | 105° |
| 2026-04-23 15:45 | 50.54842 | -147.58089 | 33551 ft | 456 kts | 105° |
| 2026-04-23 15:45 | 50.52947 | -147.48590 | 33552 ft | 455 kts | 106° |
| 2026-04-23 15:46 | 50.51059 | -147.39174 | 33554 ft | 455 kts | 106° |
| 2026-04-23 15:46 | 50.49153 | -147.29707 | 33559 ft | 455 kts | 106° |
| 2026-04-23 15:47 | 50.47237 | -147.20237 | 33563 ft | 455 kts | 105° |
| 2026-04-23 15:47 | 50.45315 | -147.10792 | 33564 ft | 453 kts | 106° |
| 2026-04-23 15:48 | 50.43404 | -147.01443 | 33564 ft | 447 kts | 106° |
| 2026-04-23 15:48 | 50.41505 | -146.92194 | 33568 ft | 445 kts | 107° |
| 2026-04-23 15:49 | 50.39600 | -146.82957 | 33571 ft | 445 kts | 106° |
| 2026-04-23 15:49 | 50.37690 | -146.73734 | 33575 ft | 443 kts | 107° |
| 2026-04-23 15:50 | 50.35781 | -146.64563 | 33573 ft | 442 kts | 107° |
| 2026-04-23 15:50 | 50.33867 | -146.55406 | 33579 ft | 443 kts | 107° |
| 2026-04-23 15:51 | 50.31943 | -146.46246 | 33581 ft | 443 kts | 107° |
| 2026-04-23 15:51 | 50.30010 | -146.37091 | 33581 ft | 443 kts | 108° |
| 2026-04-23 15:52 | 50.28079 | -146.27984 | 33581 ft | 439 kts | 107° |
| 2026-04-23 15:52 | 50.26155 | -146.18942 | 33583 ft | 437 kts | 107° |
| 2026-04-23 15:53 | 50.24227 | -146.09928 | 33590 ft | 437 kts | 108° |
| 2026-04-23 15:53 | 50.22289 | -146.00907 | 33592 ft | 438 kts | 108° |
| 2026-04-23 15:54 | 50.20341 | -145.91880 | 33600 ft | 439 kts | 108° |
| 2026-04-23 15:54 | 50.18384 | -145.82853 | 33594 ft | 438 kts | 108° |
| 2026-04-23 15:55 | 50.16425 | -145.73859 | 33596 ft | 438 kts | 108° |
| 2026-04-23 15:55 | 50.14458 | -145.64866 | 33594 ft | 437 kts | 108° |
| 2026-04-23 15:56 | 50.12494 | -145.55919 | 33680 ft | 437 kts | 108° |
| 2026-04-23 15:56 | 50.10493 | -145.46846 | 33921 ft | 448 kts | 108° |
| 2026-04-23 15:56 | 50.09473 | -145.42228 | 34048 ft | 453 kts | 108° |
| 2026-04-23 15:57 | 50.08450 | -145.37612 | 34161 ft | 459 kts | 108° |
| 2026-04-23 15:57 | 50.07388 | -145.32836 | 34326 ft | 463 kts | 108° |
| 2026-04-23 15:57 | 50.06329 | -145.28078 | 34440 ft | 468 kts | 108° |
| 2026-04-23 15:57 | 50.05254 | -145.23269 | 34560 ft | 472 kts | 108° |
| 2026-04-23 15:58 | 50.04185 | -145.18490 | 34663 ft | 476 kts | 108° |
| 2026-04-23 15:58 | 50.01981 | -145.08674 | 34898 ft | 484 kts | 109° |
| 2026-04-23 15:58 | 50.00867 | -145.03739 | 35153 ft | 483 kts | 109° |
| 2026-04-23 15:59 | 49.99533 | -144.98941 | 35379 ft | 484 kts | 117° |
| 2026-04-23 15:59 | 49.97966 | -144.94300 | 35537 ft | 486 kts | 118° |
| 2026-04-23 15:59 | 49.96330 | -144.89694 | 35736 ft | 487 kts | 119° |
| 2026-04-23 15:59 | 49.94659 | -144.85112 | 35936 ft | 488 kts | 119° |
| 2026-04-23 16:00 | 49.92969 | -144.80530 | 36116 ft | 490 kts | 119° |
| 2026-04-23 16:00 | 49.91273 | -144.75949 | 36329 ft | 490 kts | 119° |
| 2026-04-23 16:00 | 49.89577 | -144.71366 | 36569 ft | 489 kts | 119° |
| 2026-04-23 16:00 | 49.87882 | -144.66777 | 36717 ft | 491 kts | 119° |
| 2026-04-23 16:01 | 49.86183 | -144.62175 | 36898 ft | 492 kts | 119° |
| 2026-04-23 16:01 | 49.84484 | -144.57571 | 37066 ft | 493 kts | 119° |
| 2026-04-23 16:01 | 49.82777 | -144.52952 | 37184 ft | 495 kts | 119° |
| 2026-04-23 16:01 | 49.81068 | -144.48333 | 37454 ft | 493 kts | 119° |
| 2026-04-23 16:02 | 49.79367 | -144.43743 | 37686 ft | 493 kts | 119° |
| 2026-04-23 16:02 | 49.77656 | -144.39136 | 37855 ft | 493 kts | 120° |
| 2026-04-23 16:02 | 49.75947 | -144.34543 | 38071 ft | 493 kts | 120° |
| 2026-04-23 16:02 | 49.74236 | -144.29953 | 38250 ft | 492 kts | 120° |
| 2026-04-23 16:03 | 49.72545 | -144.25426 | 38433 ft | 492 kts | 120° |
| 2026-04-23 16:03 | 49.70833 | -144.20849 | 38591 ft | 492 kts | 120° |
| 2026-04-23 16:03 | 49.69114 | -144.16261 | 38683 ft | 494 kts | 120° |
| 2026-04-23 16:03 | 49.67391 | -144.11670 | 38797 ft | 495 kts | 120° |
| 2026-04-23 16:04 | 49.65666 | -144.07083 | 38983 ft | 494 kts | 120° |
| 2026-04-23 16:04 | 49.63941 | -144.02506 | 39147 ft | 494 kts | 120° |
| 2026-04-23 16:04 | 49.62212 | -143.97926 | 39269 ft | 494 kts | 120° |
| 2026-04-23 16:04 | 49.60482 | -143.93353 | 39389 ft | 494 kts | 120° |
| 2026-04-23 16:05 | 49.59312 | -143.90262 | 39481 ft | 494 kts | 120° |
| 2026-04-23 16:05 | 49.55280 | -143.79642 | 39525 ft | 494 kts | 120° |
| 2026-04-23 16:06 | 49.51805 | -143.70520 | 39527 ft | 494 kts | 120° |
| 2026-04-23 16:06 | 49.48320 | -143.61408 | 39526 ft | 494 kts | 120° |
| 2026-04-23 16:07 | 49.44828 | -143.52307 | 39525 ft | 494 kts | 120° |
| 2026-04-23 16:07 | 49.41328 | -143.43216 | 39530 ft | 494 kts | 120° |
| 2026-04-23 16:08 | 49.37824 | -143.34147 | 39530 ft | 494 kts | 120° |
| 2026-04-23 16:08 | 49.34319 | -143.25106 | 39531 ft | 494 kts | 120° |
| 2026-04-23 16:09 | 49.30791 | -143.16037 | 39531 ft | 494 kts | 120° |
| 2026-04-23 16:09 | 49.27269 | -143.07013 | 39575 ft | 494 kts | 120° |
| 2026-04-23 16:10 | 49.23740 | -142.98004 | 39537 ft | 494 kts | 121° |
| 2026-04-23 16:10 | 49.20198 | -142.88995 | 39536 ft | 494 kts | 121° |
| 2026-04-23 16:11 | 49.16650 | -142.79999 | 39536 ft | 494 kts | 121° |
| 2026-04-23 16:11 | 49.13094 | -142.71014 | 39536 ft | 494 kts | 121° |
| 2026-04-23 16:12 | 49.09535 | -142.62051 | 39536 ft | 494 kts | 121° |
| 2026-04-23 16:12 | 49.05967 | -142.53097 | 39537 ft | 494 kts | 121° |
| 2026-04-23 16:13 | 49.02392 | -142.44152 | 39539 ft | 494 kts | 121° |
| 2026-04-23 16:13 | 48.97013 | -142.30756 | 39539 ft | 494 kts | 121° |
| 2026-04-23 16:14 | 48.93415 | -142.21830 | 39540 ft | 494 kts | 121° |
| 2026-04-23 16:14 | 48.89834 | -142.12976 | 39542 ft | 495 kts | 121° |
| 2026-04-23 16:15 | 48.86195 | -142.04012 | 39545 ft | 495 kts | 121° |
| 2026-04-23 16:15 | 48.82600 | -141.95183 | 39547 ft | 495 kts | 121° |
| 2026-04-23 16:16 | 48.78971 | -141.86302 | 39546 ft | 495 kts | 121° |
| 2026-04-23 16:16 | 48.75338 | -141.77438 | 39546 ft | 495 kts | 121° |
| 2026-04-23 16:17 | 48.71698 | -141.68589 | 39545 ft | 495 kts | 121° |
| 2026-04-23 16:17 | 48.68051 | -141.59750 | 39545 ft | 495 kts | 122° |
| 2026-04-23 16:18 | 48.64398 | -141.50928 | 39544 ft | 495 kts | 122° |
| 2026-04-23 16:18 | 48.60735 | -141.42109 | 39543 ft | 495 kts | 122° |
| 2026-04-23 16:19 | 48.57066 | -141.33306 | 39541 ft | 495 kts | 122° |
| 2026-04-23 16:19 | 48.53393 | -141.24519 | 39543 ft | 495 kts | 122° |
| 2026-04-23 16:20 | 48.49710 | -141.15740 | 39541 ft | 496 kts | 122° |
| 2026-04-23 16:20 | 48.46016 | -141.06962 | 39542 ft | 496 kts | 122° |
| 2026-04-23 16:21 | 48.42311 | -140.98188 | 39541 ft | 496 kts | 122° |
| 2026-04-23 16:21 | 48.38600 | -140.89428 | 39541 ft | 496 kts | 122° |
| 2026-04-23 16:22 | 48.34883 | -140.80682 | 39539 ft | 496 kts | 122° |
| 2026-04-23 16:22 | 48.31159 | -140.71949 | 39538 ft | 497 kts | 122° |
| 2026-04-23 16:23 | 48.27426 | -140.63220 | 39538 ft | 497 kts | 122° |
| 2026-04-23 16:23 | 48.23687 | -140.54506 | 39537 ft | 497 kts | 122° |
| 2026-04-23 16:24 | 48.19938 | -140.45798 | 39538 ft | 497 kts | 122° |
| 2026-04-23 16:24 | 48.16182 | -140.37103 | 39535 ft | 497 kts | 122° |
| 2026-04-23 16:25 | 48.13052 | -140.29877 | 39535 ft | 497 kts | 122° |
| 2026-04-23 16:25 | 48.09283 | -140.21201 | 39530 ft | 497 kts | 123° |
| 2026-04-23 16:26 | 48.05505 | -140.12534 | 39534 ft | 498 kts | 123° |
| 2026-04-23 16:26 | 48.01720 | -140.03876 | 39534 ft | 498 kts | 123° |
| 2026-04-23 16:27 | 47.97870 | -139.95289 | 39534 ft | 498 kts | 126° |
| 2026-04-23 16:27 | 47.93704 | -139.87031 | 39528 ft | 498 kts | 127° |
| 2026-04-23 16:28 | 47.89479 | -139.78839 | 39530 ft | 499 kts | 127° |
| 2026-04-23 16:28 | 47.85285 | -139.70602 | 39532 ft | 499 kts | 127° |
| 2026-04-23 16:29 | 47.81116 | -139.62353 | 39526 ft | 499 kts | 127° |
| 2026-04-23 16:29 | 47.76948 | -139.54109 | 39525 ft | 499 kts | 127° |
| 2026-04-23 16:30 | 47.72766 | -139.45866 | 39530 ft | 499 kts | 127° |
| 2026-04-23 16:30 | 47.68580 | -139.37645 | 39527 ft | 499 kts | 127° |
| 2026-04-23 16:31 | 47.64383 | -139.29429 | 39531 ft | 500 kts | 127° |
| 2026-04-23 16:31 | 47.60178 | -139.21223 | 39530 ft | 500 kts | 127° |
| 2026-04-23 16:32 | 47.55966 | -139.13024 | 39520 ft | 500 kts | 127° |
| 2026-04-23 16:32 | 47.51745 | -139.04836 | 39338 ft | 499 kts | 127° |
| 2026-04-23 16:33 | 47.49650 | -139.00781 | 39485 ft | 494 kts | 127° |
| 2026-04-23 16:33 | 47.47569 | -138.96759 | 39512 ft | 490 kts | 127° |
| 2026-04-23 16:33 | 47.43435 | -138.88782 | 39510 ft | 489 kts | 127° |
| 2026-04-23 16:34 | 47.39294 | -138.80819 | 39511 ft | 489 kts | 127° |
| 2026-04-23 16:34 | 47.35147 | -138.72865 | 39513 ft | 489 kts | 127° |
| 2026-04-23 16:35 | 47.30994 | -138.64927 | 38427 ft | 488 kts | 127° |
| 2026-04-23 16:35 | 47.28919 | -138.60963 | 39546 ft | 490 kts | 127° |
| 2026-04-23 16:35 | 47.26834 | -138.56989 | 39520 ft | 490 kts | 127° |
| 2026-04-23 16:36 | 47.22668 | -138.49070 | 39513 ft | 489 kts | 127° |
| 2026-04-23 16:36 | 47.18501 | -138.41175 | 39509 ft | 487 kts | 127° |
| 2026-04-23 16:37 | 47.14341 | -138.33313 | 39500 ft | 487 kts | 127° |
| 2026-04-23 16:37 | 47.10181 | -138.25470 | 39498 ft | 487 kts | 127° |
| 2026-04-23 16:38 | 47.06019 | -138.17651 | 39494 ft | 486 kts | 127° |
| 2026-04-23 16:38 | 47.01846 | -138.09831 | 39501 ft | 488 kts | 127° |
| 2026-04-23 16:39 | 46.97659 | -138.02002 | 39496 ft | 488 kts | 127° |
| 2026-04-23 16:39 | 46.93464 | -137.94183 | 39491 ft | 489 kts | 127° |
| 2026-04-23 16:40 | 46.89287 | -137.86422 | 39490 ft | 487 kts | 127° |
| 2026-04-23 16:40 | 46.85092 | -137.78651 | 39483 ft | 487 kts | 127° |
| 2026-04-23 16:41 | 46.80892 | -137.70891 | 39484 ft | 487 kts | 128° |
| 2026-04-23 16:41 | 46.76687 | -137.63142 | 39485 ft | 487 kts | 128° |
| 2026-04-23 16:42 | 46.72483 | -137.55419 | 39479 ft | 486 kts | 128° |
| 2026-04-23 16:42 | 46.68278 | -137.47715 | 39472 ft | 486 kts | 128° |
| 2026-04-23 16:43 | 46.64068 | -137.40023 | 39479 ft | 485 kts | 128° |
| 2026-04-23 16:43 | 46.59855 | -137.32345 | 39471 ft | 485 kts | 128° |
| 2026-04-23 16:44 | 46.55638 | -137.24684 | 39472 ft | 485 kts | 128° |
| 2026-04-23 16:44 | 46.51416 | -137.17035 | 39474 ft | 485 kts | 128° |
| 2026-04-23 16:45 | 46.47191 | -137.09398 | 39469 ft | 485 kts | 128° |
| 2026-04-23 16:45 | 46.42963 | -137.01778 | 39463 ft | 485 kts | 128° |
| 2026-04-23 16:46 | 46.38732 | -136.94173 | 39465 ft | 485 kts | 128° |
| 2026-04-23 16:46 | 46.34498 | -136.86586 | 39455 ft | 484 kts | 128° |
| 2026-04-23 16:47 | 46.30255 | -136.79000 | 39459 ft | 484 kts | 128° |
| 2026-04-23 16:47 | 46.26010 | -136.71432 | 39452 ft | 485 kts | 128° |
| 2026-04-23 16:48 | 46.21757 | -136.63872 | 39452 ft | 485 kts | 128° |
| 2026-04-23 16:48 | 46.17499 | -136.56324 | 39453 ft | 485 kts | 128° |
| 2026-04-23 16:49 | 46.13234 | -136.48783 | 39448 ft | 485 kts | 128° |
| 2026-04-23 16:49 | 46.08963 | -136.41254 | 39441 ft | 485 kts | 129° |
| 2026-04-23 16:50 | 46.04687 | -136.33734 | 39442 ft | 485 kts | 128° |
| 2026-04-23 16:50 | 46.00406 | -136.26226 | 39608 ft | 485 kts | 129° |
| 2026-04-23 16:51 | 45.96143 | -136.18770 | 39593 ft | 485 kts | 129° |
| 2026-04-23 16:51 | 45.91852 | -136.11286 | 39608 ft | 485 kts | 129° |
| 2026-04-23 16:52 | 45.87560 | -136.03821 | 39602 ft | 485 kts | 129° |
| 2026-04-23 16:52 | 45.83259 | -135.96358 | 39590 ft | 485 kts | 129° |
| 2026-04-23 16:53 | 45.78955 | -135.88910 | 39601 ft | 485 kts | 129° |
| 2026-04-23 16:53 | 45.74652 | -135.81485 | 39595 ft | 485 kts | 129° |
| 2026-04-23 16:54 | 45.70335 | -135.74054 | 39590 ft | 486 kts | 129° |
| 2026-04-23 16:54 | 45.66009 | -135.66627 | 39586 ft | 486 kts | 129° |
| 2026-04-23 16:55 | 45.61675 | -135.59206 | 39593 ft | 486 kts | 129° |
| 2026-04-23 16:55 | 45.57333 | -135.51792 | 39590 ft | 486 kts | 129° |
| 2026-04-23 16:56 | 45.52993 | -135.44400 | 39587 ft | 486 kts | 129° |
| 2026-04-23 16:56 | 45.48640 | -135.37005 | 39585 ft | 486 kts | 129° |
| 2026-04-23 16:57 | 45.44289 | -135.29636 | 39587 ft | 486 kts | 129° |
| 2026-04-23 16:57 | 45.39929 | -135.22269 | 39578 ft | 486 kts | 129° |
| 2026-04-23 16:58 | 45.35558 | -135.14902 | 39576 ft | 489 kts | 129° |
| 2026-04-23 16:58 | 45.31170 | -135.07527 | 39574 ft | 488 kts | 129° |
| 2026-04-23 16:59 | 45.26778 | -135.00165 | 39569 ft | 489 kts | 129° |
| 2026-04-23 16:59 | 45.22369 | -134.92792 | 39572 ft | 491 kts | 130° |
| 2026-04-23 17:00 | 45.17951 | -134.85428 | 39576 ft | 490 kts | 129° |
| 2026-04-23 17:00 | 45.13532 | -134.78080 | 39565 ft | 489 kts | 130° |
| 2026-04-23 17:01 | 45.09113 | -134.70749 | 39562 ft | 490 kts | 130° |
| 2026-04-23 17:01 | 45.04677 | -134.63409 | 39548 ft | 490 kts | 130° |
| 2026-04-23 17:02 | 45.00267 | -134.56131 | 39545 ft | 491 kts | 130° |
| 2026-04-23 17:02 | 44.95814 | -134.48801 | 39556 ft | 492 kts | 130° |
| 2026-04-23 17:03 | 44.91356 | -134.41483 | 39559 ft | 493 kts | 130° |
| 2026-04-23 17:03 | 44.86874 | -134.34145 | 39539 ft | 493 kts | 130° |
| 2026-04-23 17:04 | 44.82361 | -134.26773 | 39537 ft | 494 kts | 130° |
| 2026-04-23 17:04 | 44.77899 | -134.19507 | 39532 ft | 493 kts | 130° |
| 2026-04-23 17:05 | 44.73396 | -134.12191 | 39529 ft | 495 kts | 130° |
| 2026-04-23 17:05 | 44.68855 | -134.04828 | 39526 ft | 494 kts | 130° |
| 2026-04-23 17:06 | 44.64364 | -133.97572 | 39521 ft | 498 kts | 130° |
| 2026-04-23 17:06 | 44.59819 | -133.90246 | 39514 ft | 497 kts | 130° |
| 2026-04-23 17:07 | 44.55277 | -133.82942 | 39521 ft | 498 kts | 130° |
| 2026-04-23 17:07 | 44.50702 | -133.75605 | 39516 ft | 503 kts | 131° |
| 2026-04-23 17:08 | 44.46062 | -133.68184 | 39510 ft | 510 kts | 131° |
| 2026-04-23 17:08 | 44.41380 | -133.60715 | 39510 ft | 510 kts | 131° |
| 2026-04-23 17:09 | 44.36695 | -133.53260 | 39509 ft | 510 kts | 131° |
| 2026-04-23 17:09 | 44.32008 | -133.45821 | 39503 ft | 510 kts | 131° |
| 2026-04-23 17:10 | 44.28111 | -133.39652 | 39498 ft | 510 kts | 131° |
| 2026-04-23 17:10 | 44.23415 | -133.32235 | 39490 ft | 510 kts | 131° |
| 2026-04-23 17:11 | 44.18710 | -133.24822 | 39493 ft | 510 kts | 132° |
| 2026-04-23 17:11 | 44.14004 | -133.17430 | 39485 ft | 510 kts | 132° |
| 2026-04-23 17:12 | 44.09293 | -133.10048 | 39483 ft | 510 kts | 132° |
| 2026-04-23 17:12 | 44.04578 | -133.02677 | 39478 ft | 510 kts | 132° |
| 2026-04-23 17:13 | 43.99857 | -132.95318 | 39476 ft | 510 kts | 132° |
| 2026-04-23 17:13 | 43.95131 | -132.87971 | 39470 ft | 510 kts | 132° |
| 2026-04-23 17:14 | 43.90404 | -132.80640 | 39471 ft | 510 kts | 132° |
| 2026-04-23 17:14 | 43.85671 | -132.73319 | 39463 ft | 510 kts | 132° |
| 2026-04-23 17:15 | 43.80934 | -132.66010 | 39461 ft | 510 kts | 132° |
| 2026-04-23 17:15 | 43.76189 | -132.58707 | 39456 ft | 510 kts | 132° |
| 2026-04-23 17:16 | 43.71438 | -132.51414 | 39455 ft | 510 kts | 132° |
| 2026-04-23 17:16 | 43.66679 | -132.44129 | 39457 ft | 511 kts | 132° |
| 2026-04-23 17:17 | 43.61918 | -132.36857 | 39449 ft | 511 kts | 132° |
| 2026-04-23 17:17 | 43.57144 | -132.29586 | 39443 ft | 511 kts | 133° |
| 2026-04-23 17:18 | 43.49976 | -132.18702 | 39434 ft | 511 kts | 133° |
| 2026-04-23 17:19 | 43.45221 | -132.11504 | 39433 ft | 512 kts | 133° |
| 2026-04-23 17:19 | 43.40428 | -132.04268 | 39433 ft | 512 kts | 133° |
| 2026-04-23 17:20 | 43.35626 | -131.97036 | 39422 ft | 512 kts | 133° |
| 2026-04-23 17:21 | 43.25999 | -131.82593 | 39414 ft | 513 kts | 133° |
| 2026-04-23 17:21 | 43.18764 | -131.71786 | 39408 ft | 513 kts | 133° |
| 2026-04-23 17:22 | 43.11510 | -131.60993 | 39408 ft | 513 kts | 133° |
| 2026-04-23 17:23 | 43.06672 | -131.53815 | 39297 ft | 513 kts | 133° |
| 2026-04-23 17:23 | 43.04251 | -131.50231 | 39298 ft | 514 kts | 133° |
| 2026-04-23 17:24 | 42.96971 | -131.39480 | 39298 ft | 514 kts | 133° |
| 2026-04-23 17:24 | 42.89678 | -131.28749 | 39292 ft | 514 kts | 133° |
| 2026-04-23 17:25 | 42.82409 | -131.18094 | 39287 ft | 514 kts | 133° |
| 2026-04-23 17:26 | 42.72615 | -131.03798 | 39282 ft | 515 kts | 133° |
| 2026-04-23 17:27 | 42.65264 | -130.93117 | 39281 ft | 516 kts | 134° |
| 2026-04-23 17:27 | 42.60386 | -130.86049 | 39273 ft | 517 kts | 134° |
| 2026-04-23 17:28 | 42.55465 | -130.78938 | 39273 ft | 517 kts | 134° |
| 2026-04-23 17:28 | 42.50535 | -130.71831 | 39266 ft | 517 kts | 134° |
| 2026-04-23 17:29 | 42.45601 | -130.64735 | 39273 ft | 518 kts | 134° |
| 2026-04-23 17:30 | 42.38176 | -130.54091 | 39268 ft | 518 kts | 134° |
| 2026-04-23 17:30 | 42.30742 | -130.43472 | 39265 ft | 519 kts | 134° |
| 2026-04-23 17:31 | 42.25775 | -130.36399 | 39266 ft | 519 kts | 134° |
| 2026-04-23 17:31 | 42.20807 | -130.29342 | 39257 ft | 519 kts | 134° |
| 2026-04-23 17:32 | 42.15831 | -130.22291 | 39257 ft | 519 kts | 134° |
| 2026-04-23 17:32 | 42.10849 | -130.15247 | 39255 ft | 519 kts | 134° |
| 2026-04-23 17:33 | 42.05862 | -130.08213 | 39256 ft | 520 kts | 134° |
| 2026-04-23 17:33 | 42.00930 | -130.01090 | 39254 ft | 521 kts | 129° |
| 2026-04-23 17:34 | 41.96919 | -129.92993 | 39254 ft | 521 kts | 121° |
| 2026-04-23 17:35 | 41.91406 | -129.80397 | 39256 ft | 520 kts | 120° |
| 2026-04-23 17:35 | 41.85922 | -129.67823 | 39254 ft | 520 kts | 120° |
| 2026-04-23 17:36 | 41.82237 | -129.59468 | 39253 ft | 521 kts | 120° |
| 2026-04-23 17:36 | 41.78538 | -129.51111 | 39250 ft | 521 kts | 120° |
| 2026-04-23 17:37 | 41.74833 | -129.42764 | 39251 ft | 521 kts | 120° |
| 2026-04-23 17:38 | 41.69268 | -129.30265 | 39252 ft | 521 kts | 121° |
| 2026-04-23 17:38 | 41.65546 | -129.21933 | 39252 ft | 522 kts | 121° |
| 2026-04-23 17:39 | 41.61819 | -129.13613 | 39251 ft | 522 kts | 121° |
| 2026-04-23 17:39 | 41.58087 | -129.05305 | 39251 ft | 521 kts | 121° |
| 2026-04-23 17:40 | 41.54347 | -128.97002 | 39251 ft | 521 kts | 121° |
| 2026-04-23 17:40 | 41.50608 | -128.88723 | 39251 ft | 521 kts | 121° |
| 2026-04-23 17:41 | 41.46878 | -128.80489 | 39252 ft | 523 kts | 121° |
| 2026-04-23 17:41 | 41.41227 | -128.68054 | 39249 ft | 523 kts | 121° |
| 2026-04-23 17:42 | 41.35559 | -128.55632 | 39257 ft | 524 kts | 121° |
| 2026-04-23 17:43 | 41.31769 | -128.47355 | 39256 ft | 524 kts | 121° |
| 2026-04-23 17:43 | 41.27970 | -128.39082 | 39255 ft | 524 kts | 121° |
| 2026-04-23 17:44 | 41.24163 | -128.30813 | 39255 ft | 525 kts | 122° |
| 2026-04-23 17:44 | 41.18429 | -128.18404 | 39265 ft | 526 kts | 122° |
| 2026-04-23 17:45 | 41.12674 | -128.06001 | 39259 ft | 527 kts | 122° |
| 2026-04-23 17:46 | 41.06897 | -127.93590 | 39257 ft | 527 kts | 122° |
| 2026-04-23 17:46 | 41.03037 | -127.85329 | 39260 ft | 527 kts | 122° |
| 2026-04-23 17:47 | 40.99164 | -127.77064 | 39261 ft | 528 kts | 122° |
| 2026-04-23 17:48 | 40.93341 | -127.64679 | 39260 ft | 528 kts | 122° |
| 2026-04-23 17:48 | 40.89448 | -127.56428 | 39256 ft | 529 kts | 123° |
| 2026-04-23 17:49 | 40.85548 | -127.48182 | 39261 ft | 529 kts | 123° |
| 2026-04-23 17:49 | 40.81641 | -127.39946 | 39260 ft | 529 kts | 123° |
| 2026-04-23 17:50 | 40.77724 | -127.31709 | 39259 ft | 530 kts | 123° |
| 2026-04-23 17:50 | 40.71829 | -127.19354 | 39261 ft | 530 kts | 123° |
| 2026-04-23 17:51 | 40.67894 | -127.11135 | 39260 ft | 531 kts | 123° |
| 2026-04-23 17:52 | 40.61970 | -126.98802 | 39260 ft | 531 kts | 123° |
| 2026-04-23 17:52 | 40.56083 | -126.86442 | 39260 ft | 532 kts | 123° |
| 2026-04-23 17:53 | 40.50188 | -126.74072 | 39260 ft | 532 kts | 123° |
| 2026-04-23 17:54 | 40.46244 | -126.65836 | 39274 ft | 532 kts | 123° |
| 2026-04-23 17:54 | 40.40335 | -126.53548 | 39262 ft | 533 kts | 123° |
| 2026-04-23 17:55 | 40.35052 | -126.42601 | 39254 ft | 533 kts | 124° |
| 2026-04-23 17:56 | 40.31076 | -126.34388 | 39262 ft | 534 kts | 124° |
| 2026-04-23 17:56 | 40.25098 | -126.22079 | 39261 ft | 534 kts | 124° |
| 2026-04-23 17:57 | 40.21098 | -126.13870 | 39252 ft | 535 kts | 124° |
| 2026-04-23 17:58 | 40.15088 | -126.01578 | 39254 ft | 535 kts | 124° |
| 2026-04-23 17:58 | 40.11071 | -125.93387 | 39255 ft | 535 kts | 124° |
| 2026-04-23 17:59 | 40.07046 | -125.85202 | 39257 ft | 536 kts | 124° |
| 2026-04-23 17:59 | 40.03015 | -125.77027 | 39254 ft | 536 kts | 124° |
| 2026-04-23 18:00 | 39.98971 | -125.68845 | 39253 ft | 537 kts | 124° |
| 2026-04-23 18:00 | 39.94928 | -125.60687 | 39274 ft | 535 kts | 124° |
| 2026-04-23 18:01 | 39.90879 | -125.52538 | 39252 ft | 537 kts | 125° |
| 2026-04-23 18:01 | 39.86812 | -125.44380 | 39252 ft | 538 kts | 125° |
| 2026-04-23 18:02 | 39.82734 | -125.36216 | 39254 ft | 538 kts | 125° |
| 2026-04-23 18:02 | 39.78651 | -125.28061 | 39246 ft | 538 kts | 125° |
| 2026-04-23 18:03 | 39.74561 | -125.19914 | 39256 ft | 538 kts | 125° |
| 2026-04-23 18:03 | 39.70465 | -125.11775 | 39252 ft | 538 kts | 125° |
| 2026-04-23 18:04 | 39.66364 | -125.03651 | 39244 ft | 538 kts | 125° |
| 2026-04-23 18:04 | 39.62251 | -124.95524 | 39249 ft | 539 kts | 126° |
| 2026-04-23 18:05 | 39.58131 | -124.87403 | 39249 ft | 539 kts | 126° |
| 2026-04-23 18:05 | 39.54009 | -124.79299 | 39249 ft | 539 kts | 126° |
| 2026-04-23 18:06 | 39.49906 | -124.71251 | 39247 ft | 539 kts | 126° |
| 2026-04-23 18:06 | 39.45768 | -124.63157 | 39243 ft | 539 kts | 126° |
| 2026-04-23 18:07 | 39.41626 | -124.55074 | 39254 ft | 539 kts | 126° |
| 2026-04-23 18:07 | 39.37474 | -124.46993 | 39247 ft | 540 kts | 126° |
| 2026-04-23 18:08 | 39.33990 | -124.40228 | 39237 ft | 540 kts | 126° |
| 2026-04-23 18:08 | 39.29149 | -124.30851 | 39238 ft | 540 kts | 126° |
| 2026-04-23 18:09 | 39.24954 | -124.22748 | 39239 ft | 540 kts | 126° |
| 2026-04-23 18:09 | 39.20807 | -124.14758 | 39225 ft | 540 kts | 126° |
| 2026-04-23 18:10 | 39.16623 | -124.06716 | 39214 ft | 540 kts | 126° |
| 2026-04-23 18:10 | 39.12430 | -123.98678 | 39209 ft | 540 kts | 127° |
| 2026-04-23 18:11 | 39.08232 | -123.90648 | 39216 ft | 541 kts | 127° |
| 2026-04-23 18:11 | 39.04023 | -123.82620 | 39210 ft | 541 kts | 127° |
| 2026-04-23 18:12 | 38.99616 | -123.74811 | 39226 ft | 537 kts | 136° |
| 2026-04-23 18:12 | 38.94392 | -123.67998 | 39235 ft | 535 kts | 140° |
| 2026-04-23 18:13 | 38.89009 | -123.61410 | 39220 ft | 534 kts | 141° |
| 2026-04-23 18:13 | 38.83605 | -123.54864 | 39204 ft | 535 kts | 141° |
| 2026-04-23 18:14 | 38.78197 | -123.48299 | 39212 ft | 535 kts | 140° |
| 2026-04-23 18:14 | 38.72796 | -123.41730 | 39207 ft | 536 kts | 140° |
| 2026-04-23 18:15 | 38.67386 | -123.35158 | 39202 ft | 536 kts | 141° |
| 2026-04-23 18:15 | 38.61968 | -123.28597 | 39209 ft | 536 kts | 141° |
| 2026-04-23 18:16 | 38.56541 | -123.22037 | 39183 ft | 537 kts | 141° |
| 2026-04-23 18:16 | 38.51102 | -123.15472 | 39194 ft | 538 kts | 141° |
| 2026-04-23 18:17 | 38.42934 | -123.05660 | 39155 ft | 538 kts | 141° |
| 2026-04-23 18:17 | 38.37486 | -122.99114 | 39175 ft | 538 kts | 141° |
| 2026-04-23 18:18 | 38.32027 | -122.92577 | 39182 ft | 539 kts | 141° |
| 2026-04-23 18:18 | 38.26560 | -122.86047 | 39189 ft | 539 kts | 142° |
| 2026-04-23 18:19 | 38.21089 | -122.79527 | 39188 ft | 539 kts | 142° |
| 2026-04-23 18:19 | 38.15614 | -122.73015 | 39181 ft | 539 kts | 142° |
| 2026-04-23 18:20 | 38.12883 | -122.69770 | 39059 ft | 535 kts | 142° |
| 2026-04-23 18:20 | 38.10190 | -122.66568 | 39161 ft | 526 kts | 142° |
| 2026-04-23 18:20 | 38.04893 | -122.60288 | 39180 ft | 518 kts | 142° |
| 2026-04-23 18:21 | 37.99621 | -122.54068 | 39183 ft | 518 kts | 143° |
| 2026-04-23 18:21 | 37.94334 | -122.47843 | 39211 ft | 518 kts | 143° |
| 2026-04-23 18:22 | 37.89054 | -122.41630 | 39204 ft | 519 kts | 143° |
| 2026-04-23 18:22 | 37.83763 | -122.35415 | 39186 ft | 518 kts | 143° |
| 2026-04-23 18:23 | 37.75823 | -122.26113 | 39184 ft | 519 kts | 143° |
| 2026-04-23 18:24 | 37.67823 | -122.16890 | 39169 ft | 518 kts | 144° |
| 2026-04-23 18:25 | 37.59716 | -122.07902 | 39176 ft | 517 kts | 145° |
| 2026-04-23 18:25 | 37.54316 | -122.01912 | 39183 ft | 518 kts | 145° |
| 2026-04-23 18:26 | 37.48912 | -121.95906 | 39179 ft | 518 kts | 145° |
| 2026-04-23 18:26 | 37.43510 | -121.89907 | 39174 ft | 518 kts | 145° |
| 2026-04-23 18:27 | 37.38109 | -121.83920 | 39169 ft | 517 kts | 145° |
| 2026-04-23 18:27 | 37.32708 | -121.77947 | 39191 ft | 517 kts | 145° |
| 2026-04-23 18:28 | 37.27331 | -121.72015 | 39187 ft | 519 kts | 145° |
| 2026-04-23 18:28 | 37.21906 | -121.66042 | 39238 ft | 519 kts | 146° |
| 2026-04-23 18:29 | 37.16485 | -121.60084 | 39240 ft | 518 kts | 146° |
| 2026-04-23 18:29 | 37.11072 | -121.54144 | 39233 ft | 518 kts | 146° |
| 2026-04-23 18:30 | 37.05646 | -121.48202 | 39203 ft | 518 kts | 146° |
| 2026-04-23 18:30 | 37.00219 | -121.42270 | 39190 ft | 518 kts | 146° |
| 2026-04-23 18:31 | 36.94789 | -121.36347 | 39183 ft | 518 kts | 146° |
| 2026-04-23 18:31 | 36.89366 | -121.30453 | 39271 ft | 516 kts | 146° |
| 2026-04-23 18:32 | 36.83945 | -121.24563 | 39263 ft | 517 kts | 146° |
| 2026-04-23 18:32 | 36.78508 | -121.18666 | 39260 ft | 518 kts | 146° |
| 2026-04-23 18:33 | 36.73052 | -121.12762 | 39262 ft | 518 kts | 146° |
| 2026-04-23 18:33 | 36.67603 | -121.06880 | 39259 ft | 518 kts | 146° |
| 2026-04-23 18:34 | 36.62153 | -121.01006 | 39260 ft | 518 kts | 146° |
| 2026-04-23 18:34 | 36.56703 | -120.95146 | 39264 ft | 517 kts | 146° |
| 2026-04-23 18:35 | 36.51253 | -120.89295 | 39258 ft | 518 kts | 146° |
| 2026-04-23 18:35 | 36.45828 | -120.83481 | 39256 ft | 518 kts | 146° |
| 2026-04-23 18:36 | 36.40371 | -120.77640 | 39259 ft | 518 kts | 146° |
| 2026-04-23 18:36 | 36.34904 | -120.71811 | 39252 ft | 518 kts | 146° |
| 2026-04-23 18:37 | 36.29446 | -120.65988 | 39252 ft | 518 kts | 146° |
| 2026-04-23 18:37 | 36.23984 | -120.60177 | 39252 ft | 517 kts | 146° |
| 2026-04-23 18:38 | 36.18527 | -120.54388 | 39243 ft | 517 kts | 146° |
| 2026-04-23 18:38 | 36.13067 | -120.48600 | 39248 ft | 517 kts | 146° |
| 2026-04-23 18:39 | 36.07610 | -120.42825 | 39244 ft | 516 kts | 146° |
| 2026-04-23 18:39 | 36.02158 | -120.37070 | 39248 ft | 515 kts | 146° |
| 2026-04-23 18:40 | 35.97624 | -120.32296 | 39248 ft | 516 kts | 146° |
| 2026-04-23 18:40 | 35.92165 | -120.26555 | 39241 ft | 515 kts | 146° |
| 2026-04-23 18:41 | 35.86708 | -120.20832 | 39242 ft | 514 kts | 146° |
| 2026-04-23 18:41 | 35.81259 | -120.15124 | 39240 ft | 514 kts | 146° |
| 2026-04-23 18:42 | 35.75805 | -120.09424 | 39243 ft | 514 kts | 146° |
| 2026-04-23 18:42 | 35.70351 | -120.03731 | 39241 ft | 514 kts | 146° |
| 2026-04-23 18:43 | 35.64891 | -119.98043 | 39239 ft | 514 kts | 146° |
| 2026-04-23 18:43 | 35.59457 | -119.92324 | 39225 ft | 514 kts | 145° |
| 2026-04-23 18:44 | 35.54064 | -119.86567 | 39229 ft | 513 kts | 145° |
| 2026-04-23 18:44 | 35.48670 | -119.80826 | 39239 ft | 513 kts | 145° |
| 2026-04-23 18:45 | 35.43268 | -119.75105 | 39213 ft | 513 kts | 145° |
| 2026-04-23 18:45 | 35.37871 | -119.69405 | 39229 ft | 511 kts | 145° |
| 2026-04-23 18:46 | 35.32485 | -119.63728 | 39230 ft | 510 kts | 145° |
| 2026-04-23 18:46 | 35.27101 | -119.58065 | 39202 ft | 510 kts | 145° |
| 2026-04-23 18:47 | 35.21720 | -119.52415 | 39227 ft | 509 kts | 144° |
| 2026-04-23 18:47 | 35.16349 | -119.46783 | 39230 ft | 508 kts | 145° |
| 2026-04-23 18:48 | 35.10981 | -119.41166 | 39215 ft | 508 kts | 145° |
| 2026-04-23 18:48 | 35.05612 | -119.35559 | 39214 ft | 508 kts | 144° |
| 2026-04-23 18:49 | 35.00236 | -119.29953 | 39200 ft | 508 kts | 144° |
| 2026-04-23 18:49 | 34.94855 | -119.24354 | 39212 ft | 508 kts | 144° |
| 2026-04-23 18:49 | 34.92169 | -119.21566 | 39084 ft | 508 kts | 144° |
| 2026-04-23 18:50 | 34.90388 | -119.19713 | 39077 ft | 509 kts | 149° |
| 2026-04-23 18:50 | 34.84008 | -119.13103 | 39089 ft | 520 kts | 149° |
| 2026-04-23 18:51 | 34.78461 | -119.07364 | 39097 ft | 528 kts | 149° |
| 2026-04-23 18:51 | 34.72816 | -119.01539 | 39083 ft | 535 kts | 149° |
| 2026-04-23 18:52 | 34.67150 | -118.95685 | 39090 ft | 534 kts | 148° |
| 2026-04-23 18:52 | 34.61495 | -118.89848 | 39064 ft | 532 kts | 149° |
| 2026-04-23 18:53 | 34.55850 | -118.84041 | 39023 ft | 532 kts | 149° |
| 2026-04-23 18:53 | 34.50165 | -118.78220 | 39053 ft | 536 kts | 149° |
| 2026-04-23 18:54 | 34.44470 | -118.72391 | 39072 ft | 536 kts | 149° |
| 2026-04-23 18:54 | 34.38771 | -118.66567 | 39096 ft | 537 kts | 149° |
| 2026-04-23 18:55 | 34.33057 | -118.60740 | 39150 ft | 537 kts | 149° |
| 2026-04-23 18:55 | 34.27337 | -118.54923 | 39183 ft | 538 kts | 149° |
| 2026-04-23 18:56 | 34.22577 | -118.50083 | 39183 ft | 538 kts | 149° |
| 2026-04-23 18:56 | 34.15881 | -118.43287 | 39181 ft | 539 kts | 150° |
| 2026-04-23 18:57 | 34.10133 | -118.37466 | 39198 ft | 539 kts | 150° |
| 2026-04-23 18:57 | 34.04382 | -118.31652 | 39194 ft | 539 kts | 150° |
| 2026-04-23 18:58 | 33.98668 | -118.25887 | 39220 ft | 540 kts | 150° |
| 2026-04-23 18:58 | 33.92897 | -118.20079 | 39206 ft | 541 kts | 150° |
| 2026-04-23 18:59 | 33.87123 | -118.14275 | 39205 ft | 541 kts | 150° |
| 2026-04-23 18:59 | 33.81340 | -118.08472 | 39158 ft | 541 kts | 150° |
| 2026-04-23 19:00 | 33.75592 | -118.02602 | 39176 ft | 546 kts | 147° |
| 2026-04-23 19:00 | 33.70153 | -117.96147 | 39213 ft | 551 kts | 143° |
| 2026-04-23 19:01 | 33.64792 | -117.89567 | 39187 ft | 551 kts | 143° |
| 2026-04-23 19:01 | 33.59377 | -117.83069 | 39208 ft | 550 kts | 144° |
| 2026-04-23 19:02 | 33.54849 | -117.77728 | 39177 ft | 549 kts | 144° |
| 2026-04-23 19:02 | 33.48471 | -117.70249 | 39129 ft | 549 kts | 144° |
| 2026-04-23 19:03 | 33.43007 | -117.63852 | 39102 ft | 548 kts | 144° |
| 2026-04-23 19:03 | 33.37553 | -117.57477 | 39144 ft | 548 kts | 144° |
| 2026-04-23 19:04 | 33.32100 | -117.51111 | 39172 ft | 547 kts | 144° |
| 2026-04-23 19:04 | 33.26649 | -117.44747 | 39182 ft | 550 kts | 143° |
| 2026-04-23 19:04 | 33.24141 | -117.41237 | 39193 ft | 561 kts | 132° |
| 2026-04-23 19:05 | 33.22026 | -117.37290 | 39193 ft | 566 kts | 127° |
| 2026-04-23 19:05 | 33.18141 | -117.29072 | 39190 ft | 570 kts | 124° |
| 2026-04-23 19:06 | 33.14380 | -117.20732 | 39185 ft | 570 kts | 124° |
| 2026-04-23 19:06 | 33.12498 | -117.16573 | 39068 ft | 570 kts | 124° |
| 2026-04-23 19:06 | 33.10604 | -117.12416 | 39053 ft | 570 kts | 124° |
| 2026-04-23 19:07 | 33.06800 | -117.04139 | 39056 ft | 569 kts | 124° |
| 2026-04-23 19:07 | 33.02981 | -116.95881 | 39192 ft | 569 kts | 124° |
| 2026-04-23 19:08 | 32.99158 | -116.87636 | 39195 ft | 569 kts | 124° |
| 2026-04-23 19:08 | 32.95328 | -116.79386 | 39171 ft | 570 kts | 124° |
| 2026-04-23 19:09 | 32.91486 | -116.71141 | 39124 ft | 569 kts | 124° |
| 2026-04-23 19:09 | 32.87642 | -116.62899 | 39084 ft | 570 kts | 124° |
| 2026-04-23 19:10 | 32.83796 | -116.54672 | 39050 ft | 569 kts | 124° |
| 2026-04-23 19:10 | 32.79939 | -116.46445 | 39004 ft | 570 kts | 124° |
| 2026-04-23 19:11 | 32.76257 | -116.38085 | 39029 ft | 571 kts | 122° |
| 2026-04-23 19:11 | 32.72675 | -116.29678 | 39031 ft | 571 kts | 122° |
| 2026-04-23 19:12 | 32.69674 | -116.22701 | 39027 ft | 570 kts | 122° |
| 2026-04-23 19:12 | 32.65439 | -116.12984 | 39019 ft | 570 kts | 122° |
| 2026-04-23 19:13 | 32.61780 | -116.04634 | 39019 ft | 569 kts | 122° |
| 2026-04-23 19:13 | 32.58135 | -115.96308 | 39015 ft | 568 kts | 122° |
| 2026-04-23 19:14 | 32.54468 | -115.88002 | 39021 ft | 569 kts | 122° |
| 2026-04-23 19:14 | 32.50802 | -115.79693 | 39018 ft | 569 kts | 122° |
| 2026-04-23 19:15 | 32.47131 | -115.71395 | 38996 ft | 568 kts | 123° |
| 2026-04-23 19:15 | 32.43466 | -115.63123 | 39009 ft | 566 kts | 122° |
| 2026-04-23 19:16 | 32.39798 | -115.54869 | 39023 ft | 567 kts | 123° |
| 2026-04-23 19:16 | 32.36124 | -115.46617 | 39005 ft | 567 kts | 122° |
| 2026-04-23 19:17 | 32.30606 | -115.34237 | 38987 ft | 567 kts | 123° |
| 2026-04-23 19:17 | 32.26911 | -115.26003 | 39016 ft | 566 kts | 123° |
| 2026-04-23 19:18 | 32.23226 | -115.17798 | 39017 ft | 565 kts | 123° |
| 2026-04-23 19:18 | 32.19542 | -115.09605 | 39019 ft | 565 kts | 123° |
| 2026-04-23 19:19 | 32.14004 | -114.97325 | 39051 ft | 565 kts | 123° |
| 2026-04-23 19:20 | 32.08471 | -114.85094 | 39076 ft | 563 kts | 123° |
| 2026-04-23 19:20 | 32.04781 | -114.76964 | 39072 ft | 562 kts | 123° |
| 2026-04-23 19:21 | 31.99233 | -114.64773 | 39071 ft | 562 kts | 123° |
| 2026-04-23 19:22 | 31.95533 | -114.56665 | 39073 ft | 561 kts | 123° |
| 2026-04-23 19:22 | 31.90617 | -114.45916 | 39071 ft | 560 kts | 123° |
| 2026-04-23 19:23 | 31.86920 | -114.37857 | 39074 ft | 560 kts | 123° |
| 2026-04-23 19:24 | 31.81360 | -114.25770 | 39061 ft | 560 kts | 123° |
| 2026-04-23 19:24 | 31.75795 | -114.13705 | 39065 ft | 559 kts | 123° |
| 2026-04-23 19:25 | 31.68366 | -113.97665 | 39063 ft | 559 kts | 123° |
| 2026-04-23 19:26 | 31.62773 | -113.85635 | 39059 ft | 559 kts | 123° |
| 2026-04-23 19:27 | 31.53448 | -113.65659 | 39056 ft | 558 kts | 123° |
| 2026-04-23 19:28 | 31.45975 | -113.49731 | 39056 ft | 558 kts | 123° |
| 2026-04-23 19:29 | 31.40360 | -113.37807 | 39055 ft | 556 kts | 123° |
| 2026-04-23 19:30 | 31.34148 | -113.26463 | 39055 ft | 548 kts | 134° |
| 2026-04-23 19:31 | 31.26943 | -113.16110 | 39051 ft | 547 kts | 136° |
| 2026-04-23 19:31 | 31.22087 | -113.09270 | 39046 ft | 547 kts | 135° |
| 2026-04-23 19:32 | 31.17240 | -113.02427 | 39042 ft | 547 kts | 135° |
| 2026-04-23 19:32 | 31.12398 | -112.95581 | 39034 ft | 547 kts | 135° |
| 2026-04-23 19:33 | 31.07583 | -112.88777 | 39033 ft | 547 kts | 135° |
| 2026-04-23 19:33 | 31.00310 | -112.78526 | 39032 ft | 546 kts | 135° |
| 2026-04-23 19:34 | 30.95459 | -112.71705 | 39022 ft | 546 kts | 135° |
| 2026-04-23 19:35 | 30.88180 | -112.61492 | 39025 ft | 546 kts | 135° |
| 2026-04-23 19:35 | 30.83322 | -112.54691 | 39005 ft | 546 kts | 135° |
| 2026-04-23 19:36 | 30.78465 | -112.47903 | 39020 ft | 546 kts | 135° |
| 2026-04-23 19:36 | 30.73604 | -112.41122 | 39016 ft | 546 kts | 135° |
| 2026-04-23 19:37 | 30.68740 | -112.34348 | 39017 ft | 546 kts | 135° |
| 2026-04-23 19:37 | 30.63872 | -112.27579 | 39013 ft | 546 kts | 135° |
| 2026-04-23 19:38 | 30.59001 | -112.20818 | 39019 ft | 545 kts | 135° |
| 2026-04-23 19:38 | 30.54135 | -112.14076 | 39010 ft | 545 kts | 135° |
| 2026-04-23 19:39 | 30.49264 | -112.07339 | 38998 ft | 545 kts | 135° |
| 2026-04-23 19:39 | 30.44392 | -112.00614 | 38982 ft | 543 kts | 135° |
| 2026-04-23 19:40 | 30.39521 | -111.93900 | 39002 ft | 545 kts | 135° |
| 2026-04-23 19:40 | 30.34641 | -111.87181 | 38998 ft | 545 kts | 135° |
| 2026-04-23 19:41 | 30.29758 | -111.80473 | 39005 ft | 545 kts | 135° |
| 2026-04-23 19:41 | 30.24871 | -111.73772 | 39002 ft | 546 kts | 135° |
| 2026-04-23 19:42 | 30.19969 | -111.67062 | 38987 ft | 546 kts | 135° |
| 2026-04-23 19:42 | 30.15072 | -111.60368 | 39004 ft | 545 kts | 135° |
| 2026-04-23 19:43 | 30.10176 | -111.53688 | 39005 ft | 545 kts | 135° |
| 2026-04-23 19:43 | 30.05277 | -111.47014 | 39004 ft | 545 kts | 135° |
| 2026-04-23 19:44 | 30.00375 | -111.40348 | 39001 ft | 545 kts | 135° |
| 2026-04-23 19:44 | 29.95475 | -111.33695 | 39000 ft | 544 kts | 135° |
| 2026-04-23 19:45 | 29.90576 | -111.27054 | 38993 ft | 544 kts | 135° |
| 2026-04-23 19:45 | 29.85674 | -111.20421 | 38996 ft | 543 kts | 135° |
| 2026-04-23 19:46 | 29.80769 | -111.13794 | 39005 ft | 543 kts | 135° |
| 2026-04-23 19:46 | 29.75857 | -111.07171 | 38989 ft | 545 kts | 135° |
| 2026-04-23 19:47 | 29.71769 | -111.01665 | 38986 ft | 544 kts | 135° |
| 2026-04-23 19:47 | 29.66019 | -110.93934 | 38985 ft | 544 kts | 135° |
| 2026-04-23 19:48 | 29.61096 | -110.87328 | 38985 ft | 544 kts | 135° |
| 2026-04-23 19:48 | 29.56173 | -110.80732 | 38985 ft | 544 kts | 135° |
| 2026-04-23 19:49 | 29.51275 | -110.74182 | 38981 ft | 544 kts | 135° |
| 2026-04-23 19:49 | 29.46340 | -110.67591 | 38983 ft | 544 kts | 135° |
| 2026-04-23 19:50 | 29.41407 | -110.61013 | 38982 ft | 544 kts | 135° |
| 2026-04-23 19:50 | 29.36469 | -110.54444 | 38982 ft | 544 kts | 135° |
| 2026-04-23 19:51 | 29.31530 | -110.47881 | 38978 ft | 543 kts | 135° |
| 2026-04-23 19:51 | 29.26598 | -110.41325 | 38986 ft | 544 kts | 135° |
| 2026-04-23 19:52 | 29.22488 | -110.35872 | 38986 ft | 544 kts | 135° |
| 2026-04-23 19:52 | 29.16705 | -110.28214 | 38996 ft | 544 kts | 135° |
| 2026-04-23 19:53 | 29.11757 | -110.21675 | 38995 ft | 544 kts | 135° |
| 2026-04-23 19:53 | 29.06809 | -110.15148 | 38968 ft | 542 kts | 135° |
| 2026-04-23 19:54 | 29.01856 | -110.08624 | 39005 ft | 544 kts | 135° |
| 2026-04-23 19:54 | 28.96887 | -110.02089 | 39001 ft | 545 kts | 135° |
| 2026-04-23 19:55 | 28.91912 | -109.95555 | 39010 ft | 545 kts | 135° |
| 2026-04-23 19:55 | 28.86933 | -109.89028 | 38997 ft | 545 kts | 135° |
| 2026-04-23 19:56 | 28.81962 | -109.82519 | 39004 ft | 544 kts | 135° |
| 2026-04-23 19:56 | 28.76985 | -109.76021 | 39003 ft | 544 kts | 134° |
| 2026-04-23 19:57 | 28.72031 | -109.69558 | 39010 ft | 545 kts | 135° |
| 2026-04-23 19:57 | 28.67854 | -109.64120 | 39040 ft | 544 kts | 135° |
| 2026-04-23 19:58 | 28.62064 | -109.56585 | 39004 ft | 545 kts | 135° |
| 2026-04-23 19:58 | 28.57075 | -109.50102 | 39026 ft | 544 kts | 135° |
| 2026-04-23 19:59 | 28.52083 | -109.43627 | 39029 ft | 545 kts | 135° |
| 2026-04-23 19:59 | 28.47085 | -109.37152 | 39048 ft | 545 kts | 135° |
| 2026-04-23 20:00 | 28.42077 | -109.30684 | 39043 ft | 545 kts | 135° |
| 2026-04-23 20:00 | 28.37071 | -109.24216 | 39069 ft | 545 kts | 135° |
| 2026-04-23 20:01 | 28.32065 | -109.17770 | 39074 ft | 544 kts | 135° |
| 2026-04-23 20:01 | 28.27051 | -109.11332 | 39081 ft | 544 kts | 135° |
| 2026-04-23 20:02 | 28.22026 | -109.04893 | 39079 ft | 546 kts | 135° |
| 2026-04-23 20:02 | 28.16984 | -108.98456 | 39052 ft | 546 kts | 135° |
| 2026-04-23 20:03 | 28.11950 | -108.92006 | 39076 ft | 547 kts | 135° |
| 2026-04-23 20:03 | 28.06941 | -108.85593 | 39081 ft | 541 kts | 135° |
| 2026-04-23 20:04 | 28.01939 | -108.79236 | 39063 ft | 542 kts | 135° |
| 2026-04-23 20:04 | 27.96913 | -108.72854 | 39061 ft | 544 kts | 135° |
| 2026-04-23 20:05 | 27.92732 | -108.67541 | 39037 ft | 544 kts | 135° |
| 2026-04-23 20:05 | 27.86829 | -108.60050 | 39059 ft | 546 kts | 135° |
| 2026-04-23 20:06 | 27.81771 | -108.53645 | 39070 ft | 546 kts | 135° |
| 2026-04-23 20:06 | 27.76723 | -108.47243 | 39070 ft | 546 kts | 135° |
| 2026-04-23 20:07 | 27.72528 | -108.41931 | 39058 ft | 544 kts | 137° |
| 2026-04-23 20:07 | 27.67537 | -108.35608 | 39085 ft | 530 kts | 137° |
| 2026-04-23 20:08 | 27.62624 | -108.29419 | 39082 ft | 530 kts | 137° |
| 2026-04-23 20:08 | 27.57708 | -108.23220 | 39044 ft | 529 kts | 137° |
| 2026-04-23 20:09 | 27.52829 | -108.17077 | 39099 ft | 530 kts | 137° |
| 2026-04-23 20:09 | 27.47859 | -108.10854 | 39093 ft | 531 kts | 138° |
| 2026-04-23 20:10 | 27.42918 | -108.04666 | 39073 ft | 531 kts | 137° |
| 2026-04-23 20:10 | 27.38002 | -107.98492 | 39081 ft | 530 kts | 137° |
| 2026-04-23 20:11 | 27.33076 | -107.92326 | 39070 ft | 530 kts | 137° |
| 2026-04-23 20:11 | 27.28131 | -107.86158 | 39082 ft | 533 kts | 137° |
| 2026-04-23 20:12 | 27.23184 | -107.79988 | 39063 ft | 530 kts | 138° |
| 2026-04-23 20:12 | 27.18241 | -107.73833 | 39064 ft | 530 kts | 138° |
| 2026-04-23 20:13 | 27.13310 | -107.67692 | 39057 ft | 529 kts | 138° |
| 2026-04-23 20:13 | 27.08367 | -107.61557 | 39060 ft | 529 kts | 138° |
| 2026-04-23 20:14 | 27.03465 | -107.55477 | 39061 ft | 529 kts | 138° |
| 2026-04-23 20:14 | 26.98518 | -107.49360 | 39061 ft | 529 kts | 138° |
| 2026-04-23 20:15 | 26.93571 | -107.43255 | 39047 ft | 529 kts | 137° |
| 2026-04-23 20:15 | 26.88616 | -107.37133 | 39072 ft | 530 kts | 137° |
| 2026-04-23 20:16 | 26.83637 | -107.31025 | 39071 ft | 532 kts | 138° |
| 2026-04-23 20:16 | 26.78624 | -107.24878 | 39061 ft | 534 kts | 137° |
| 2026-04-23 20:17 | 26.73643 | -107.18737 | 39066 ft | 532 kts | 137° |
| 2026-04-23 20:17 | 26.68670 | -107.12621 | 39065 ft | 531 kts | 137° |
| 2026-04-23 20:18 | 26.63697 | -107.06518 | 39066 ft | 531 kts | 137° |
| 2026-04-23 20:18 | 26.58709 | -107.00415 | 39064 ft | 533 kts | 138° |
| 2026-04-23 20:19 | 26.53692 | -106.94306 | 39032 ft | 535 kts | 138° |
| 2026-04-23 20:19 | 26.48662 | -106.88164 | 39049 ft | 536 kts | 138° |
| 2026-04-23 20:20 | 26.43627 | -106.82026 | 39062 ft | 534 kts | 137° |
| 2026-04-23 20:20 | 26.38602 | -106.75939 | 39021 ft | 531 kts | 137° |
| 2026-04-23 20:21 | 26.33598 | -106.69866 | 39055 ft | 532 kts | 137° |
| 2026-04-23 20:21 | 26.28575 | -106.63774 | 39061 ft | 534 kts | 137° |
| 2026-04-23 20:22 | 26.23531 | -106.57666 | 39052 ft | 536 kts | 137° |
| 2026-04-23 20:22 | 26.18479 | -106.51559 | 39050 ft | 535 kts | 137° |
| 2026-04-23 20:23 | 26.13444 | -106.45479 | 39045 ft | 533 kts | 137° |
| 2026-04-23 20:23 | 26.08413 | -106.39416 | 39037 ft | 533 kts | 137° |
| 2026-04-23 20:24 | 26.03419 | -106.33405 | 39024 ft | 533 kts | 137° |
| 2026-04-23 20:24 | 25.98373 | -106.27347 | 39024 ft | 534 kts | 137° |
| 2026-04-23 20:25 | 25.93321 | -106.21290 | 39030 ft | 534 kts | 137° |
| 2026-04-23 20:25 | 25.88272 | -106.15245 | 38998 ft | 534 kts | 137° |
| 2026-04-23 20:26 | 25.83225 | -106.09202 | 39012 ft | 533 kts | 137° |
| 2026-04-23 20:26 | 25.78180 | -106.03168 | 38971 ft | 533 kts | 137° |
| 2026-04-23 20:27 | 25.73127 | -105.97137 | 38976 ft | 534 kts | 137° |
| 2026-04-23 20:27 | 25.68075 | -105.91111 | 38958 ft | 534 kts | 137° |
| 2026-04-23 20:28 | 25.63019 | -105.85098 | 38940 ft | 532 kts | 136° |
| 2026-04-23 20:28 | 25.57984 | -105.79107 | 38962 ft | 531 kts | 136° |
| 2026-04-23 20:29 | 25.52953 | -105.73118 | 38927 ft | 531 kts | 136° |
| 2026-04-23 20:29 | 25.47921 | -105.67131 | 38921 ft | 531 kts | 136° |
| 2026-04-23 20:30 | 25.42881 | -105.61147 | 38898 ft | 531 kts | 136° |
| 2026-04-23 20:30 | 25.35310 | -105.52193 | 38905 ft | 532 kts | 136° |
| 2026-04-23 20:31 | 25.30256 | -105.46223 | 38894 ft | 532 kts | 136° |
| 2026-04-23 20:31 | 25.25200 | -105.40252 | 38891 ft | 532 kts | 136° |
| 2026-04-23 20:32 | 25.20147 | -105.34294 | 38888 ft | 531 kts | 136° |
| 2026-04-23 20:32 | 25.15093 | -105.28338 | 38890 ft | 531 kts | 136° |
| 2026-04-23 20:33 | 25.10044 | -105.22398 | 38886 ft | 530 kts | 135° |
| 2026-04-23 20:33 | 25.04991 | -105.16467 | 38889 ft | 530 kts | 135° |
| 2026-04-23 20:34 | 24.99941 | -105.10545 | 38889 ft | 530 kts | 135° |
| 2026-04-23 20:34 | 24.94887 | -105.04625 | 38878 ft | 530 kts | 135° |
| 2026-04-23 20:35 | 24.89832 | -104.98711 | 38878 ft | 530 kts | 136° |
| 2026-04-23 20:35 | 24.84774 | -104.92801 | 38821 ft | 529 kts | 135° |
| 2026-04-23 20:36 | 24.79733 | -104.86918 | 38812 ft | 528 kts | 135° |
| 2026-04-23 20:36 | 24.74685 | -104.81035 | 38818 ft | 528 kts | 135° |
| 2026-04-23 20:37 | 24.69638 | -104.75159 | 38818 ft | 528 kts | 135° |
| 2026-04-23 20:37 | 24.64587 | -104.69288 | 38822 ft | 528 kts | 135° |
| 2026-04-23 20:38 | 24.59540 | -104.63428 | 38794 ft | 528 kts | 135° |
| 2026-04-23 20:38 | 24.54500 | -104.57583 | 38810 ft | 526 kts | 135° |
| 2026-04-23 20:39 | 24.49468 | -104.51758 | 38806 ft | 525 kts | 135° |
| 2026-04-23 20:39 | 24.44443 | -104.45945 | 38857 ft | 525 kts | 135° |
| 2026-04-23 20:40 | 24.39412 | -104.40131 | 38908 ft | 525 kts | 135° |
| 2026-04-23 20:40 | 24.34380 | -104.34325 | 38937 ft | 525 kts | 135° |
| 2026-04-23 20:41 | 24.29331 | -104.28508 | 38925 ft | 530 kts | 135° |
| 2026-04-23 20:41 | 24.24201 | -104.22603 | 38907 ft | 537 kts | 135° |
| 2026-04-23 20:42 | 24.19057 | -104.16688 | 38848 ft | 536 kts | 135° |
| 2026-04-23 20:42 | 24.13905 | -104.10773 | 38813 ft | 536 kts | 135° |
| 2026-04-23 20:43 | 24.08759 | -104.04870 | 38820 ft | 536 kts | 135° |
| 2026-04-23 20:43 | 24.03610 | -103.98974 | 38821 ft | 536 kts | 135° |
| 2026-04-23 20:44 | 23.98451 | -103.93074 | 38822 ft | 536 kts | 135° |
| 2026-04-23 20:44 | 23.93295 | -103.87187 | 38845 ft | 536 kts | 135° |
| 2026-04-23 20:45 | 23.88133 | -103.81299 | 38845 ft | 538 kts | 135° |
| 2026-04-23 20:45 | 23.82949 | -103.75393 | 38858 ft | 539 kts | 135° |
| 2026-04-23 20:46 | 23.77791 | -103.69528 | 38860 ft | 538 kts | 135° |
| 2026-04-23 20:46 | 23.72615 | -103.63640 | 38869 ft | 536 kts | 135° |
| 2026-04-23 20:47 | 23.67464 | -103.57790 | 38856 ft | 534 kts | 135° |
| 2026-04-23 20:47 | 23.62317 | -103.51956 | 38855 ft | 534 kts | 135° |
| 2026-04-23 20:48 | 23.57166 | -103.46124 | 38856 ft | 535 kts | 135° |
| 2026-04-23 20:48 | 23.52003 | -103.40287 | 38853 ft | 535 kts | 135° |
| 2026-04-23 20:49 | 23.46844 | -103.34450 | 38847 ft | 534 kts | 135° |
| 2026-04-23 20:49 | 23.42535 | -103.29586 | 38837 ft | 532 kts | 135° |
| 2026-04-23 20:50 | 23.37393 | -103.23797 | 38848 ft | 531 kts | 135° |
| 2026-04-23 20:50 | 23.32259 | -103.18021 | 38838 ft | 531 kts | 135° |
| 2026-04-23 20:51 | 23.27120 | -103.12244 | 38846 ft | 531 kts | 135° |
| 2026-04-23 20:51 | 23.21982 | -103.06473 | 38848 ft | 531 kts | 135° |
| 2026-04-23 20:52 | 23.16846 | -103.00711 | 38845 ft | 529 kts | 135° |
| 2026-04-23 20:52 | 23.11728 | -102.94978 | 38896 ft | 528 kts | 135° |
| 2026-04-23 20:53 | 23.06616 | -102.89262 | 39022 ft | 528 kts | 135° |
| 2026-04-23 20:53 | 23.01499 | -102.83539 | 39143 ft | 528 kts | 135° |
| 2026-04-23 20:54 | 22.96383 | -102.77826 | 39264 ft | 528 kts | 135° |
| 2026-04-23 20:54 | 22.91268 | -102.72121 | 39274 ft | 527 kts | 135° |
| 2026-04-23 20:55 | 22.85652 | -102.67106 | 39294 ft | 521 kts | 147° |
| 2026-04-23 20:55 | 22.79674 | -102.62693 | 39255 ft | 519 kts | 149° |
| 2026-04-23 20:56 | 22.73641 | -102.58384 | 39142 ft | 519 kts | 149° |
| 2026-04-23 20:56 | 22.67651 | -102.54110 | 39036 ft | 519 kts | 149° |
| 2026-04-23 20:57 | 22.61623 | -102.49789 | 38925 ft | 519 kts | 149° |
| 2026-04-23 20:57 | 22.55623 | -102.45480 | 38880 ft | 516 kts | 149° |
| 2026-04-23 20:58 | 22.49656 | -102.41203 | 38883 ft | 514 kts | 149° |
| 2026-04-23 20:58 | 22.43692 | -102.36931 | 38890 ft | 514 kts | 149° |
| 2026-04-23 20:59 | 22.37721 | -102.32657 | 38876 ft | 515 kts | 149° |
| 2026-04-23 20:59 | 22.31743 | -102.28382 | 38885 ft | 515 kts | 149° |
| 2026-04-23 21:00 | 22.25778 | -102.24119 | 38883 ft | 512 kts | 149° |
| 2026-04-23 21:00 | 22.19846 | -102.19888 | 38881 ft | 510 kts | 149° |
| 2026-04-23 21:01 | 22.13925 | -102.15670 | 38881 ft | 510 kts | 149° |
| 2026-04-23 21:01 | 22.08011 | -102.11460 | 38883 ft | 510 kts | 149° |
| 2026-04-23 21:02 | 22.02088 | -102.07249 | 38885 ft | 510 kts | 149° |
| 2026-04-23 21:02 | 21.96172 | -102.03045 | 38904 ft | 508 kts | 149° |
| 2026-04-23 21:03 | 21.90256 | -101.98846 | 38901 ft | 510 kts | 149° |
| 2026-04-23 21:03 | 21.84324 | -101.94641 | 38906 ft | 511 kts | 149° |
| 2026-04-23 21:04 | 21.78391 | -101.90439 | 38906 ft | 511 kts | 149° |
| 2026-04-23 21:04 | 21.72453 | -101.86237 | 38920 ft | 511 kts | 149° |
| 2026-04-23 21:05 | 21.66521 | -101.82044 | 38917 ft | 509 kts | 149° |
| 2026-04-23 21:05 | 21.60661 | -101.77903 | 38923 ft | 507 kts | 150° |
| 2026-04-23 21:06 | 21.57971 | -101.75748 | 38923 ft | 509 kts | 141° |
| 2026-04-24 01:02 | 21.56794 | -101.74590 | 40115 ft | 510 kts | 135° |
| 2026-04-24 01:02 | 21.54476 | -101.71717 | 38427 ft | 509 kts | 125° |
| 2026-04-24 01:02 | 21.52383 | -101.68623 | 37348 ft | 517 kts | 123° |
| 2026-04-24 01:02 | 21.50364 | -101.65396 | 36431 ft | 522 kts | 122° |
| 2026-04-24 01:03 | 21.48384 | -101.62121 | 35698 ft | 524 kts | 121° |
| 2026-04-24 01:03 | 21.46413 | -101.58834 | 35045 ft | 523 kts | 122° |
| 2026-04-24 01:03 | 21.44438 | -101.55554 | 34502 ft | 521 kts | 122° |
| 2026-04-24 01:03 | 21.42468 | -101.52311 | 33994 ft | 517 kts | 122° |
| 2026-04-24 01:04 | 21.40501 | -101.49096 | 33444 ft | 513 kts | 123° |
| 2026-04-24 01:04 | 21.38545 | -101.45920 | 32978 ft | 507 kts | 123° |
| 2026-04-24 01:04 | 21.36606 | -101.42779 | 32497 ft | 502 kts | 123° |
| 2026-04-24 01:04 | 21.34685 | -101.39673 | 31990 ft | 499 kts | 123° |
| 2026-04-24 01:05 | 21.32773 | -101.36583 | 31478 ft | 495 kts | 123° |
| 2026-04-24 01:05 | 21.30877 | -101.33520 | 30988 ft | 491 kts | 123° |
| 2026-04-24 01:05 | 21.28999 | -101.30486 | 30509 ft | 487 kts | 123° |
| 2026-04-24 01:05 | 21.27132 | -101.27473 | 30031 ft | 483 kts | 123° |
| 2026-04-24 01:06 | 21.25280 | -101.24485 | 29497 ft | 480 kts | 123° |
| 2026-04-24 01:06 | 21.23441 | -101.21518 | 28939 ft | 476 kts | 123° |
| 2026-04-24 01:06 | 21.21614 | -101.18573 | 28443 ft | 472 kts | 123° |
| 2026-04-24 01:06 | 21.19804 | -101.15656 | 27956 ft | 468 kts | 123° |
| 2026-04-24 01:07 | 21.18010 | -101.12766 | 27452 ft | 464 kts | 123° |
| 2026-04-24 01:07 | 21.16230 | -101.09900 | 26955 ft | 460 kts | 123° |
| 2026-04-24 01:07 | 21.14462 | -101.07057 | 26458 ft | 457 kts | 123° |
| 2026-04-24 01:07 | 21.12707 | -101.04235 | 25974 ft | 454 kts | 123° |
| 2026-04-24 01:08 | 21.10966 | -101.01436 | 25493 ft | 450 kts | 123° |
| 2026-04-24 01:08 | 21.09264 | -100.98701 | 25035 ft | 447 kts | 123° |
| 2026-04-24 01:08 | 21.07542 | -100.95936 | 24558 ft | 443 kts | 123° |
| 2026-04-24 01:08 | 21.05791 | -100.93233 | 24095 ft | 440 kts | 127° |
| 2026-04-24 01:09 | 21.03927 | -100.90656 | 23630 ft | 437 kts | 128° |
| 2026-04-24 01:09 | 21.02054 | -100.88102 | 23149 ft | 433 kts | 128° |
| 2026-04-24 01:09 | 21.00213 | -100.85569 | 22888 ft | 431 kts | 128° |
| 2026-04-24 01:09 | 20.98379 | -100.83029 | 22853 ft | 431 kts | 128° |
| 2026-04-24 01:10 | 20.96551 | -100.80487 | 22855 ft | 431 kts | 128° |
| 2026-04-24 01:10 | 20.94725 | -100.77945 | 22856 ft | 431 kts | 128° |
| 2026-04-24 01:10 | 20.92841 | -100.75317 | 22856 ft | 431 kts | 128° |
| 2026-04-24 01:10 | 20.87817 | -100.68313 | 22860 ft | 430 kts | 128° |
| 2026-04-24 01:11 | 20.85998 | -100.65777 | 22855 ft | 431 kts | 128° |
| 2026-04-24 01:11 | 20.84172 | -100.63233 | 22854 ft | 431 kts | 128° |
| 2026-04-24 01:11 | 20.82351 | -100.60696 | 22855 ft | 431 kts | 128° |
| 2026-04-24 01:11 | 20.80527 | -100.58156 | 22849 ft | 430 kts | 127° |
| 2026-04-24 01:12 | 20.78705 | -100.55620 | 22852 ft | 429 kts | 127° |
| 2026-04-24 01:12 | 20.76886 | -100.53091 | 22851 ft | 429 kts | 127° |
| 2026-04-24 01:12 | 20.75066 | -100.50562 | 22851 ft | 429 kts | 127° |
| 2026-04-24 01:12 | 20.73248 | -100.48035 | 22851 ft | 429 kts | 127° |
| 2026-04-24 01:13 | 20.71428 | -100.45506 | 22852 ft | 429 kts | 127° |
| 2026-04-24 01:13 | 20.69607 | -100.42978 | 22851 ft | 429 kts | 127° |
| 2026-04-24 01:13 | 20.67786 | -100.40451 | 22850 ft | 430 kts | 127° |
| 2026-04-24 01:13 | 20.65960 | -100.37919 | 22851 ft | 430 kts | 127° |
| 2026-04-24 01:14 | 20.64136 | -100.35390 | 22847 ft | 430 kts | 128° |
| 2026-04-24 01:14 | 20.62311 | -100.32860 | 22847 ft | 430 kts | 128° |
| 2026-04-24 01:14 | 20.57189 | -100.25768 | 23202 ft | 429 kts | 128° |
| 2026-04-24 01:14 | 20.49887 | -100.15671 | 23159 ft | 430 kts | 127° |
| 2026-04-24 01:15 | 20.42605 | -100.05619 | 23028 ft | 429 kts | 127° |
| 2026-04-24 01:15 | 20.35288 | -99.95538 | 22554 ft | 428 kts | 127° |
| 2026-04-24 01:15 | 20.31161 | -99.89858 | 22852 ft | 429 kts | 128° |
| 2026-04-24 01:15 | 20.29334 | -99.87345 | 22854 ft | 429 kts | 127° |
| 2026-04-24 01:16 | 20.27507 | -99.84833 | 22866 ft | 429 kts | 127° |
| 2026-04-24 01:16 | 20.25677 | -99.82319 | 22861 ft | 429 kts | 128° |
| 2026-04-24 01:16 | 20.23848 | -99.79808 | 22859 ft | 430 kts | 128° |
| 2026-04-24 01:16 | 20.22037 | -99.77267 | 22857 ft | 430 kts | 124° |
| 2026-04-24 01:17 | 20.20609 | -99.74480 | 22864 ft | 429 kts | 111° |
| 2026-04-24 01:17 | 20.19603 | -99.71495 | 22877 ft | 428 kts | 107° |
| 2026-04-24 01:17 | 20.18681 | -99.68489 | 22866 ft | 427 kts | 107° |
| 2026-04-24 01:17 | 20.17763 | -99.65486 | 22867 ft | 427 kts | 107° |
| 2026-04-24 01:18 | 20.16842 | -99.62490 | 22786 ft | 424 kts | 107° |
| 2026-04-24 01:18 | 20.15927 | -99.59521 | 22251 ft | 420 kts | 107° |
| 2026-04-24 01:18 | 20.15011 | -99.56577 | 21698 ft | 418 kts | 107° |
| 2026-04-24 01:18 | 20.14101 | -99.53651 | 21204 ft | 414 kts | 107° |
| 2026-04-24 01:19 | 20.13201 | -99.50758 | 20733 ft | 410 kts | 107° |
| 2026-04-24 01:19 | 20.12310 | -99.47899 | 20264 ft | 405 kts | 107° |
| 2026-04-24 01:19 | 20.11437 | -99.45095 | 19764 ft | 403 kts | 108° |
| 2026-04-24 01:19 | 20.10558 | -99.42276 | 19227 ft | 401 kts | 108° |
| 2026-04-24 01:20 | 20.09684 | -99.39474 | 18816 ft | 396 kts | 108° |
| 2026-04-24 01:20 | 20.08819 | -99.36705 | 18417 ft | 391 kts | 108° |
| 2026-04-24 01:20 | 20.07963 | -99.33967 | 17884 ft | 390 kts | 108° |
| 2026-04-24 01:20 | 20.07110 | -99.31241 | 17322 ft | 387 kts | 108° |
| 2026-04-24 01:21 | 20.06261 | -99.28528 | 16758 ft | 386 kts | 108° |
| 2026-04-24 01:21 | 20.05418 | -99.25838 | 16283 ft | 381 kts | 108° |
| 2026-04-24 01:21 | 20.04584 | -99.23178 | 15823 ft | 377 kts | 108° |
| 2026-04-24 01:21 | 20.03758 | -99.20542 | 15655 ft | 376 kts | 108° |
| 2026-04-24 01:22 | 20.02927 | -99.17893 | 15643 ft | 378 kts | 108° |
| 2026-04-24 01:22 | 20.02095 | -99.15241 | 15669 ft | 378 kts | 108° |
| 2026-04-24 01:22 | 20.01262 | -99.12589 | 15699 ft | 378 kts | 108° |
| 2026-04-24 01:22 | 20.00430 | -99.09944 | 15726 ft | 377 kts | 108° |
| 2026-04-24 01:23 | 19.99599 | -99.07302 | 15748 ft | 378 kts | 108° |
| 2026-04-24 01:23 | 19.98765 | -99.04652 | 15767 ft | 379 kts | 108° |
| 2026-04-24 01:23 | 19.97926 | -99.01984 | 15784 ft | 381 kts | 108° |
| 2026-04-24 01:23 | 19.97091 | -98.99315 | 15798 ft | 380 kts | 107° |
| 2026-04-24 01:24 | 19.96476 | -98.96596 | 15802 ft | 377 kts | 99° |
| 2026-04-24 01:24 | 19.96055 | -98.93852 | 15622 ft | 374 kts | 98° |
| 2026-04-24 01:24 | 19.95662 | -98.91112 | 15006 ft | 376 kts | 98° |
| 2026-04-24 01:24 | 19.95270 | -98.88383 | 14496 ft | 373 kts | 98° |
| 2026-04-24 01:25 | 19.94876 | -98.85668 | 14035 ft | 369 kts | 98° |
| 2026-04-24 01:25 | 19.94286 | -98.83010 | 13380 ft | 371 kts | 108° |
| 2026-04-24 01:25 | 19.93406 | -98.80432 | 12801 ft | 370 kts | 111° |
| 2026-04-24 01:25 | 19.92434 | -98.77928 | 12331 ft | 364 kts | 116° |
| 2026-04-24 01:26 | 19.91047 | -98.75708 | 11903 ft | 358 kts | 132° |
| 2026-04-24 01:26 | 19.89136 | -98.74082 | 11752 ft | 351 kts | 152° |
| 2026-04-24 01:26 | 19.86825 | -98.73249 | 11733 ft | 353 kts | 174° |
| 2026-04-24 01:26 | 19.84393 | -98.73366 | 11753 ft | 350 kts | 191° |
| 2026-04-24 01:27 | 19.81983 | -98.73650 | 11765 ft | 347 kts | 180° |
| 2026-04-24 01:27 | 19.79632 | -98.73627 | 11761 ft | 328 kts | 181° |
| 2026-04-24 01:27 | 19.77425 | -98.73667 | 11766 ft | 309 kts | 184° |
| 2026-04-24 01:27 | 19.75339 | -98.73784 | 11766 ft | 291 kts | 186° |
| 2026-04-24 01:28 | 19.73381 | -98.73971 | 11772 ft | 273 kts | 188° |
| 2026-04-24 01:28 | 19.71551 | -98.74222 | 11773 ft | 258 kts | 190° |
| 2026-04-24 01:28 | 19.69814 | -98.74569 | 11776 ft | 252 kts | 198° |
| 2026-04-24 01:28 | 19.68174 | -98.75176 | 11660 ft | 249 kts | 204° |
| 2026-04-24 01:29 | 19.66571 | -98.75872 | 11653 ft | 249 kts | 205° |
| 2026-04-24 01:29 | 19.64982 | -98.76595 | 11653 ft | 249 kts | 206° |
| 2026-04-24 01:29 | 19.63393 | -98.77333 | 11661 ft | 249 kts | 207° |
| 2026-04-24 01:29 | 19.61821 | -98.78071 | 11443 ft | 245 kts | 206° |
| 2026-04-24 01:30 | 19.60260 | -98.78818 | 11137 ft | 247 kts | 207° |
| 2026-04-24 01:30 | 19.58929 | -98.79906 | 10811 ft | 243 kts | 231° |
| 2026-04-24 01:30 | 19.57926 | -98.81346 | 10537 ft | 240 kts | 240° |
| 2026-04-24 01:30 | 19.57101 | -98.82849 | 10383 ft | 232 kts | 241° |
| 2026-04-24 01:31 | 19.56303 | -98.84303 | 10232 ft | 226 kts | 240° |
| 2026-04-24 01:31 | 19.55513 | -98.85726 | 10030 ft | 221 kts | 240° |
| 2026-04-24 01:31 | 19.54744 | -98.87103 | 9935 ft | 211 kts | 239° |
| 2026-04-24 01:31 | 19.54015 | -98.88403 | 9859 ft | 199 kts | 239° |
| 2026-04-24 01:32 | 19.53307 | -98.89663 | 9888 ft | 198 kts | 240° |
| 2026-04-24 01:32 | 19.52605 | -98.90911 | 9887 ft | 197 kts | 239° |
| 2026-04-24 01:32 | 19.51903 | -98.92162 | 9904 ft | 198 kts | 239° |
| 2026-04-24 01:32 | 19.51203 | -98.93412 | 9790 ft | 194 kts | 239° |
| 2026-04-24 01:33 | 19.50530 | -98.94617 | 9655 ft | 188 kts | 239° |
| 2026-04-24 01:33 | 19.49875 | -98.95785 | 9540 ft | 186 kts | 238° |
| 2026-04-24 01:33 | 19.49215 | -98.96962 | 9426 ft | 185 kts | 239° |
| 2026-04-24 01:33 | 19.48573 | -98.98110 | 9240 ft | 174 kts | 238° |
| 2026-04-24 01:34 | 19.47976 | -98.99176 | 9014 ft | 163 kts | 237° |
| 2026-04-24 01:34 | 19.47401 | -99.00197 | 8715 ft | 161 kts | 238° |
| 2026-04-24 01:34 | 19.46816 | -99.01242 | 8406 ft | 168 kts | 239° |
| 2026-04-24 01:34 | 19.46217 | -99.02314 | 8079 ft | 169 kts | 239° |
| 2026-04-24 01:35 | 19.45618 | -99.03377 | 7762 ft | 166 kts | 240° |
| 2026-04-24 01:35 | 19.45025 | -99.04440 | 7515 ft | 168 kts | 240° |
| 2026-04-24 01:35 | 19.44430 | -99.05474 | 7351 ft | 160 kts | 245° |
| 2026-04-24 01:35 | 19.43896 | -99.06446 | 7317 ft | 145 kts | 239° |
| 2026-04-24 01:36 | 19.43433 | -99.07277 | 7309 ft | 98 kts | 239° |
| 2026-04-24 01:36 | 19.43196 | -99.07696 | 7312 ft | 48 kts | 239° |
| 2026-04-24 01:36 | 19.43055 | -99.07949 | 7311 ft | 32 kts | 239° |
| 2026-04-24 01:36 | 19.43015 | -99.08105 | 7309 ft | 19 kts | 272° |
| 2026-04-24 01:37 | 19.43017 | -99.08234 | 7309 ft | 17 kts | 271° |
| 2026-04-24 01:37 | 19.43021 | -99.08337 | 7309 ft | 14 kts | 272° |
| 2026-04-24 01:37 | 19.43022 | -99.08445 | 7309 ft | 15 kts | 271° |
| 2026-04-24 01:37 | 19.43026 | -99.08547 | 7308 ft | 8 kts | 282° |
| 2026-04-24 01:38 | 19.43057 | -99.08593 | 7309 ft | 8 kts | 320° |
| 2026-04-24 01:38 | 19.43109 | -99.08612 | 7309 ft | 9 kts | 4° |
| 2026-04-24 01:38 | 19.43144 | -99.08585 | 7309 ft | 6 kts | 43° |
| 2026-04-24 01:38 | 19.43180 | -99.08536 | 7309 ft | 11 kts | 56° |
| 2026-04-24 01:39 | 19.43225 | -99.08453 | 7309 ft | 15 kts | 60° |
| 2026-04-24 01:39 | 19.43286 | -99.08345 | 7309 ft | 20 kts | 58° |
| 2026-04-24 01:39 | 19.43361 | -99.08215 | 7309 ft | 22 kts | 59° |
| 2026-04-24 01:39 | 19.43443 | -99.08071 | 7309 ft | 21 kts | 60° |
| 2026-04-24 01:40 | 19.43530 | -99.08028 | 7309 ft | 8 kts | 327° |
| 2026-04-24 01:40 | 19.43549 | -99.08046 | 7309 ft | 0 kts | 323° |